<?xml version="1.0" encoding="UTF-8" standalone="no" ?>
<gpx xmlns="http://www.topografix.com/GPX/1/1" xmlns:xsi="http://www.w3.org/2001/XMLSchema-instance" xsi:schemaLocation="http://www.topografix.com/GPX/1/1 http://www.topografix.com/GPX/1/1/gpx.xsd" version="1.1" creator="VisuGPX - https://www.visugpx.com">
  <metadata>
    <name>Plo de Laurier</name>
    <desc><![CDATA[Randonnée que l'on retrouve sur d'autres sites, à découvrir le village de Lunas, la chapelle St Georges, le parc éolien (en attente de démolition), château de Dio, parcours en balcon avec de superbes vues, etc.
Par endroit il faut se frayer le passage (bartassage)
]]></desc>
  </metadata>
  <trk>
    <name><![CDATA[Randonnée du 15/12/2023 à 09:28]]></name>
    <trkseg>
      <trkpt lat="43.70623" lon="3.19167">
        <ele>274</ele>
        <time>2023-12-15T09:28:24+01:00</time>
      </trkpt>
      <trkpt lat="43.70628" lon="3.19178">
        <ele>274</ele>
        <time>2023-12-15T09:28:51+01:00</time>
      </trkpt>
      <trkpt lat="43.70638" lon="3.19173">
        <ele>273</ele>
        <time>2023-12-15T09:29:01+01:00</time>
      </trkpt>
      <trkpt lat="43.70646" lon="3.19183">
        <ele>273</ele>
        <time>2023-12-15T09:29:15+01:00</time>
      </trkpt>
      <trkpt lat="43.70652" lon="3.19196">
        <ele>273</ele>
        <time>2023-12-15T09:29:24+01:00</time>
      </trkpt>
      <trkpt lat="43.70659" lon="3.19209">
        <ele>273</ele>
        <time>2023-12-15T09:29:34+01:00</time>
      </trkpt>
      <trkpt lat="43.70662" lon="3.19224">
        <ele>273</ele>
        <time>2023-12-15T09:29:44+01:00</time>
      </trkpt>
      <trkpt lat="43.7067" lon="3.19239">
        <ele>273</ele>
        <time>2023-12-15T09:29:59+01:00</time>
      </trkpt>
      <trkpt lat="43.70674" lon="3.19255">
        <ele>273</ele>
        <time>2023-12-15T09:30:08+01:00</time>
      </trkpt>
      <trkpt lat="43.70677" lon="3.19268">
        <ele>273</ele>
        <time>2023-12-15T09:30:17+01:00</time>
      </trkpt>
      <trkpt lat="43.70684" lon="3.19289">
        <ele>273</ele>
        <time>2023-12-15T09:30:31+01:00</time>
      </trkpt>
      <trkpt lat="43.7069" lon="3.19305">
        <ele>273</ele>
        <time>2023-12-15T09:30:40+01:00</time>
      </trkpt>
      <trkpt lat="43.70696" lon="3.19317">
        <ele>273</ele>
        <time>2023-12-15T09:30:50+01:00</time>
      </trkpt>
      <trkpt lat="43.70696" lon="3.19333">
        <ele>273</ele>
        <time>2023-12-15T09:30:59+01:00</time>
      </trkpt>
      <trkpt lat="43.70706" lon="3.19345">
        <ele>274</ele>
        <time>2023-12-15T09:31:14+01:00</time>
      </trkpt>
      <trkpt lat="43.70704" lon="3.19363">
        <ele>274</ele>
        <time>2023-12-15T09:31:23+01:00</time>
      </trkpt>
      <trkpt lat="43.70706" lon="3.19382">
        <ele>274</ele>
        <time>2023-12-15T09:31:32+01:00</time>
      </trkpt>
      <trkpt lat="43.7071" lon="3.19399">
        <ele>274</ele>
        <time>2023-12-15T09:31:42+01:00</time>
      </trkpt>
      <trkpt lat="43.70713" lon="3.19411">
        <ele>274</ele>
        <time>2023-12-15T09:31:51+01:00</time>
      </trkpt>
      <trkpt lat="43.70706" lon="3.19423">
        <ele>276</ele>
        <time>2023-12-15T09:32:00+01:00</time>
      </trkpt>
      <trkpt lat="43.70698" lon="3.19434">
        <ele>277</ele>
        <time>2023-12-15T09:32:10+01:00</time>
      </trkpt>
      <trkpt lat="43.70695" lon="3.19447">
        <ele>278</ele>
        <time>2023-12-15T09:32:19+01:00</time>
      </trkpt>
      <trkpt lat="43.70701" lon="3.19461">
        <ele>278</ele>
        <time>2023-12-15T09:32:33+01:00</time>
      </trkpt>
      <trkpt lat="43.70697" lon="3.19473">
        <ele>279</ele>
        <time>2023-12-15T09:32:42+01:00</time>
      </trkpt>
      <trkpt lat="43.70686" lon="3.19482">
        <ele>282</ele>
        <time>2023-12-15T09:32:53+01:00</time>
      </trkpt>
      <trkpt lat="43.70691" lon="3.19471">
        <ele>280</ele>
        <time>2023-12-15T09:33:12+01:00</time>
      </trkpt>
      <trkpt lat="43.70699" lon="3.19458">
        <ele>278</ele>
        <time>2023-12-15T09:33:21+01:00</time>
      </trkpt>
      <trkpt lat="43.70708" lon="3.19464">
        <ele>277</ele>
        <time>2023-12-15T09:33:35+01:00</time>
      </trkpt>
      <trkpt lat="43.70713" lon="3.19474">
        <ele>277</ele>
        <time>2023-12-15T09:33:45+01:00</time>
      </trkpt>
      <trkpt lat="43.70717" lon="3.19488">
        <ele>280</ele>
        <time>2023-12-15T09:33:54+01:00</time>
      </trkpt>
      <trkpt lat="43.70732" lon="3.19496">
        <ele>279</ele>
        <time>2023-12-15T09:34:17+01:00</time>
      </trkpt>
      <trkpt lat="43.70743" lon="3.19508">
        <ele>280</ele>
        <time>2023-12-15T09:34:27+01:00</time>
      </trkpt>
      <trkpt lat="43.70752" lon="3.19518">
        <ele>280</ele>
        <time>2023-12-15T09:34:41+01:00</time>
      </trkpt>
      <trkpt lat="43.70759" lon="3.19529">
        <ele>281</ele>
        <time>2023-12-15T09:34:50+01:00</time>
      </trkpt>
      <trkpt lat="43.70763" lon="3.19544">
        <ele>286</ele>
        <time>2023-12-15T09:35:04+01:00</time>
      </trkpt>
      <trkpt lat="43.70774" lon="3.19553">
        <ele>282</ele>
        <time>2023-12-15T09:35:18+01:00</time>
      </trkpt>
      <trkpt lat="43.70781" lon="3.19564">
        <ele>283</ele>
        <time>2023-12-15T09:35:27+01:00</time>
      </trkpt>
      <trkpt lat="43.70787" lon="3.19573">
        <ele>285</ele>
        <time>2023-12-15T09:35:37+01:00</time>
      </trkpt>
      <trkpt lat="43.70787" lon="3.19559">
        <ele>280</ele>
        <time>2023-12-15T09:36:20+01:00</time>
      </trkpt>
      <trkpt lat="43.70792" lon="3.19572">
        <ele>282</ele>
        <time>2023-12-15T09:37:00+01:00</time>
      </trkpt>
      <trkpt lat="43.70798" lon="3.19584">
        <ele>283</ele>
        <time>2023-12-15T09:37:09+01:00</time>
      </trkpt>
      <trkpt lat="43.70799" lon="3.19604">
        <ele>284</ele>
        <time>2023-12-15T09:37:19+01:00</time>
      </trkpt>
      <trkpt lat="43.70792" lon="3.19614">
        <ele>288</ele>
        <time>2023-12-15T09:37:53+01:00</time>
      </trkpt>
      <trkpt lat="43.70792" lon="3.19626">
        <ele>289</ele>
        <time>2023-12-15T09:37:57+01:00</time>
      </trkpt>
      <trkpt lat="43.70786" lon="3.19643">
        <ele>293</ele>
        <time>2023-12-15T09:38:08+01:00</time>
      </trkpt>
      <trkpt lat="43.70788" lon="3.19659">
        <ele>292</ele>
        <time>2023-12-15T09:38:17+01:00</time>
      </trkpt>
      <trkpt lat="43.70784" lon="3.19675">
        <ele>293</ele>
        <time>2023-12-15T09:38:26+01:00</time>
      </trkpt>
      <trkpt lat="43.70784" lon="3.19692">
        <ele>293</ele>
        <time>2023-12-15T09:38:36+01:00</time>
      </trkpt>
      <trkpt lat="43.70791" lon="3.19714">
        <ele>292</ele>
        <time>2023-12-15T09:38:45+01:00</time>
      </trkpt>
      <trkpt lat="43.70791" lon="3.19733">
        <ele>293</ele>
        <time>2023-12-15T09:38:55+01:00</time>
      </trkpt>
      <trkpt lat="43.70795" lon="3.19749">
        <ele>291</ele>
        <time>2023-12-15T09:39:05+01:00</time>
      </trkpt>
      <trkpt lat="43.708" lon="3.19766">
        <ele>289</ele>
        <time>2023-12-15T09:39:14+01:00</time>
      </trkpt>
      <trkpt lat="43.70795" lon="3.19778">
        <ele>291</ele>
        <time>2023-12-15T09:39:24+01:00</time>
      </trkpt>
      <trkpt lat="43.70792" lon="3.19795">
        <ele>291</ele>
        <time>2023-12-15T09:39:33+01:00</time>
      </trkpt>
      <trkpt lat="43.70782" lon="3.19812">
        <ele>291</ele>
        <time>2023-12-15T09:39:43+01:00</time>
      </trkpt>
      <trkpt lat="43.70775" lon="3.19823">
        <ele>292</ele>
        <time>2023-12-15T09:39:52+01:00</time>
      </trkpt>
      <trkpt lat="43.70764" lon="3.19834">
        <ele>295</ele>
        <time>2023-12-15T09:40:02+01:00</time>
      </trkpt>
      <trkpt lat="43.70758" lon="3.19845">
        <ele>296</ele>
        <time>2023-12-15T09:40:11+01:00</time>
      </trkpt>
      <trkpt lat="43.70752" lon="3.19856">
        <ele>296</ele>
        <time>2023-12-15T09:40:21+01:00</time>
      </trkpt>
      <trkpt lat="43.70747" lon="3.19868">
        <ele>296</ele>
        <time>2023-12-15T09:40:30+01:00</time>
      </trkpt>
      <trkpt lat="43.70743" lon="3.19879">
        <ele>297</ele>
        <time>2023-12-15T09:40:35+01:00</time>
      </trkpt>
      <trkpt lat="43.70743" lon="3.19896">
        <ele>295</ele>
        <time>2023-12-15T09:40:44+01:00</time>
      </trkpt>
      <trkpt lat="43.70736" lon="3.1991">
        <ele>298</ele>
        <time>2023-12-15T09:40:54+01:00</time>
      </trkpt>
      <trkpt lat="43.70732" lon="3.19928">
        <ele>298</ele>
        <time>2023-12-15T09:41:03+01:00</time>
      </trkpt>
      <trkpt lat="43.70729" lon="3.19943">
        <ele>298</ele>
        <time>2023-12-15T09:41:13+01:00</time>
      </trkpt>
      <trkpt lat="43.70726" lon="3.19957">
        <ele>298</ele>
        <time>2023-12-15T09:41:22+01:00</time>
      </trkpt>
      <trkpt lat="43.70726" lon="3.19973">
        <ele>297</ele>
        <time>2023-12-15T09:41:32+01:00</time>
      </trkpt>
      <trkpt lat="43.70723" lon="3.19956">
        <ele>299</ele>
        <time>2023-12-15T09:41:46+01:00</time>
      </trkpt>
      <trkpt lat="43.70718" lon="3.19941">
        <ele>303</ele>
        <time>2023-12-15T09:41:55+01:00</time>
      </trkpt>
      <trkpt lat="43.7072" lon="3.19924">
        <ele>304</ele>
        <time>2023-12-15T09:42:05+01:00</time>
      </trkpt>
      <trkpt lat="43.70723" lon="3.19909">
        <ele>305</ele>
        <time>2023-12-15T09:42:14+01:00</time>
      </trkpt>
      <trkpt lat="43.70725" lon="3.19892">
        <ele>305</ele>
        <time>2023-12-15T09:42:25+01:00</time>
      </trkpt>
      <trkpt lat="43.70731" lon="3.19878">
        <ele>304</ele>
        <time>2023-12-15T09:42:34+01:00</time>
      </trkpt>
      <trkpt lat="43.70733" lon="3.19862">
        <ele>305</ele>
        <time>2023-12-15T09:42:43+01:00</time>
      </trkpt>
      <trkpt lat="43.70739" lon="3.19849">
        <ele>305</ele>
        <time>2023-12-15T09:42:53+01:00</time>
      </trkpt>
      <trkpt lat="43.70745" lon="3.19837">
        <ele>304</ele>
        <time>2023-12-15T09:43:02+01:00</time>
      </trkpt>
      <trkpt lat="43.70753" lon="3.19823">
        <ele>303</ele>
        <time>2023-12-15T09:43:12+01:00</time>
      </trkpt>
      <trkpt lat="43.70759" lon="3.19812">
        <ele>302</ele>
        <time>2023-12-15T09:43:21+01:00</time>
      </trkpt>
      <trkpt lat="43.70755" lon="3.19825">
        <ele>302</ele>
        <time>2023-12-15T09:43:54+01:00</time>
      </trkpt>
      <trkpt lat="43.70747" lon="3.1984">
        <ele>302</ele>
        <time>2023-12-15T09:44:04+01:00</time>
      </trkpt>
      <trkpt lat="43.70742" lon="3.19851">
        <ele>302</ele>
        <time>2023-12-15T09:44:13+01:00</time>
      </trkpt>
      <trkpt lat="43.70733" lon="3.19861">
        <ele>306</ele>
        <time>2023-12-15T09:44:22+01:00</time>
      </trkpt>
      <trkpt lat="43.70726" lon="3.19873">
        <ele>308</ele>
        <time>2023-12-15T09:44:41+01:00</time>
      </trkpt>
      <trkpt lat="43.70721" lon="3.19886">
        <ele>308</ele>
        <time>2023-12-15T09:44:51+01:00</time>
      </trkpt>
      <trkpt lat="43.7072" lon="3.19873">
        <ele>311</ele>
        <time>2023-12-15T09:45:25+01:00</time>
      </trkpt>
      <trkpt lat="43.70715" lon="3.19857">
        <ele>316</ele>
        <time>2023-12-15T09:45:39+01:00</time>
      </trkpt>
      <trkpt lat="43.70719" lon="3.19843">
        <ele>316</ele>
        <time>2023-12-15T09:46:24+01:00</time>
      </trkpt>
      <trkpt lat="43.70714" lon="3.19832">
        <ele>320</ele>
        <time>2023-12-15T09:46:38+01:00</time>
      </trkpt>
      <trkpt lat="43.70719" lon="3.19819">
        <ele>320</ele>
        <time>2023-12-15T09:46:52+01:00</time>
      </trkpt>
      <trkpt lat="43.70728" lon="3.19809">
        <ele>318</ele>
        <time>2023-12-15T09:47:07+01:00</time>
      </trkpt>
      <trkpt lat="43.70732" lon="3.19797">
        <ele>319</ele>
        <time>2023-12-15T09:47:22+01:00</time>
      </trkpt>
      <trkpt lat="43.70739" lon="3.19786">
        <ele>317</ele>
        <time>2023-12-15T09:47:46+01:00</time>
      </trkpt>
      <trkpt lat="43.70738" lon="3.19773">
        <ele>319</ele>
        <time>2023-12-15T09:47:56+01:00</time>
      </trkpt>
      <trkpt lat="43.70742" lon="3.19755">
        <ele>319</ele>
        <time>2023-12-15T09:48:06+01:00</time>
      </trkpt>
      <trkpt lat="43.70738" lon="3.19743">
        <ele>322</ele>
        <time>2023-12-15T09:48:20+01:00</time>
      </trkpt>
      <trkpt lat="43.70734" lon="3.19728">
        <ele>325</ele>
        <time>2023-12-15T09:48:33+01:00</time>
      </trkpt>
      <trkpt lat="43.70735" lon="3.19714">
        <ele>326</ele>
        <time>2023-12-15T09:48:53+01:00</time>
      </trkpt>
      <trkpt lat="43.70731" lon="3.19695">
        <ele>329</ele>
        <time>2023-12-15T09:49:16+01:00</time>
      </trkpt>
      <trkpt lat="43.70729" lon="3.19681">
        <ele>331</ele>
        <time>2023-12-15T09:49:26+01:00</time>
      </trkpt>
      <trkpt lat="43.70725" lon="3.19692">
        <ele>332</ele>
        <time>2023-12-15T09:49:40+01:00</time>
      </trkpt>
      <trkpt lat="43.70723" lon="3.19706">
        <ele>333</ele>
        <time>2023-12-15T09:50:03+01:00</time>
      </trkpt>
      <trkpt lat="43.70714" lon="3.19705">
        <ele>334</ele>
        <time>2023-12-15T09:50:18+01:00</time>
      </trkpt>
      <trkpt lat="43.7071" lon="3.19692">
        <ele>335</ele>
        <time>2023-12-15T09:50:27+01:00</time>
      </trkpt>
      <trkpt lat="43.70711" lon="3.19679">
        <ele>335</ele>
        <time>2023-12-15T09:50:50+01:00</time>
      </trkpt>
      <trkpt lat="43.70711" lon="3.19693">
        <ele>335</ele>
        <time>2023-12-15T09:51:28+01:00</time>
      </trkpt>
      <trkpt lat="43.70701" lon="3.1969">
        <ele>336</ele>
        <time>2023-12-15T09:52:30+01:00</time>
      </trkpt>
      <trkpt lat="43.70693" lon="3.1968">
        <ele>335</ele>
        <time>2023-12-15T09:53:10+01:00</time>
      </trkpt>
      <trkpt lat="43.70703" lon="3.19688">
        <ele>335</ele>
        <time>2023-12-15T09:54:09+01:00</time>
      </trkpt>
      <trkpt lat="43.70695" lon="3.19677">
        <ele>336</ele>
        <time>2023-12-15T09:54:33+01:00</time>
      </trkpt>
      <trkpt lat="43.70688" lon="3.19668">
        <ele>333</ele>
        <time>2023-12-15T09:54:47+01:00</time>
      </trkpt>
      <trkpt lat="43.7068" lon="3.19681">
        <ele>330</ele>
        <time>2023-12-15T09:55:10+01:00</time>
      </trkpt>
      <trkpt lat="43.70683" lon="3.19697">
        <ele>332</ele>
        <time>2023-12-15T09:55:24+01:00</time>
      </trkpt>
      <trkpt lat="43.70688" lon="3.19709">
        <ele>333</ele>
        <time>2023-12-15T09:55:34+01:00</time>
      </trkpt>
      <trkpt lat="43.70686" lon="3.19723">
        <ele>331</ele>
        <time>2023-12-15T09:55:52+01:00</time>
      </trkpt>
      <trkpt lat="43.70675" lon="3.19716">
        <ele>328</ele>
        <time>2023-12-15T09:56:11+01:00</time>
      </trkpt>
      <trkpt lat="43.70677" lon="3.19734">
        <ele>327</ele>
        <time>2023-12-15T09:56:59+01:00</time>
      </trkpt>
      <trkpt lat="43.70678" lon="3.19747">
        <ele>326</ele>
        <time>2023-12-15T09:57:08+01:00</time>
      </trkpt>
      <trkpt lat="43.70678" lon="3.19763">
        <ele>325</ele>
        <time>2023-12-15T09:57:22+01:00</time>
      </trkpt>
      <trkpt lat="43.70673" lon="3.19777">
        <ele>322</ele>
        <time>2023-12-15T09:57:32+01:00</time>
      </trkpt>
      <trkpt lat="43.70674" lon="3.1979">
        <ele>322</ele>
        <time>2023-12-15T09:57:41+01:00</time>
      </trkpt>
      <trkpt lat="43.70667" lon="3.19775">
        <ele>319</ele>
        <time>2023-12-15T09:59:33+01:00</time>
      </trkpt>
      <trkpt lat="43.7066" lon="3.19762">
        <ele>316</ele>
        <time>2023-12-15T09:59:47+01:00</time>
      </trkpt>
      <trkpt lat="43.70656" lon="3.19751">
        <ele>314</ele>
        <time>2023-12-15T10:00:01+01:00</time>
      </trkpt>
      <trkpt lat="43.7065" lon="3.19738">
        <ele>311</ele>
        <time>2023-12-15T10:00:15+01:00</time>
      </trkpt>
      <trkpt lat="43.70645" lon="3.19727">
        <ele>308</ele>
        <time>2023-12-15T10:00:29+01:00</time>
      </trkpt>
      <trkpt lat="43.70637" lon="3.1972">
        <ele>303</ele>
        <time>2023-12-15T10:00:43+01:00</time>
      </trkpt>
      <trkpt lat="43.7063" lon="3.19709">
        <ele>301</ele>
        <time>2023-12-15T10:00:58+01:00</time>
      </trkpt>
      <trkpt lat="43.70626" lon="3.19696">
        <ele>299</ele>
        <time>2023-12-15T10:01:12+01:00</time>
      </trkpt>
      <trkpt lat="43.70618" lon="3.19704">
        <ele>295</ele>
        <time>2023-12-15T10:01:44+01:00</time>
      </trkpt>
      <trkpt lat="43.7062" lon="3.19718">
        <ele>296</ele>
        <time>2023-12-15T10:01:59+01:00</time>
      </trkpt>
      <trkpt lat="43.70625" lon="3.1973">
        <ele>298</ele>
        <time>2023-12-15T10:02:09+01:00</time>
      </trkpt>
      <trkpt lat="43.70617" lon="3.19738">
        <ele>295</ele>
        <time>2023-12-15T10:02:27+01:00</time>
      </trkpt>
      <trkpt lat="43.70618" lon="3.19755">
        <ele>297</ele>
        <time>2023-12-15T10:02:36+01:00</time>
      </trkpt>
      <trkpt lat="43.70616" lon="3.19772">
        <ele>298</ele>
        <time>2023-12-15T10:02:46+01:00</time>
      </trkpt>
      <trkpt lat="43.7062" lon="3.19783">
        <ele>300</ele>
        <time>2023-12-15T10:02:56+01:00</time>
      </trkpt>
      <trkpt lat="43.70616" lon="3.19794">
        <ele>301</ele>
        <time>2023-12-15T10:03:14+01:00</time>
      </trkpt>
      <trkpt lat="43.70607" lon="3.19806">
        <ele>301</ele>
        <time>2023-12-15T10:03:29+01:00</time>
      </trkpt>
      <trkpt lat="43.70604" lon="3.19818">
        <ele>303</ele>
        <time>2023-12-15T10:04:22+01:00</time>
      </trkpt>
      <trkpt lat="43.70596" lon="3.19829">
        <ele>304</ele>
        <time>2023-12-15T10:04:36+01:00</time>
      </trkpt>
      <trkpt lat="43.70587" lon="3.19839">
        <ele>304</ele>
        <time>2023-12-15T10:04:45+01:00</time>
      </trkpt>
      <trkpt lat="43.70579" lon="3.19845">
        <ele>305</ele>
        <time>2023-12-15T10:05:16+01:00</time>
      </trkpt>
      <trkpt lat="43.70569" lon="3.19836">
        <ele>301</ele>
        <time>2023-12-15T10:07:56+01:00</time>
      </trkpt>
      <trkpt lat="43.70578" lon="3.19832">
        <ele>302</ele>
        <time>2023-12-15T10:09:15+01:00</time>
      </trkpt>
      <trkpt lat="43.70588" lon="3.19826">
        <ele>302</ele>
        <time>2023-12-15T10:10:54+01:00</time>
      </trkpt>
      <trkpt lat="43.70596" lon="3.19814">
        <ele>301</ele>
        <time>2023-12-15T10:11:04+01:00</time>
      </trkpt>
      <trkpt lat="43.70606" lon="3.19807">
        <ele>301</ele>
        <time>2023-12-15T10:11:18+01:00</time>
      </trkpt>
      <trkpt lat="43.70611" lon="3.19792">
        <ele>300</ele>
        <time>2023-12-15T10:11:32+01:00</time>
      </trkpt>
      <trkpt lat="43.70601" lon="3.19796">
        <ele>300</ele>
        <time>2023-12-15T10:11:55+01:00</time>
      </trkpt>
      <trkpt lat="43.70593" lon="3.19803">
        <ele>300</ele>
        <time>2023-12-15T10:12:10+01:00</time>
      </trkpt>
      <trkpt lat="43.70582" lon="3.19809">
        <ele>299</ele>
        <time>2023-12-15T10:12:19+01:00</time>
      </trkpt>
      <trkpt lat="43.70571" lon="3.19816">
        <ele>300</ele>
        <time>2023-12-15T10:12:34+01:00</time>
      </trkpt>
      <trkpt lat="43.70562" lon="3.19824">
        <ele>300</ele>
        <time>2023-12-15T10:12:43+01:00</time>
      </trkpt>
      <trkpt lat="43.70552" lon="3.19827">
        <ele>300</ele>
        <time>2023-12-15T10:13:17+01:00</time>
      </trkpt>
      <trkpt lat="43.70539" lon="3.19835">
        <ele>300</ele>
        <time>2023-12-15T10:13:26+01:00</time>
      </trkpt>
      <trkpt lat="43.70527" lon="3.19841">
        <ele>301</ele>
        <time>2023-12-15T10:13:35+01:00</time>
      </trkpt>
      <trkpt lat="43.70517" lon="3.19841">
        <ele>302</ele>
        <time>2023-12-15T10:13:45+01:00</time>
      </trkpt>
      <trkpt lat="43.70505" lon="3.19843">
        <ele>303</ele>
        <time>2023-12-15T10:13:54+01:00</time>
      </trkpt>
      <trkpt lat="43.70496" lon="3.19855">
        <ele>302</ele>
        <time>2023-12-15T10:14:03+01:00</time>
      </trkpt>
      <trkpt lat="43.70486" lon="3.19865">
        <ele>302</ele>
        <time>2023-12-15T10:14:12+01:00</time>
      </trkpt>
      <trkpt lat="43.70476" lon="3.19873">
        <ele>303</ele>
        <time>2023-12-15T10:14:21+01:00</time>
      </trkpt>
      <trkpt lat="43.70463" lon="3.19886">
        <ele>303</ele>
        <time>2023-12-15T10:15:25+01:00</time>
      </trkpt>
      <trkpt lat="43.70451" lon="3.19896">
        <ele>304</ele>
        <time>2023-12-15T10:15:35+01:00</time>
      </trkpt>
      <trkpt lat="43.70439" lon="3.19903">
        <ele>305</ele>
        <time>2023-12-15T10:15:45+01:00</time>
      </trkpt>
      <trkpt lat="43.70429" lon="3.19912">
        <ele>307</ele>
        <time>2023-12-15T10:15:54+01:00</time>
      </trkpt>
      <trkpt lat="43.70419" lon="3.19925">
        <ele>308</ele>
        <time>2023-12-15T10:16:03+01:00</time>
      </trkpt>
      <trkpt lat="43.70412" lon="3.19939">
        <ele>310</ele>
        <time>2023-12-15T10:16:12+01:00</time>
      </trkpt>
      <trkpt lat="43.70404" lon="3.19953">
        <ele>311</ele>
        <time>2023-12-15T10:16:22+01:00</time>
      </trkpt>
      <trkpt lat="43.704" lon="3.19966">
        <ele>311</ele>
        <time>2023-12-15T10:16:31+01:00</time>
      </trkpt>
      <trkpt lat="43.70398" lon="3.19981">
        <ele>311</ele>
        <time>2023-12-15T10:16:40+01:00</time>
      </trkpt>
      <trkpt lat="43.70393" lon="3.19997">
        <ele>310</ele>
        <time>2023-12-15T10:16:50+01:00</time>
      </trkpt>
      <trkpt lat="43.70392" lon="3.20013">
        <ele>310</ele>
        <time>2023-12-15T10:16:59+01:00</time>
      </trkpt>
      <trkpt lat="43.70392" lon="3.20033">
        <ele>311</ele>
        <time>2023-12-15T10:17:08+01:00</time>
      </trkpt>
      <trkpt lat="43.70392" lon="3.2005">
        <ele>311</ele>
        <time>2023-12-15T10:17:18+01:00</time>
      </trkpt>
      <trkpt lat="43.70394" lon="3.20068">
        <ele>313</ele>
        <time>2023-12-15T10:17:27+01:00</time>
      </trkpt>
      <trkpt lat="43.70392" lon="3.20082">
        <ele>313</ele>
        <time>2023-12-15T10:17:36+01:00</time>
      </trkpt>
      <trkpt lat="43.70384" lon="3.20094">
        <ele>313</ele>
        <time>2023-12-15T10:17:45+01:00</time>
      </trkpt>
      <trkpt lat="43.70376" lon="3.20108">
        <ele>313</ele>
        <time>2023-12-15T10:17:55+01:00</time>
      </trkpt>
      <trkpt lat="43.70369" lon="3.20124">
        <ele>312</ele>
        <time>2023-12-15T10:18:04+01:00</time>
      </trkpt>
      <trkpt lat="43.70362" lon="3.20141">
        <ele>311</ele>
        <time>2023-12-15T10:18:15+01:00</time>
      </trkpt>
      <trkpt lat="43.70352" lon="3.2015">
        <ele>312</ele>
        <time>2023-12-15T10:18:24+01:00</time>
      </trkpt>
      <trkpt lat="43.70344" lon="3.20163">
        <ele>312</ele>
        <time>2023-12-15T10:18:33+01:00</time>
      </trkpt>
      <trkpt lat="43.70337" lon="3.20174">
        <ele>311</ele>
        <time>2023-12-15T10:18:42+01:00</time>
      </trkpt>
      <trkpt lat="43.70327" lon="3.20186">
        <ele>313</ele>
        <time>2023-12-15T10:18:52+01:00</time>
      </trkpt>
      <trkpt lat="43.7032" lon="3.202">
        <ele>314</ele>
        <time>2023-12-15T10:19:01+01:00</time>
      </trkpt>
      <trkpt lat="43.70315" lon="3.20211">
        <ele>315</ele>
        <time>2023-12-15T10:19:10+01:00</time>
      </trkpt>
      <trkpt lat="43.70308" lon="3.2023">
        <ele>317</ele>
        <time>2023-12-15T10:19:20+01:00</time>
      </trkpt>
      <trkpt lat="43.70302" lon="3.20244">
        <ele>318</ele>
        <time>2023-12-15T10:19:29+01:00</time>
      </trkpt>
      <trkpt lat="43.70294" lon="3.20257">
        <ele>319</ele>
        <time>2023-12-15T10:19:38+01:00</time>
      </trkpt>
      <trkpt lat="43.7029" lon="3.20271">
        <ele>320</ele>
        <time>2023-12-15T10:19:48+01:00</time>
      </trkpt>
      <trkpt lat="43.70283" lon="3.20282">
        <ele>320</ele>
        <time>2023-12-15T10:19:57+01:00</time>
      </trkpt>
      <trkpt lat="43.70276" lon="3.20293">
        <ele>320</ele>
        <time>2023-12-15T10:20:06+01:00</time>
      </trkpt>
      <trkpt lat="43.70267" lon="3.20304">
        <ele>320</ele>
        <time>2023-12-15T10:20:16+01:00</time>
      </trkpt>
      <trkpt lat="43.70255" lon="3.20314">
        <ele>320</ele>
        <time>2023-12-15T10:20:25+01:00</time>
      </trkpt>
      <trkpt lat="43.70243" lon="3.20324">
        <ele>320</ele>
        <time>2023-12-15T10:20:34+01:00</time>
      </trkpt>
      <trkpt lat="43.70234" lon="3.2033">
        <ele>320</ele>
        <time>2023-12-15T10:20:44+01:00</time>
      </trkpt>
      <trkpt lat="43.70222" lon="3.20336">
        <ele>320</ele>
        <time>2023-12-15T10:20:53+01:00</time>
      </trkpt>
      <trkpt lat="43.70211" lon="3.20344">
        <ele>320</ele>
        <time>2023-12-15T10:21:02+01:00</time>
      </trkpt>
      <trkpt lat="43.70199" lon="3.20346">
        <ele>321</ele>
        <time>2023-12-15T10:21:11+01:00</time>
      </trkpt>
      <trkpt lat="43.70188" lon="3.20348">
        <ele>321</ele>
        <time>2023-12-15T10:21:20+01:00</time>
      </trkpt>
      <trkpt lat="43.70178" lon="3.2035">
        <ele>322</ele>
        <time>2023-12-15T10:21:30+01:00</time>
      </trkpt>
      <trkpt lat="43.70166" lon="3.20361">
        <ele>320</ele>
        <time>2023-12-15T10:21:39+01:00</time>
      </trkpt>
      <trkpt lat="43.70155" lon="3.20372">
        <ele>321</ele>
        <time>2023-12-15T10:21:48+01:00</time>
      </trkpt>
      <trkpt lat="43.70142" lon="3.20375">
        <ele>321</ele>
        <time>2023-12-15T10:21:58+01:00</time>
      </trkpt>
      <trkpt lat="43.7013" lon="3.20379">
        <ele>322</ele>
        <time>2023-12-15T10:22:07+01:00</time>
      </trkpt>
      <trkpt lat="43.70119" lon="3.20384">
        <ele>323</ele>
        <time>2023-12-15T10:22:16+01:00</time>
      </trkpt>
      <trkpt lat="43.70108" lon="3.20388">
        <ele>325</ele>
        <time>2023-12-15T10:22:26+01:00</time>
      </trkpt>
      <trkpt lat="43.70097" lon="3.20385">
        <ele>326</ele>
        <time>2023-12-15T10:22:35+01:00</time>
      </trkpt>
      <trkpt lat="43.70087" lon="3.20389">
        <ele>328</ele>
        <time>2023-12-15T10:22:44+01:00</time>
      </trkpt>
      <trkpt lat="43.70076" lon="3.20392">
        <ele>329</ele>
        <time>2023-12-15T10:22:53+01:00</time>
      </trkpt>
      <trkpt lat="43.70065" lon="3.20396">
        <ele>329</ele>
        <time>2023-12-15T10:23:03+01:00</time>
      </trkpt>
      <trkpt lat="43.70056" lon="3.20401">
        <ele>330</ele>
        <time>2023-12-15T10:23:12+01:00</time>
      </trkpt>
      <trkpt lat="43.70042" lon="3.20407">
        <ele>330</ele>
        <time>2023-12-15T10:23:26+01:00</time>
      </trkpt>
      <trkpt lat="43.70033" lon="3.20417">
        <ele>329</ele>
        <time>2023-12-15T10:23:35+01:00</time>
      </trkpt>
      <trkpt lat="43.7002" lon="3.20428">
        <ele>330</ele>
        <time>2023-12-15T10:23:45+01:00</time>
      </trkpt>
      <trkpt lat="43.7001" lon="3.20438">
        <ele>330</ele>
        <time>2023-12-15T10:23:53+01:00</time>
      </trkpt>
      <trkpt lat="43.69998" lon="3.20444">
        <ele>330</ele>
        <time>2023-12-15T10:24:03+01:00</time>
      </trkpt>
      <trkpt lat="43.69987" lon="3.2045">
        <ele>333</ele>
        <time>2023-12-15T10:24:12+01:00</time>
      </trkpt>
      <trkpt lat="43.69978" lon="3.20455">
        <ele>335</ele>
        <time>2023-12-15T10:24:22+01:00</time>
      </trkpt>
      <trkpt lat="43.69968" lon="3.20452">
        <ele>336</ele>
        <time>2023-12-15T10:24:31+01:00</time>
      </trkpt>
      <trkpt lat="43.69955" lon="3.20449">
        <ele>337</ele>
        <time>2023-12-15T10:24:40+01:00</time>
      </trkpt>
      <trkpt lat="43.69944" lon="3.20445">
        <ele>338</ele>
        <time>2023-12-15T10:24:49+01:00</time>
      </trkpt>
      <trkpt lat="43.69933" lon="3.2044">
        <ele>339</ele>
        <time>2023-12-15T10:24:58+01:00</time>
      </trkpt>
      <trkpt lat="43.69923" lon="3.20437">
        <ele>339</ele>
        <time>2023-12-15T10:25:08+01:00</time>
      </trkpt>
      <trkpt lat="43.69915" lon="3.20428">
        <ele>339</ele>
        <time>2023-12-15T10:25:17+01:00</time>
      </trkpt>
      <trkpt lat="43.69906" lon="3.20419">
        <ele>339</ele>
        <time>2023-12-15T10:25:26+01:00</time>
      </trkpt>
      <trkpt lat="43.69898" lon="3.2041">
        <ele>339</ele>
        <time>2023-12-15T10:25:36+01:00</time>
      </trkpt>
      <trkpt lat="43.69888" lon="3.20403">
        <ele>340</ele>
        <time>2023-12-15T10:25:45+01:00</time>
      </trkpt>
      <trkpt lat="43.69878" lon="3.20394">
        <ele>340</ele>
        <time>2023-12-15T10:25:54+01:00</time>
      </trkpt>
      <trkpt lat="43.69867" lon="3.20391">
        <ele>340</ele>
        <time>2023-12-15T10:26:04+01:00</time>
      </trkpt>
      <trkpt lat="43.69856" lon="3.20394">
        <ele>340</ele>
        <time>2023-12-15T10:26:13+01:00</time>
      </trkpt>
      <trkpt lat="43.69846" lon="3.20393">
        <ele>340</ele>
        <time>2023-12-15T10:26:22+01:00</time>
      </trkpt>
      <trkpt lat="43.69836" lon="3.20396">
        <ele>340</ele>
        <time>2023-12-15T10:26:31+01:00</time>
      </trkpt>
      <trkpt lat="43.69827" lon="3.20397">
        <ele>340</ele>
        <time>2023-12-15T10:26:40+01:00</time>
      </trkpt>
      <trkpt lat="43.69817" lon="3.204">
        <ele>340</ele>
        <time>2023-12-15T10:26:50+01:00</time>
      </trkpt>
      <trkpt lat="43.69806" lon="3.20402">
        <ele>340</ele>
        <time>2023-12-15T10:27:00+01:00</time>
      </trkpt>
      <trkpt lat="43.69795" lon="3.20403">
        <ele>341</ele>
        <time>2023-12-15T10:27:09+01:00</time>
      </trkpt>
      <trkpt lat="43.69783" lon="3.20406">
        <ele>342</ele>
        <time>2023-12-15T10:27:19+01:00</time>
      </trkpt>
      <trkpt lat="43.69774" lon="3.20404">
        <ele>342</ele>
        <time>2023-12-15T10:27:28+01:00</time>
      </trkpt>
      <trkpt lat="43.69763" lon="3.20406">
        <ele>343</ele>
        <time>2023-12-15T10:27:38+01:00</time>
      </trkpt>
      <trkpt lat="43.69753" lon="3.20403">
        <ele>342</ele>
        <time>2023-12-15T10:27:47+01:00</time>
      </trkpt>
      <trkpt lat="43.69742" lon="3.204">
        <ele>343</ele>
        <time>2023-12-15T10:27:56+01:00</time>
      </trkpt>
      <trkpt lat="43.69731" lon="3.20397">
        <ele>343</ele>
        <time>2023-12-15T10:28:05+01:00</time>
      </trkpt>
      <trkpt lat="43.69722" lon="3.20399">
        <ele>343</ele>
        <time>2023-12-15T10:28:15+01:00</time>
      </trkpt>
      <trkpt lat="43.6971" lon="3.20398">
        <ele>345</ele>
        <time>2023-12-15T10:28:24+01:00</time>
      </trkpt>
      <trkpt lat="43.69699" lon="3.204">
        <ele>347</ele>
        <time>2023-12-15T10:28:33+01:00</time>
      </trkpt>
      <trkpt lat="43.69687" lon="3.20399">
        <ele>348</ele>
        <time>2023-12-15T10:28:43+01:00</time>
      </trkpt>
      <trkpt lat="43.69677" lon="3.20402">
        <ele>348</ele>
        <time>2023-12-15T10:28:53+01:00</time>
      </trkpt>
      <trkpt lat="43.69663" lon="3.20402">
        <ele>349</ele>
        <time>2023-12-15T10:29:02+01:00</time>
      </trkpt>
      <trkpt lat="43.69654" lon="3.20406">
        <ele>349</ele>
        <time>2023-12-15T10:29:12+01:00</time>
      </trkpt>
      <trkpt lat="43.6964" lon="3.20412">
        <ele>349</ele>
        <time>2023-12-15T10:29:26+01:00</time>
      </trkpt>
      <trkpt lat="43.69631" lon="3.20422">
        <ele>350</ele>
        <time>2023-12-15T10:29:36+01:00</time>
      </trkpt>
      <trkpt lat="43.69622" lon="3.20427">
        <ele>351</ele>
        <time>2023-12-15T10:29:45+01:00</time>
      </trkpt>
      <trkpt lat="43.6961" lon="3.20432">
        <ele>351</ele>
        <time>2023-12-15T10:29:54+01:00</time>
      </trkpt>
      <trkpt lat="43.69601" lon="3.20441">
        <ele>351</ele>
        <time>2023-12-15T10:30:03+01:00</time>
      </trkpt>
      <trkpt lat="43.69589" lon="3.20445">
        <ele>351</ele>
        <time>2023-12-15T10:30:13+01:00</time>
      </trkpt>
      <trkpt lat="43.69576" lon="3.20451">
        <ele>351</ele>
        <time>2023-12-15T10:30:27+01:00</time>
      </trkpt>
      <trkpt lat="43.69565" lon="3.20456">
        <ele>351</ele>
        <time>2023-12-15T10:30:37+01:00</time>
      </trkpt>
      <trkpt lat="43.69554" lon="3.20462">
        <ele>351</ele>
        <time>2023-12-15T10:30:46+01:00</time>
      </trkpt>
      <trkpt lat="43.69544" lon="3.20465">
        <ele>351</ele>
        <time>2023-12-15T10:30:55+01:00</time>
      </trkpt>
      <trkpt lat="43.69535" lon="3.20469">
        <ele>350</ele>
        <time>2023-12-15T10:31:04+01:00</time>
      </trkpt>
      <trkpt lat="43.69521" lon="3.2047">
        <ele>350</ele>
        <time>2023-12-15T10:31:14+01:00</time>
      </trkpt>
      <trkpt lat="43.69512" lon="3.20472">
        <ele>351</ele>
        <time>2023-12-15T10:31:24+01:00</time>
      </trkpt>
      <trkpt lat="43.69503" lon="3.20477">
        <ele>351</ele>
        <time>2023-12-15T10:31:33+01:00</time>
      </trkpt>
      <trkpt lat="43.69501" lon="3.20493">
        <ele>350</ele>
        <time>2023-12-15T10:32:13+01:00</time>
      </trkpt>
      <trkpt lat="43.69495" lon="3.20504">
        <ele>351</ele>
        <time>2023-12-15T10:33:17+01:00</time>
      </trkpt>
      <trkpt lat="43.69485" lon="3.20507">
        <ele>354</ele>
        <time>2023-12-15T10:33:27+01:00</time>
      </trkpt>
      <trkpt lat="43.69476" lon="3.20508">
        <ele>357</ele>
        <time>2023-12-15T10:33:36+01:00</time>
      </trkpt>
      <trkpt lat="43.69465" lon="3.20512">
        <ele>361</ele>
        <time>2023-12-15T10:33:45+01:00</time>
      </trkpt>
      <trkpt lat="43.69454" lon="3.2051">
        <ele>364</ele>
        <time>2023-12-15T10:33:54+01:00</time>
      </trkpt>
      <trkpt lat="43.69445" lon="3.20504">
        <ele>365</ele>
        <time>2023-12-15T10:34:03+01:00</time>
      </trkpt>
      <trkpt lat="43.69434" lon="3.20501">
        <ele>365</ele>
        <time>2023-12-15T10:34:13+01:00</time>
      </trkpt>
      <trkpt lat="43.69424" lon="3.20499">
        <ele>366</ele>
        <time>2023-12-15T10:34:22+01:00</time>
      </trkpt>
      <trkpt lat="43.69412" lon="3.20497">
        <ele>366</ele>
        <time>2023-12-15T10:34:31+01:00</time>
      </trkpt>
      <trkpt lat="43.69401" lon="3.20498">
        <ele>366</ele>
        <time>2023-12-15T10:34:41+01:00</time>
      </trkpt>
      <trkpt lat="43.6939" lon="3.20503">
        <ele>368</ele>
        <time>2023-12-15T10:34:50+01:00</time>
      </trkpt>
      <trkpt lat="43.6938" lon="3.20506">
        <ele>369</ele>
        <time>2023-12-15T10:34:59+01:00</time>
      </trkpt>
      <trkpt lat="43.6937" lon="3.20508">
        <ele>370</ele>
        <time>2023-12-15T10:35:09+01:00</time>
      </trkpt>
      <trkpt lat="43.69361" lon="3.2051">
        <ele>371</ele>
        <time>2023-12-15T10:35:18+01:00</time>
      </trkpt>
      <trkpt lat="43.69351" lon="3.20513">
        <ele>372</ele>
        <time>2023-12-15T10:35:28+01:00</time>
      </trkpt>
      <trkpt lat="43.69341" lon="3.20517">
        <ele>373</ele>
        <time>2023-12-15T10:35:37+01:00</time>
      </trkpt>
      <trkpt lat="43.6933" lon="3.20521">
        <ele>374</ele>
        <time>2023-12-15T10:35:46+01:00</time>
      </trkpt>
      <trkpt lat="43.6932" lon="3.20525">
        <ele>373</ele>
        <time>2023-12-15T10:35:55+01:00</time>
      </trkpt>
      <trkpt lat="43.6931" lon="3.20531">
        <ele>373</ele>
        <time>2023-12-15T10:36:09+01:00</time>
      </trkpt>
      <trkpt lat="43.69299" lon="3.20541">
        <ele>374</ele>
        <time>2023-12-15T10:36:24+01:00</time>
      </trkpt>
      <trkpt lat="43.69294" lon="3.20552">
        <ele>375</ele>
        <time>2023-12-15T10:36:33+01:00</time>
      </trkpt>
      <trkpt lat="43.69287" lon="3.20564">
        <ele>376</ele>
        <time>2023-12-15T10:36:47+01:00</time>
      </trkpt>
      <trkpt lat="43.69288" lon="3.20581">
        <ele>381</ele>
        <time>2023-12-15T10:37:01+01:00</time>
      </trkpt>
      <trkpt lat="43.69288" lon="3.20596">
        <ele>384</ele>
        <time>2023-12-15T10:37:16+01:00</time>
      </trkpt>
      <trkpt lat="43.69293" lon="3.20611">
        <ele>389</ele>
        <time>2023-12-15T10:37:34+01:00</time>
      </trkpt>
      <trkpt lat="43.69289" lon="3.20624">
        <ele>390</ele>
        <time>2023-12-15T10:37:49+01:00</time>
      </trkpt>
      <trkpt lat="43.6928" lon="3.20634">
        <ele>389</ele>
        <time>2023-12-15T10:38:03+01:00</time>
      </trkpt>
      <trkpt lat="43.69276" lon="3.20646">
        <ele>390</ele>
        <time>2023-12-15T10:38:18+01:00</time>
      </trkpt>
      <trkpt lat="43.69273" lon="3.20661">
        <ele>393</ele>
        <time>2023-12-15T10:38:36+01:00</time>
      </trkpt>
      <trkpt lat="43.69272" lon="3.20678">
        <ele>396</ele>
        <time>2023-12-15T10:39:10+01:00</time>
      </trkpt>
      <trkpt lat="43.69269" lon="3.20689">
        <ele>397</ele>
        <time>2023-12-15T10:39:19+01:00</time>
      </trkpt>
      <trkpt lat="43.69265" lon="3.20701">
        <ele>399</ele>
        <time>2023-12-15T10:39:29+01:00</time>
      </trkpt>
      <trkpt lat="43.69263" lon="3.20718">
        <ele>402</ele>
        <time>2023-12-15T10:39:49+01:00</time>
      </trkpt>
      <trkpt lat="43.69261" lon="3.20733">
        <ele>405</ele>
        <time>2023-12-15T10:40:02+01:00</time>
      </trkpt>
      <trkpt lat="43.69255" lon="3.20748">
        <ele>406</ele>
        <time>2023-12-15T10:40:17+01:00</time>
      </trkpt>
      <trkpt lat="43.69251" lon="3.20761">
        <ele>409</ele>
        <time>2023-12-15T10:40:31+01:00</time>
      </trkpt>
      <trkpt lat="43.69243" lon="3.20771">
        <ele>412</ele>
        <time>2023-12-15T10:40:46+01:00</time>
      </trkpt>
      <trkpt lat="43.6924" lon="3.20783">
        <ele>415</ele>
        <time>2023-12-15T10:41:00+01:00</time>
      </trkpt>
      <trkpt lat="43.69238" lon="3.20796">
        <ele>418</ele>
        <time>2023-12-15T10:41:15+01:00</time>
      </trkpt>
      <trkpt lat="43.69235" lon="3.20808">
        <ele>420</ele>
        <time>2023-12-15T10:41:34+01:00</time>
      </trkpt>
      <trkpt lat="43.69233" lon="3.20821">
        <ele>424</ele>
        <time>2023-12-15T10:41:52+01:00</time>
      </trkpt>
      <trkpt lat="43.69226" lon="3.20835">
        <ele>426</ele>
        <time>2023-12-15T10:42:11+01:00</time>
      </trkpt>
      <trkpt lat="43.69221" lon="3.20849">
        <ele>430</ele>
        <time>2023-12-15T10:42:25+01:00</time>
      </trkpt>
      <trkpt lat="43.69211" lon="3.20854">
        <ele>431</ele>
        <time>2023-12-15T10:42:39+01:00</time>
      </trkpt>
      <trkpt lat="43.69204" lon="3.20863">
        <ele>432</ele>
        <time>2023-12-15T10:42:57+01:00</time>
      </trkpt>
      <trkpt lat="43.692" lon="3.20875">
        <ele>435</ele>
        <time>2023-12-15T10:43:12+01:00</time>
      </trkpt>
      <trkpt lat="43.69192" lon="3.20885">
        <ele>437</ele>
        <time>2023-12-15T10:43:26+01:00</time>
      </trkpt>
      <trkpt lat="43.69186" lon="3.20898">
        <ele>441</ele>
        <time>2023-12-15T10:43:46+01:00</time>
      </trkpt>
      <trkpt lat="43.69182" lon="3.2091">
        <ele>445</ele>
        <time>2023-12-15T10:44:01+01:00</time>
      </trkpt>
      <trkpt lat="43.69171" lon="3.20917">
        <ele>444</ele>
        <time>2023-12-15T10:44:19+01:00</time>
      </trkpt>
      <trkpt lat="43.69161" lon="3.20923">
        <ele>445</ele>
        <time>2023-12-15T10:44:39+01:00</time>
      </trkpt>
      <trkpt lat="43.69148" lon="3.20927">
        <ele>446</ele>
        <time>2023-12-15T10:46:18+01:00</time>
      </trkpt>
      <trkpt lat="43.6914" lon="3.20934">
        <ele>448</ele>
        <time>2023-12-15T10:46:31+01:00</time>
      </trkpt>
      <trkpt lat="43.6913" lon="3.20941">
        <ele>451</ele>
        <time>2023-12-15T10:46:46+01:00</time>
      </trkpt>
      <trkpt lat="43.69118" lon="3.20948">
        <ele>453</ele>
        <time>2023-12-15T10:47:00+01:00</time>
      </trkpt>
      <trkpt lat="43.69105" lon="3.2095">
        <ele>455</ele>
        <time>2023-12-15T10:47:19+01:00</time>
      </trkpt>
      <trkpt lat="43.69092" lon="3.20952">
        <ele>458</ele>
        <time>2023-12-15T10:47:33+01:00</time>
      </trkpt>
      <trkpt lat="43.69088" lon="3.20963">
        <ele>461</ele>
        <time>2023-12-15T10:47:47+01:00</time>
      </trkpt>
      <trkpt lat="43.69079" lon="3.2097">
        <ele>463</ele>
        <time>2023-12-15T10:48:02+01:00</time>
      </trkpt>
      <trkpt lat="43.69071" lon="3.20978">
        <ele>467</ele>
        <time>2023-12-15T10:48:17+01:00</time>
      </trkpt>
      <trkpt lat="43.69063" lon="3.20985">
        <ele>471</ele>
        <time>2023-12-15T10:48:36+01:00</time>
      </trkpt>
      <trkpt lat="43.69055" lon="3.20992">
        <ele>474</ele>
        <time>2023-12-15T10:48:50+01:00</time>
      </trkpt>
      <trkpt lat="43.69043" lon="3.20997">
        <ele>477</ele>
        <time>2023-12-15T10:49:24+01:00</time>
      </trkpt>
      <trkpt lat="43.69031" lon="3.20998">
        <ele>477</ele>
        <time>2023-12-15T10:49:38+01:00</time>
      </trkpt>
      <trkpt lat="43.69021" lon="3.21001">
        <ele>478</ele>
        <time>2023-12-15T10:49:52+01:00</time>
      </trkpt>
      <trkpt lat="43.69006" lon="3.21005">
        <ele>479</ele>
        <time>2023-12-15T10:50:06+01:00</time>
      </trkpt>
      <trkpt lat="43.68999" lon="3.21015">
        <ele>482</ele>
        <time>2023-12-15T10:50:16+01:00</time>
      </trkpt>
      <trkpt lat="43.68987" lon="3.21019">
        <ele>484</ele>
        <time>2023-12-15T10:50:30+01:00</time>
      </trkpt>
      <trkpt lat="43.68975" lon="3.21024">
        <ele>486</ele>
        <time>2023-12-15T10:50:44+01:00</time>
      </trkpt>
      <trkpt lat="43.68966" lon="3.21032">
        <ele>489</ele>
        <time>2023-12-15T10:50:59+01:00</time>
      </trkpt>
      <trkpt lat="43.68953" lon="3.21031">
        <ele>490</ele>
        <time>2023-12-15T10:51:23+01:00</time>
      </trkpt>
      <trkpt lat="43.68943" lon="3.21032">
        <ele>491</ele>
        <time>2023-12-15T10:51:47+01:00</time>
      </trkpt>
      <trkpt lat="43.68932" lon="3.21031">
        <ele>491</ele>
        <time>2023-12-15T10:51:56+01:00</time>
      </trkpt>
      <trkpt lat="43.68923" lon="3.21037">
        <ele>493</ele>
        <time>2023-12-15T10:52:15+01:00</time>
      </trkpt>
      <trkpt lat="43.68909" lon="3.21041">
        <ele>495</ele>
        <time>2023-12-15T10:52:29+01:00</time>
      </trkpt>
      <trkpt lat="43.68903" lon="3.21052">
        <ele>497</ele>
        <time>2023-12-15T10:52:48+01:00</time>
      </trkpt>
      <trkpt lat="43.68898" lon="3.21063">
        <ele>499</ele>
        <time>2023-12-15T10:53:02+01:00</time>
      </trkpt>
      <trkpt lat="43.68894" lon="3.21076">
        <ele>502</ele>
        <time>2023-12-15T10:53:16+01:00</time>
      </trkpt>
      <trkpt lat="43.68885" lon="3.21086">
        <ele>503</ele>
        <time>2023-12-15T10:53:30+01:00</time>
      </trkpt>
      <trkpt lat="43.68876" lon="3.21094">
        <ele>505</ele>
        <time>2023-12-15T10:53:44+01:00</time>
      </trkpt>
      <trkpt lat="43.68865" lon="3.21103">
        <ele>507</ele>
        <time>2023-12-15T10:53:58+01:00</time>
      </trkpt>
      <trkpt lat="43.68857" lon="3.21114">
        <ele>510</ele>
        <time>2023-12-15T10:54:12+01:00</time>
      </trkpt>
      <trkpt lat="43.68847" lon="3.21122">
        <ele>511</ele>
        <time>2023-12-15T10:54:26+01:00</time>
      </trkpt>
      <trkpt lat="43.68835" lon="3.21129">
        <ele>512</ele>
        <time>2023-12-15T10:54:39+01:00</time>
      </trkpt>
      <trkpt lat="43.68825" lon="3.21133">
        <ele>512</ele>
        <time>2023-12-15T10:54:49+01:00</time>
      </trkpt>
      <trkpt lat="43.68817" lon="3.21144">
        <ele>514</ele>
        <time>2023-12-15T10:55:03+01:00</time>
      </trkpt>
      <trkpt lat="43.68811" lon="3.21153">
        <ele>515</ele>
        <time>2023-12-15T10:55:12+01:00</time>
      </trkpt>
      <trkpt lat="43.68802" lon="3.21162">
        <ele>517</ele>
        <time>2023-12-15T10:57:16+01:00</time>
      </trkpt>
      <trkpt lat="43.68795" lon="3.21175">
        <ele>520</ele>
        <time>2023-12-15T10:57:26+01:00</time>
      </trkpt>
      <trkpt lat="43.68785" lon="3.21188">
        <ele>521</ele>
        <time>2023-12-15T10:57:40+01:00</time>
      </trkpt>
      <trkpt lat="43.68774" lon="3.21192">
        <ele>521</ele>
        <time>2023-12-15T10:57:49+01:00</time>
      </trkpt>
      <trkpt lat="43.68766" lon="3.21202">
        <ele>522</ele>
        <time>2023-12-15T10:58:07+01:00</time>
      </trkpt>
      <trkpt lat="43.6876" lon="3.21192">
        <ele>520</ele>
        <time>2023-12-15T10:58:42+01:00</time>
      </trkpt>
      <trkpt lat="43.68752" lon="3.21198">
        <ele>520</ele>
        <time>2023-12-15T11:00:42+01:00</time>
      </trkpt>
      <trkpt lat="43.68739" lon="3.21206">
        <ele>524</ele>
        <time>2023-12-15T11:01:50+01:00</time>
      </trkpt>
      <trkpt lat="43.68729" lon="3.21213">
        <ele>526</ele>
        <time>2023-12-15T11:02:05+01:00</time>
      </trkpt>
      <trkpt lat="43.68721" lon="3.21224">
        <ele>527</ele>
        <time>2023-12-15T11:02:18+01:00</time>
      </trkpt>
      <trkpt lat="43.68711" lon="3.21232">
        <ele>529</ele>
        <time>2023-12-15T11:02:33+01:00</time>
      </trkpt>
      <trkpt lat="43.68702" lon="3.2124">
        <ele>530</ele>
        <time>2023-12-15T11:02:47+01:00</time>
      </trkpt>
      <trkpt lat="43.68691" lon="3.2125">
        <ele>531</ele>
        <time>2023-12-15T11:03:01+01:00</time>
      </trkpt>
      <trkpt lat="43.6868" lon="3.21258">
        <ele>533</ele>
        <time>2023-12-15T11:03:16+01:00</time>
      </trkpt>
      <trkpt lat="43.68669" lon="3.21266">
        <ele>535</ele>
        <time>2023-12-15T11:03:44+01:00</time>
      </trkpt>
      <trkpt lat="43.68662" lon="3.21281">
        <ele>536</ele>
        <time>2023-12-15T11:03:54+01:00</time>
      </trkpt>
      <trkpt lat="43.68655" lon="3.2129">
        <ele>537</ele>
        <time>2023-12-15T11:04:04+01:00</time>
      </trkpt>
      <trkpt lat="43.68646" lon="3.213">
        <ele>538</ele>
        <time>2023-12-15T11:04:18+01:00</time>
      </trkpt>
      <trkpt lat="43.68639" lon="3.21307">
        <ele>539</ele>
        <time>2023-12-15T11:04:27+01:00</time>
      </trkpt>
      <trkpt lat="43.68632" lon="3.21323">
        <ele>539</ele>
        <time>2023-12-15T11:04:41+01:00</time>
      </trkpt>
      <trkpt lat="43.68624" lon="3.21337">
        <ele>540</ele>
        <time>2023-12-15T11:04:55+01:00</time>
      </trkpt>
      <trkpt lat="43.68614" lon="3.21348">
        <ele>541</ele>
        <time>2023-12-15T11:05:10+01:00</time>
      </trkpt>
      <trkpt lat="43.68608" lon="3.21364">
        <ele>541</ele>
        <time>2023-12-15T11:05:24+01:00</time>
      </trkpt>
      <trkpt lat="43.68604" lon="3.21383">
        <ele>542</ele>
        <time>2023-12-15T11:05:37+01:00</time>
      </trkpt>
      <trkpt lat="43.686" lon="3.21398">
        <ele>544</ele>
        <time>2023-12-15T11:05:51+01:00</time>
      </trkpt>
      <trkpt lat="43.68599" lon="3.21414">
        <ele>546</ele>
        <time>2023-12-15T11:07:34+01:00</time>
      </trkpt>
      <trkpt lat="43.6859" lon="3.21419">
        <ele>547</ele>
        <time>2023-12-15T11:08:23+01:00</time>
      </trkpt>
      <trkpt lat="43.68579" lon="3.21427">
        <ele>548</ele>
        <time>2023-12-15T11:09:07+01:00</time>
      </trkpt>
      <trkpt lat="43.68564" lon="3.21433">
        <ele>550</ele>
        <time>2023-12-15T11:09:17+01:00</time>
      </trkpt>
      <trkpt lat="43.68556" lon="3.21445">
        <ele>552</ele>
        <time>2023-12-15T11:09:26+01:00</time>
      </trkpt>
      <trkpt lat="43.68549" lon="3.21455">
        <ele>553</ele>
        <time>2023-12-15T11:09:50+01:00</time>
      </trkpt>
      <trkpt lat="43.68541" lon="3.2147">
        <ele>555</ele>
        <time>2023-12-15T11:09:59+01:00</time>
      </trkpt>
      <trkpt lat="43.68536" lon="3.21481">
        <ele>557</ele>
        <time>2023-12-15T11:10:08+01:00</time>
      </trkpt>
      <trkpt lat="43.68529" lon="3.21491">
        <ele>558</ele>
        <time>2023-12-15T11:10:17+01:00</time>
      </trkpt>
      <trkpt lat="43.68523" lon="3.21507">
        <ele>560</ele>
        <time>2023-12-15T11:10:32+01:00</time>
      </trkpt>
      <trkpt lat="43.68516" lon="3.21519">
        <ele>562</ele>
        <time>2023-12-15T11:10:47+01:00</time>
      </trkpt>
      <trkpt lat="43.68509" lon="3.21531">
        <ele>564</ele>
        <time>2023-12-15T11:11:01+01:00</time>
      </trkpt>
      <trkpt lat="43.68504" lon="3.21541">
        <ele>565</ele>
        <time>2023-12-15T11:11:10+01:00</time>
      </trkpt>
      <trkpt lat="43.685" lon="3.21555">
        <ele>566</ele>
        <time>2023-12-15T11:11:19+01:00</time>
      </trkpt>
      <trkpt lat="43.68493" lon="3.2157">
        <ele>568</ele>
        <time>2023-12-15T11:11:33+01:00</time>
      </trkpt>
      <trkpt lat="43.68487" lon="3.21581">
        <ele>569</ele>
        <time>2023-12-15T11:11:43+01:00</time>
      </trkpt>
      <trkpt lat="43.68481" lon="3.21593">
        <ele>569</ele>
        <time>2023-12-15T11:11:56+01:00</time>
      </trkpt>
      <trkpt lat="43.68478" lon="3.21609">
        <ele>570</ele>
        <time>2023-12-15T11:12:11+01:00</time>
      </trkpt>
      <trkpt lat="43.68472" lon="3.21621">
        <ele>570</ele>
        <time>2023-12-15T11:12:20+01:00</time>
      </trkpt>
      <trkpt lat="43.68464" lon="3.21629">
        <ele>571</ele>
        <time>2023-12-15T11:12:30+01:00</time>
      </trkpt>
      <trkpt lat="43.68458" lon="3.21639">
        <ele>571</ele>
        <time>2023-12-15T11:12:39+01:00</time>
      </trkpt>
      <trkpt lat="43.68448" lon="3.21652">
        <ele>572</ele>
        <time>2023-12-15T11:12:53+01:00</time>
      </trkpt>
      <trkpt lat="43.68442" lon="3.21662">
        <ele>573</ele>
        <time>2023-12-15T11:13:08+01:00</time>
      </trkpt>
      <trkpt lat="43.68434" lon="3.21671">
        <ele>574</ele>
        <time>2023-12-15T11:13:17+01:00</time>
      </trkpt>
      <trkpt lat="43.68425" lon="3.21684">
        <ele>576</ele>
        <time>2023-12-15T11:13:32+01:00</time>
      </trkpt>
      <trkpt lat="43.68415" lon="3.21694">
        <ele>577</ele>
        <time>2023-12-15T11:13:46+01:00</time>
      </trkpt>
      <trkpt lat="43.68404" lon="3.21707">
        <ele>579</ele>
        <time>2023-12-15T11:14:04+01:00</time>
      </trkpt>
      <trkpt lat="43.68397" lon="3.21718">
        <ele>580</ele>
        <time>2023-12-15T11:14:14+01:00</time>
      </trkpt>
      <trkpt lat="43.68392" lon="3.21729">
        <ele>581</ele>
        <time>2023-12-15T11:14:23+01:00</time>
      </trkpt>
      <trkpt lat="43.68386" lon="3.21745">
        <ele>582</ele>
        <time>2023-12-15T11:14:37+01:00</time>
      </trkpt>
      <trkpt lat="43.68383" lon="3.21758">
        <ele>582</ele>
        <time>2023-12-15T11:14:46+01:00</time>
      </trkpt>
      <trkpt lat="43.68374" lon="3.2177">
        <ele>583</ele>
        <time>2023-12-15T11:15:01+01:00</time>
      </trkpt>
      <trkpt lat="43.68366" lon="3.21781">
        <ele>583</ele>
        <time>2023-12-15T11:15:14+01:00</time>
      </trkpt>
      <trkpt lat="43.68363" lon="3.21793">
        <ele>583</ele>
        <time>2023-12-15T11:15:23+01:00</time>
      </trkpt>
      <trkpt lat="43.68353" lon="3.21787">
        <ele>585</ele>
        <time>2023-12-15T11:15:39+01:00</time>
      </trkpt>
      <trkpt lat="43.68343" lon="3.21781">
        <ele>587</ele>
        <time>2023-12-15T11:15:48+01:00</time>
      </trkpt>
      <trkpt lat="43.68333" lon="3.21775">
        <ele>589</ele>
        <time>2023-12-15T11:15:58+01:00</time>
      </trkpt>
      <trkpt lat="43.68321" lon="3.21768">
        <ele>591</ele>
        <time>2023-12-15T11:16:11+01:00</time>
      </trkpt>
      <trkpt lat="43.68313" lon="3.21761">
        <ele>591</ele>
        <time>2023-12-15T11:16:21+01:00</time>
      </trkpt>
      <trkpt lat="43.68301" lon="3.2175">
        <ele>592</ele>
        <time>2023-12-15T11:17:09+01:00</time>
      </trkpt>
      <trkpt lat="43.68293" lon="3.21742">
        <ele>593</ele>
        <time>2023-12-15T11:17:19+01:00</time>
      </trkpt>
      <trkpt lat="43.68285" lon="3.21736">
        <ele>593</ele>
        <time>2023-12-15T11:17:28+01:00</time>
      </trkpt>
      <trkpt lat="43.68272" lon="3.2173">
        <ele>594</ele>
        <time>2023-12-15T11:17:42+01:00</time>
      </trkpt>
      <trkpt lat="43.68265" lon="3.21721">
        <ele>594</ele>
        <time>2023-12-15T11:17:52+01:00</time>
      </trkpt>
      <trkpt lat="43.68253" lon="3.21717">
        <ele>595</ele>
        <time>2023-12-15T11:18:30+01:00</time>
      </trkpt>
      <trkpt lat="43.68246" lon="3.21709">
        <ele>595</ele>
        <time>2023-12-15T11:18:48+01:00</time>
      </trkpt>
      <trkpt lat="43.68236" lon="3.21702">
        <ele>595</ele>
        <time>2023-12-15T11:18:58+01:00</time>
      </trkpt>
      <trkpt lat="43.68226" lon="3.2169">
        <ele>595</ele>
        <time>2023-12-15T11:19:07+01:00</time>
      </trkpt>
      <trkpt lat="43.68214" lon="3.21686">
        <ele>595</ele>
        <time>2023-12-15T11:19:27+01:00</time>
      </trkpt>
      <trkpt lat="43.68208" lon="3.21674">
        <ele>595</ele>
        <time>2023-12-15T11:19:41+01:00</time>
      </trkpt>
      <trkpt lat="43.68195" lon="3.21662">
        <ele>594</ele>
        <time>2023-12-15T11:19:51+01:00</time>
      </trkpt>
      <trkpt lat="43.68181" lon="3.21655">
        <ele>594</ele>
        <time>2023-12-15T11:20:00+01:00</time>
      </trkpt>
      <trkpt lat="43.68169" lon="3.21645">
        <ele>593</ele>
        <time>2023-12-15T11:20:10+01:00</time>
      </trkpt>
      <trkpt lat="43.68159" lon="3.21637">
        <ele>592</ele>
        <time>2023-12-15T11:20:19+01:00</time>
      </trkpt>
      <trkpt lat="43.68147" lon="3.21627">
        <ele>592</ele>
        <time>2023-12-15T11:20:28+01:00</time>
      </trkpt>
      <trkpt lat="43.68134" lon="3.21623">
        <ele>592</ele>
        <time>2023-12-15T11:20:37+01:00</time>
      </trkpt>
      <trkpt lat="43.68126" lon="3.21617">
        <ele>592</ele>
        <time>2023-12-15T11:21:21+01:00</time>
      </trkpt>
      <trkpt lat="43.68117" lon="3.21615">
        <ele>591</ele>
        <time>2023-12-15T11:21:25+01:00</time>
      </trkpt>
      <trkpt lat="43.68103" lon="3.21609">
        <ele>591</ele>
        <time>2023-12-15T11:21:35+01:00</time>
      </trkpt>
      <trkpt lat="43.68092" lon="3.21601">
        <ele>592</ele>
        <time>2023-12-15T11:21:45+01:00</time>
      </trkpt>
      <trkpt lat="43.6808" lon="3.21597">
        <ele>592</ele>
        <time>2023-12-15T11:21:54+01:00</time>
      </trkpt>
      <trkpt lat="43.68069" lon="3.21591">
        <ele>592</ele>
        <time>2023-12-15T11:22:03+01:00</time>
      </trkpt>
      <trkpt lat="43.68057" lon="3.21584">
        <ele>592</ele>
        <time>2023-12-15T11:22:12+01:00</time>
      </trkpt>
      <trkpt lat="43.68046" lon="3.2158">
        <ele>592</ele>
        <time>2023-12-15T11:22:22+01:00</time>
      </trkpt>
      <trkpt lat="43.68033" lon="3.21576">
        <ele>591</ele>
        <time>2023-12-15T11:22:31+01:00</time>
      </trkpt>
      <trkpt lat="43.6802" lon="3.21572">
        <ele>591</ele>
        <time>2023-12-15T11:22:40+01:00</time>
      </trkpt>
      <trkpt lat="43.68007" lon="3.21571">
        <ele>590</ele>
        <time>2023-12-15T11:22:50+01:00</time>
      </trkpt>
      <trkpt lat="43.67995" lon="3.2157">
        <ele>590</ele>
        <time>2023-12-15T11:22:59+01:00</time>
      </trkpt>
      <trkpt lat="43.67983" lon="3.21567">
        <ele>590</ele>
        <time>2023-12-15T11:23:08+01:00</time>
      </trkpt>
      <trkpt lat="43.67969" lon="3.21563">
        <ele>590</ele>
        <time>2023-12-15T11:23:18+01:00</time>
      </trkpt>
      <trkpt lat="43.67959" lon="3.21563">
        <ele>590</ele>
        <time>2023-12-15T11:23:27+01:00</time>
      </trkpt>
      <trkpt lat="43.67945" lon="3.2156">
        <ele>590</ele>
        <time>2023-12-15T11:23:36+01:00</time>
      </trkpt>
      <trkpt lat="43.67933" lon="3.21561">
        <ele>591</ele>
        <time>2023-12-15T11:23:46+01:00</time>
      </trkpt>
      <trkpt lat="43.67918" lon="3.21562">
        <ele>591</ele>
        <time>2023-12-15T11:24:05+01:00</time>
      </trkpt>
      <trkpt lat="43.67905" lon="3.2156">
        <ele>591</ele>
        <time>2023-12-15T11:24:19+01:00</time>
      </trkpt>
      <trkpt lat="43.67894" lon="3.21552">
        <ele>591</ele>
        <time>2023-12-15T11:24:28+01:00</time>
      </trkpt>
      <trkpt lat="43.67885" lon="3.21556">
        <ele>591</ele>
        <time>2023-12-15T11:24:38+01:00</time>
      </trkpt>
      <trkpt lat="43.67876" lon="3.21563">
        <ele>592</ele>
        <time>2023-12-15T11:24:47+01:00</time>
      </trkpt>
      <trkpt lat="43.67867" lon="3.21572">
        <ele>592</ele>
        <time>2023-12-15T11:25:16+01:00</time>
      </trkpt>
      <trkpt lat="43.67857" lon="3.21579">
        <ele>592</ele>
        <time>2023-12-15T11:25:25+01:00</time>
      </trkpt>
      <trkpt lat="43.67847" lon="3.21583">
        <ele>593</ele>
        <time>2023-12-15T11:25:34+01:00</time>
      </trkpt>
      <trkpt lat="43.67839" lon="3.2159">
        <ele>593</ele>
        <time>2023-12-15T11:25:44+01:00</time>
      </trkpt>
      <trkpt lat="43.67833" lon="3.216">
        <ele>592</ele>
        <time>2023-12-15T11:25:53+01:00</time>
      </trkpt>
      <trkpt lat="43.6783" lon="3.21614">
        <ele>592</ele>
        <time>2023-12-15T11:26:08+01:00</time>
      </trkpt>
      <trkpt lat="43.67826" lon="3.21625">
        <ele>591</ele>
        <time>2023-12-15T11:26:17+01:00</time>
      </trkpt>
      <trkpt lat="43.67821" lon="3.21637">
        <ele>590</ele>
        <time>2023-12-15T11:26:26+01:00</time>
      </trkpt>
      <trkpt lat="43.67816" lon="3.21648">
        <ele>589</ele>
        <time>2023-12-15T11:26:40+01:00</time>
      </trkpt>
      <trkpt lat="43.67811" lon="3.21662">
        <ele>587</ele>
        <time>2023-12-15T11:26:54+01:00</time>
      </trkpt>
      <trkpt lat="43.67803" lon="3.21677">
        <ele>585</ele>
        <time>2023-12-15T11:27:08+01:00</time>
      </trkpt>
      <trkpt lat="43.67798" lon="3.21691">
        <ele>583</ele>
        <time>2023-12-15T11:27:22+01:00</time>
      </trkpt>
      <trkpt lat="43.67793" lon="3.21705">
        <ele>582</ele>
        <time>2023-12-15T11:27:36+01:00</time>
      </trkpt>
      <trkpt lat="43.67787" lon="3.21716">
        <ele>581</ele>
        <time>2023-12-15T11:27:45+01:00</time>
      </trkpt>
      <trkpt lat="43.67781" lon="3.21729">
        <ele>579</ele>
        <time>2023-12-15T11:27:59+01:00</time>
      </trkpt>
      <trkpt lat="43.67776" lon="3.21745">
        <ele>577</ele>
        <time>2023-12-15T11:28:13+01:00</time>
      </trkpt>
      <trkpt lat="43.67771" lon="3.21761">
        <ele>576</ele>
        <time>2023-12-15T11:28:27+01:00</time>
      </trkpt>
      <trkpt lat="43.67762" lon="3.21773">
        <ele>573</ele>
        <time>2023-12-15T11:28:41+01:00</time>
      </trkpt>
      <trkpt lat="43.67755" lon="3.21786">
        <ele>570</ele>
        <time>2023-12-15T11:28:56+01:00</time>
      </trkpt>
      <trkpt lat="43.6775" lon="3.21798">
        <ele>568</ele>
        <time>2023-12-15T11:29:10+01:00</time>
      </trkpt>
      <trkpt lat="43.67745" lon="3.2181">
        <ele>566</ele>
        <time>2023-12-15T11:29:24+01:00</time>
      </trkpt>
      <trkpt lat="43.67739" lon="3.21824">
        <ele>564</ele>
        <time>2023-12-15T11:29:39+01:00</time>
      </trkpt>
      <trkpt lat="43.67732" lon="3.21838">
        <ele>562</ele>
        <time>2023-12-15T11:29:52+01:00</time>
      </trkpt>
      <trkpt lat="43.67728" lon="3.21852">
        <ele>561</ele>
        <time>2023-12-15T11:30:07+01:00</time>
      </trkpt>
      <trkpt lat="43.67722" lon="3.21865">
        <ele>559</ele>
        <time>2023-12-15T11:30:21+01:00</time>
      </trkpt>
      <trkpt lat="43.67715" lon="3.21878">
        <ele>557</ele>
        <time>2023-12-15T11:30:36+01:00</time>
      </trkpt>
      <trkpt lat="43.67706" lon="3.21888">
        <ele>553</ele>
        <time>2023-12-15T11:30:49+01:00</time>
      </trkpt>
      <trkpt lat="43.677" lon="3.21902">
        <ele>551</ele>
        <time>2023-12-15T11:31:04+01:00</time>
      </trkpt>
      <trkpt lat="43.67694" lon="3.21912">
        <ele>548</ele>
        <time>2023-12-15T11:31:17+01:00</time>
      </trkpt>
      <trkpt lat="43.67687" lon="3.21921">
        <ele>545</ele>
        <time>2023-12-15T11:31:31+01:00</time>
      </trkpt>
      <trkpt lat="43.6768" lon="3.21932">
        <ele>542</ele>
        <time>2023-12-15T11:31:55+01:00</time>
      </trkpt>
      <trkpt lat="43.67672" lon="3.21939">
        <ele>538</ele>
        <time>2023-12-15T11:32:44+01:00</time>
      </trkpt>
      <trkpt lat="43.67669" lon="3.21955">
        <ele>534</ele>
        <time>2023-12-15T11:33:07+01:00</time>
      </trkpt>
      <trkpt lat="43.67665" lon="3.21967">
        <ele>531</ele>
        <time>2023-12-15T11:33:35+01:00</time>
      </trkpt>
      <trkpt lat="43.67661" lon="3.21983">
        <ele>529</ele>
        <time>2023-12-15T11:33:49+01:00</time>
      </trkpt>
      <trkpt lat="43.67654" lon="3.21995">
        <ele>525</ele>
        <time>2023-12-15T11:34:13+01:00</time>
      </trkpt>
      <trkpt lat="43.67646" lon="3.22002">
        <ele>522</ele>
        <time>2023-12-15T11:34:32+01:00</time>
      </trkpt>
      <trkpt lat="43.6764" lon="3.22012">
        <ele>521</ele>
        <time>2023-12-15T11:34:51+01:00</time>
      </trkpt>
      <trkpt lat="43.67632" lon="3.22019">
        <ele>518</ele>
        <time>2023-12-15T11:35:10+01:00</time>
      </trkpt>
      <trkpt lat="43.67624" lon="3.22028">
        <ele>515</ele>
        <time>2023-12-15T11:35:29+01:00</time>
      </trkpt>
      <trkpt lat="43.67615" lon="3.22035">
        <ele>513</ele>
        <time>2023-12-15T11:35:48+01:00</time>
      </trkpt>
      <trkpt lat="43.67604" lon="3.22037">
        <ele>509</ele>
        <time>2023-12-15T11:36:11+01:00</time>
      </trkpt>
      <trkpt lat="43.67594" lon="3.22039">
        <ele>507</ele>
        <time>2023-12-15T11:36:36+01:00</time>
      </trkpt>
      <trkpt lat="43.67584" lon="3.22039">
        <ele>503</ele>
        <time>2023-12-15T11:36:54+01:00</time>
      </trkpt>
      <trkpt lat="43.67575" lon="3.22036">
        <ele>499</ele>
        <time>2023-12-15T11:37:09+01:00</time>
      </trkpt>
      <trkpt lat="43.67565" lon="3.22036">
        <ele>496</ele>
        <time>2023-12-15T11:37:28+01:00</time>
      </trkpt>
      <trkpt lat="43.67556" lon="3.22033">
        <ele>492</ele>
        <time>2023-12-15T11:37:37+01:00</time>
      </trkpt>
      <trkpt lat="43.67548" lon="3.22029">
        <ele>488</ele>
        <time>2023-12-15T11:37:51+01:00</time>
      </trkpt>
      <trkpt lat="43.67536" lon="3.22024">
        <ele>484</ele>
        <time>2023-12-15T11:38:15+01:00</time>
      </trkpt>
      <trkpt lat="43.67527" lon="3.22031">
        <ele>482</ele>
        <time>2023-12-15T11:38:34+01:00</time>
      </trkpt>
      <trkpt lat="43.67516" lon="3.22028">
        <ele>477</ele>
        <time>2023-12-15T11:38:52+01:00</time>
      </trkpt>
      <trkpt lat="43.67506" lon="3.2203">
        <ele>474</ele>
        <time>2023-12-15T11:39:20+01:00</time>
      </trkpt>
      <trkpt lat="43.67497" lon="3.22033">
        <ele>472</ele>
        <time>2023-12-15T11:39:39+01:00</time>
      </trkpt>
      <trkpt lat="43.67486" lon="3.22033">
        <ele>467</ele>
        <time>2023-12-15T11:40:27+01:00</time>
      </trkpt>
      <trkpt lat="43.67476" lon="3.22032">
        <ele>463</ele>
        <time>2023-12-15T11:40:40+01:00</time>
      </trkpt>
      <trkpt lat="43.67463" lon="3.22027">
        <ele>458</ele>
        <time>2023-12-15T11:41:18+01:00</time>
      </trkpt>
      <trkpt lat="43.67453" lon="3.22016">
        <ele>456</ele>
        <time>2023-12-15T11:41:32+01:00</time>
      </trkpt>
      <trkpt lat="43.67445" lon="3.2201">
        <ele>453</ele>
        <time>2023-12-15T11:41:42+01:00</time>
      </trkpt>
      <trkpt lat="43.67436" lon="3.22002">
        <ele>450</ele>
        <time>2023-12-15T11:41:56+01:00</time>
      </trkpt>
      <trkpt lat="43.67424" lon="3.21993">
        <ele>447</ele>
        <time>2023-12-15T11:42:10+01:00</time>
      </trkpt>
      <trkpt lat="43.67415" lon="3.21988">
        <ele>444</ele>
        <time>2023-12-15T11:42:19+01:00</time>
      </trkpt>
      <trkpt lat="43.67405" lon="3.21986">
        <ele>444</ele>
        <time>2023-12-15T11:42:33+01:00</time>
      </trkpt>
      <trkpt lat="43.67399" lon="3.21995">
        <ele>442</ele>
        <time>2023-12-15T11:48:11+01:00</time>
      </trkpt>
      <trkpt lat="43.67389" lon="3.21998">
        <ele>440</ele>
        <time>2023-12-15T11:49:22+01:00</time>
      </trkpt>
      <trkpt lat="43.67378" lon="3.21996">
        <ele>440</ele>
        <time>2023-12-15T11:49:36+01:00</time>
      </trkpt>
      <trkpt lat="43.67368" lon="3.21986">
        <ele>440</ele>
        <time>2023-12-15T11:49:50+01:00</time>
      </trkpt>
      <trkpt lat="43.67358" lon="3.21977">
        <ele>439</ele>
        <time>2023-12-15T11:49:59+01:00</time>
      </trkpt>
      <trkpt lat="43.67349" lon="3.21968">
        <ele>439</ele>
        <time>2023-12-15T11:50:08+01:00</time>
      </trkpt>
      <trkpt lat="43.67342" lon="3.21958">
        <ele>439</ele>
        <time>2023-12-15T11:50:33+01:00</time>
      </trkpt>
      <trkpt lat="43.67334" lon="3.2195">
        <ele>439</ele>
        <time>2023-12-15T11:50:47+01:00</time>
      </trkpt>
      <trkpt lat="43.67327" lon="3.21936">
        <ele>439</ele>
        <time>2023-12-15T11:51:01+01:00</time>
      </trkpt>
      <trkpt lat="43.67315" lon="3.21929">
        <ele>438</ele>
        <time>2023-12-15T11:51:10+01:00</time>
      </trkpt>
      <trkpt lat="43.67307" lon="3.21922">
        <ele>437</ele>
        <time>2023-12-15T11:51:20+01:00</time>
      </trkpt>
      <trkpt lat="43.67299" lon="3.21912">
        <ele>436</ele>
        <time>2023-12-15T11:51:29+01:00</time>
      </trkpt>
      <trkpt lat="43.6729" lon="3.21904">
        <ele>435</ele>
        <time>2023-12-15T11:51:39+01:00</time>
      </trkpt>
      <trkpt lat="43.6728" lon="3.21895">
        <ele>434</ele>
        <time>2023-12-15T11:51:48+01:00</time>
      </trkpt>
      <trkpt lat="43.67271" lon="3.21887">
        <ele>433</ele>
        <time>2023-12-15T11:51:57+01:00</time>
      </trkpt>
      <trkpt lat="43.67261" lon="3.2188">
        <ele>432</ele>
        <time>2023-12-15T11:52:06+01:00</time>
      </trkpt>
      <trkpt lat="43.67251" lon="3.21874">
        <ele>431</ele>
        <time>2023-12-15T11:52:16+01:00</time>
      </trkpt>
      <trkpt lat="43.6724" lon="3.21865">
        <ele>430</ele>
        <time>2023-12-15T11:52:26+01:00</time>
      </trkpt>
      <trkpt lat="43.67233" lon="3.21854">
        <ele>430</ele>
        <time>2023-12-15T11:52:35+01:00</time>
      </trkpt>
      <trkpt lat="43.67223" lon="3.21846">
        <ele>430</ele>
        <time>2023-12-15T11:52:44+01:00</time>
      </trkpt>
      <trkpt lat="43.67213" lon="3.21838">
        <ele>429</ele>
        <time>2023-12-15T11:52:53+01:00</time>
      </trkpt>
      <trkpt lat="43.67205" lon="3.21827">
        <ele>429</ele>
        <time>2023-12-15T11:53:03+01:00</time>
      </trkpt>
      <trkpt lat="43.67197" lon="3.21815">
        <ele>430</ele>
        <time>2023-12-15T11:53:12+01:00</time>
      </trkpt>
      <trkpt lat="43.67188" lon="3.21803">
        <ele>430</ele>
        <time>2023-12-15T11:53:21+01:00</time>
      </trkpt>
      <trkpt lat="43.6718" lon="3.21793">
        <ele>430</ele>
        <time>2023-12-15T11:53:30+01:00</time>
      </trkpt>
      <trkpt lat="43.67173" lon="3.21781">
        <ele>430</ele>
        <time>2023-12-15T11:53:40+01:00</time>
      </trkpt>
      <trkpt lat="43.67163" lon="3.21771">
        <ele>431</ele>
        <time>2023-12-15T11:53:49+01:00</time>
      </trkpt>
      <trkpt lat="43.67154" lon="3.21764">
        <ele>431</ele>
        <time>2023-12-15T11:53:59+01:00</time>
      </trkpt>
      <trkpt lat="43.67145" lon="3.21756">
        <ele>433</ele>
        <time>2023-12-15T11:54:08+01:00</time>
      </trkpt>
      <trkpt lat="43.67138" lon="3.21748">
        <ele>435</ele>
        <time>2023-12-15T11:54:18+01:00</time>
      </trkpt>
      <trkpt lat="43.67129" lon="3.21743">
        <ele>436</ele>
        <time>2023-12-15T11:54:27+01:00</time>
      </trkpt>
      <trkpt lat="43.67118" lon="3.21741">
        <ele>435</ele>
        <time>2023-12-15T11:54:36+01:00</time>
      </trkpt>
      <trkpt lat="43.67107" lon="3.21738">
        <ele>435</ele>
        <time>2023-12-15T11:54:46+01:00</time>
      </trkpt>
      <trkpt lat="43.67096" lon="3.21732">
        <ele>435</ele>
        <time>2023-12-15T11:54:55+01:00</time>
      </trkpt>
      <trkpt lat="43.67088" lon="3.21724">
        <ele>435</ele>
        <time>2023-12-15T11:55:04+01:00</time>
      </trkpt>
      <trkpt lat="43.67078" lon="3.21715">
        <ele>435</ele>
        <time>2023-12-15T11:55:13+01:00</time>
      </trkpt>
      <trkpt lat="43.67071" lon="3.21704">
        <ele>435</ele>
        <time>2023-12-15T11:55:23+01:00</time>
      </trkpt>
      <trkpt lat="43.67061" lon="3.21696">
        <ele>435</ele>
        <time>2023-12-15T11:55:32+01:00</time>
      </trkpt>
      <trkpt lat="43.67054" lon="3.21686">
        <ele>435</ele>
        <time>2023-12-15T11:55:42+01:00</time>
      </trkpt>
      <trkpt lat="43.67045" lon="3.21677">
        <ele>434</ele>
        <time>2023-12-15T11:55:51+01:00</time>
      </trkpt>
      <trkpt lat="43.67036" lon="3.21668">
        <ele>433</ele>
        <time>2023-12-15T11:56:00+01:00</time>
      </trkpt>
      <trkpt lat="43.67027" lon="3.21659">
        <ele>433</ele>
        <time>2023-12-15T11:56:09+01:00</time>
      </trkpt>
      <trkpt lat="43.6702" lon="3.21646">
        <ele>433</ele>
        <time>2023-12-15T11:56:19+01:00</time>
      </trkpt>
      <trkpt lat="43.67015" lon="3.21631">
        <ele>433</ele>
        <time>2023-12-15T11:56:28+01:00</time>
      </trkpt>
      <trkpt lat="43.67008" lon="3.21621">
        <ele>432</ele>
        <time>2023-12-15T11:56:37+01:00</time>
      </trkpt>
      <trkpt lat="43.66998" lon="3.21613">
        <ele>431</ele>
        <time>2023-12-15T11:56:46+01:00</time>
      </trkpt>
      <trkpt lat="43.6699" lon="3.21601">
        <ele>430</ele>
        <time>2023-12-15T11:56:56+01:00</time>
      </trkpt>
      <trkpt lat="43.6698" lon="3.21593">
        <ele>429</ele>
        <time>2023-12-15T11:57:05+01:00</time>
      </trkpt>
      <trkpt lat="43.66971" lon="3.21584">
        <ele>429</ele>
        <time>2023-12-15T11:57:15+01:00</time>
      </trkpt>
      <trkpt lat="43.66966" lon="3.2157">
        <ele>428</ele>
        <time>2023-12-15T11:57:43+01:00</time>
      </trkpt>
      <trkpt lat="43.66959" lon="3.21556">
        <ele>428</ele>
        <time>2023-12-15T11:57:52+01:00</time>
      </trkpt>
      <trkpt lat="43.66956" lon="3.21542">
        <ele>428</ele>
        <time>2023-12-15T11:58:02+01:00</time>
      </trkpt>
      <trkpt lat="43.6695" lon="3.21529">
        <ele>427</ele>
        <time>2023-12-15T11:58:11+01:00</time>
      </trkpt>
      <trkpt lat="43.66949" lon="3.21516">
        <ele>427</ele>
        <time>2023-12-15T11:58:25+01:00</time>
      </trkpt>
      <trkpt lat="43.66944" lon="3.21502">
        <ele>427</ele>
        <time>2023-12-15T11:58:39+01:00</time>
      </trkpt>
      <trkpt lat="43.66944" lon="3.21485">
        <ele>427</ele>
        <time>2023-12-15T11:58:57+01:00</time>
      </trkpt>
      <trkpt lat="43.6694" lon="3.21469">
        <ele>426</ele>
        <time>2023-12-15T11:59:07+01:00</time>
      </trkpt>
      <trkpt lat="43.6694" lon="3.21456">
        <ele>426</ele>
        <time>2023-12-15T11:59:26+01:00</time>
      </trkpt>
      <trkpt lat="43.66944" lon="3.21442">
        <ele>427</ele>
        <time>2023-12-15T11:59:35+01:00</time>
      </trkpt>
      <trkpt lat="43.66945" lon="3.21428">
        <ele>427</ele>
        <time>2023-12-15T11:59:44+01:00</time>
      </trkpt>
      <trkpt lat="43.66944" lon="3.21415">
        <ele>426</ele>
        <time>2023-12-15T12:00:19+01:00</time>
      </trkpt>
      <trkpt lat="43.66945" lon="3.21396">
        <ele>426</ele>
        <time>2023-12-15T12:00:28+01:00</time>
      </trkpt>
      <trkpt lat="43.66943" lon="3.21383">
        <ele>425</ele>
        <time>2023-12-15T12:00:37+01:00</time>
      </trkpt>
      <trkpt lat="43.66947" lon="3.2137">
        <ele>426</ele>
        <time>2023-12-15T12:00:52+01:00</time>
      </trkpt>
      <trkpt lat="43.66946" lon="3.2135">
        <ele>426</ele>
        <time>2023-12-15T12:01:46+01:00</time>
      </trkpt>
      <trkpt lat="43.66944" lon="3.21333">
        <ele>426</ele>
        <time>2023-12-15T12:01:55+01:00</time>
      </trkpt>
      <trkpt lat="43.66943" lon="3.21319">
        <ele>426</ele>
        <time>2023-12-15T12:02:05+01:00</time>
      </trkpt>
      <trkpt lat="43.66944" lon="3.21305">
        <ele>426</ele>
        <time>2023-12-15T12:02:29+01:00</time>
      </trkpt>
      <trkpt lat="43.66944" lon="3.21286">
        <ele>426</ele>
        <time>2023-12-15T12:03:37+01:00</time>
      </trkpt>
      <trkpt lat="43.66943" lon="3.21267">
        <ele>426</ele>
        <time>2023-12-15T12:03:46+01:00</time>
      </trkpt>
      <trkpt lat="43.66942" lon="3.21252">
        <ele>426</ele>
        <time>2023-12-15T12:03:55+01:00</time>
      </trkpt>
      <trkpt lat="43.66926" lon="3.21247">
        <ele>419</ele>
        <time>2023-12-15T12:04:19+01:00</time>
      </trkpt>
      <trkpt lat="43.66917" lon="3.21244">
        <ele>415</ele>
        <time>2023-12-15T12:04:48+01:00</time>
      </trkpt>
      <trkpt lat="43.66909" lon="3.21235">
        <ele>410</ele>
        <time>2023-12-15T12:05:06+01:00</time>
      </trkpt>
      <trkpt lat="43.66916" lon="3.21222">
        <ele>413</ele>
        <time>2023-12-15T12:06:00+01:00</time>
      </trkpt>
      <trkpt lat="43.66924" lon="3.21217">
        <ele>417</ele>
        <time>2023-12-15T12:07:41+01:00</time>
      </trkpt>
      <trkpt lat="43.66913" lon="3.21216">
        <ele>411</ele>
        <time>2023-12-15T12:07:50+01:00</time>
      </trkpt>
      <trkpt lat="43.66904" lon="3.21212">
        <ele>406</ele>
        <time>2023-12-15T12:08:00+01:00</time>
      </trkpt>
      <trkpt lat="43.66914" lon="3.21216">
        <ele>412</ele>
        <time>2023-12-15T12:08:55+01:00</time>
      </trkpt>
      <trkpt lat="43.66921" lon="3.21225">
        <ele>416</ele>
        <time>2023-12-15T12:10:59+01:00</time>
      </trkpt>
      <trkpt lat="43.66917" lon="3.21213">
        <ele>413</ele>
        <time>2023-12-15T12:20:18+01:00</time>
      </trkpt>
      <trkpt lat="43.66923" lon="3.21223">
        <ele>417</ele>
        <time>2023-12-15T12:35:48+01:00</time>
      </trkpt>
      <trkpt lat="43.66926" lon="3.21209">
        <ele>417</ele>
        <time>2023-12-15T12:38:58+01:00</time>
      </trkpt>
      <trkpt lat="43.66935" lon="3.21214">
        <ele>421</ele>
        <time>2023-12-15T12:40:03+01:00</time>
      </trkpt>
      <trkpt lat="43.66925" lon="3.21213">
        <ele>417</ele>
        <time>2023-12-15T12:41:17+01:00</time>
      </trkpt>
      <trkpt lat="43.66918" lon="3.21224">
        <ele>415</ele>
        <time>2023-12-15T12:41:32+01:00</time>
      </trkpt>
      <trkpt lat="43.66907" lon="3.21218">
        <ele>408</ele>
        <time>2023-12-15T12:42:16+01:00</time>
      </trkpt>
      <trkpt lat="43.66919" lon="3.21218">
        <ele>415</ele>
        <time>2023-12-15T12:44:19+01:00</time>
      </trkpt>
      <trkpt lat="43.66925" lon="3.21205">
        <ele>417</ele>
        <time>2023-12-15T12:47:12+01:00</time>
      </trkpt>
      <trkpt lat="43.66935" lon="3.21206">
        <ele>422</ele>
        <time>2023-12-15T12:47:26+01:00</time>
      </trkpt>
      <trkpt lat="43.66945" lon="3.21196">
        <ele>426</ele>
        <time>2023-12-15T12:47:45+01:00</time>
      </trkpt>
      <trkpt lat="43.66946" lon="3.21179">
        <ele>427</ele>
        <time>2023-12-15T12:47:59+01:00</time>
      </trkpt>
      <trkpt lat="43.66946" lon="3.21162">
        <ele>426</ele>
        <time>2023-12-15T12:48:13+01:00</time>
      </trkpt>
      <trkpt lat="43.66947" lon="3.21149">
        <ele>426</ele>
        <time>2023-12-15T12:48:22+01:00</time>
      </trkpt>
      <trkpt lat="43.66946" lon="3.21134">
        <ele>425</ele>
        <time>2023-12-15T12:48:31+01:00</time>
      </trkpt>
      <trkpt lat="43.66946" lon="3.21121">
        <ele>424</ele>
        <time>2023-12-15T12:48:41+01:00</time>
      </trkpt>
      <trkpt lat="43.66945" lon="3.21104">
        <ele>423</ele>
        <time>2023-12-15T12:48:55+01:00</time>
      </trkpt>
      <trkpt lat="43.66949" lon="3.21092">
        <ele>424</ele>
        <time>2023-12-15T12:49:04+01:00</time>
      </trkpt>
      <trkpt lat="43.66953" lon="3.21079">
        <ele>424</ele>
        <time>2023-12-15T12:49:13+01:00</time>
      </trkpt>
      <trkpt lat="43.66955" lon="3.21065">
        <ele>424</ele>
        <time>2023-12-15T12:49:23+01:00</time>
      </trkpt>
      <trkpt lat="43.66955" lon="3.2105">
        <ele>423</ele>
        <time>2023-12-15T12:49:32+01:00</time>
      </trkpt>
      <trkpt lat="43.66953" lon="3.21033">
        <ele>421</ele>
        <time>2023-12-15T12:49:46+01:00</time>
      </trkpt>
      <trkpt lat="43.66952" lon="3.21018">
        <ele>421</ele>
        <time>2023-12-15T12:50:00+01:00</time>
      </trkpt>
      <trkpt lat="43.66953" lon="3.21001">
        <ele>422</ele>
        <time>2023-12-15T12:50:14+01:00</time>
      </trkpt>
      <trkpt lat="43.66956" lon="3.20989">
        <ele>424</ele>
        <time>2023-12-15T12:50:23+01:00</time>
      </trkpt>
      <trkpt lat="43.66952" lon="3.20975">
        <ele>424</ele>
        <time>2023-12-15T12:50:38+01:00</time>
      </trkpt>
      <trkpt lat="43.66945" lon="3.2096">
        <ele>425</ele>
        <time>2023-12-15T12:50:51+01:00</time>
      </trkpt>
      <trkpt lat="43.66937" lon="3.20949">
        <ele>425</ele>
        <time>2023-12-15T12:51:00+01:00</time>
      </trkpt>
      <trkpt lat="43.66931" lon="3.20936">
        <ele>425</ele>
        <time>2023-12-15T12:51:14+01:00</time>
      </trkpt>
      <trkpt lat="43.66925" lon="3.20925">
        <ele>425</ele>
        <time>2023-12-15T12:51:24+01:00</time>
      </trkpt>
      <trkpt lat="43.66917" lon="3.20916">
        <ele>425</ele>
        <time>2023-12-15T12:51:49+01:00</time>
      </trkpt>
      <trkpt lat="43.66908" lon="3.20912">
        <ele>423</ele>
        <time>2023-12-15T12:52:12+01:00</time>
      </trkpt>
      <trkpt lat="43.66898" lon="3.20901">
        <ele>422</ele>
        <time>2023-12-15T12:52:27+01:00</time>
      </trkpt>
      <trkpt lat="43.66892" lon="3.20891">
        <ele>422</ele>
        <time>2023-12-15T12:52:36+01:00</time>
      </trkpt>
      <trkpt lat="43.66896" lon="3.20904">
        <ele>421</ele>
        <time>2023-12-15T12:53:20+01:00</time>
      </trkpt>
      <trkpt lat="43.66893" lon="3.20892">
        <ele>422</ele>
        <time>2023-12-15T12:53:54+01:00</time>
      </trkpt>
      <trkpt lat="43.66892" lon="3.20878">
        <ele>423</ele>
        <time>2023-12-15T12:54:53+01:00</time>
      </trkpt>
      <trkpt lat="43.66887" lon="3.20865">
        <ele>423</ele>
        <time>2023-12-15T12:55:07+01:00</time>
      </trkpt>
      <trkpt lat="43.66885" lon="3.20851">
        <ele>424</ele>
        <time>2023-12-15T12:55:21+01:00</time>
      </trkpt>
      <trkpt lat="43.66881" lon="3.20839">
        <ele>425</ele>
        <time>2023-12-15T12:55:30+01:00</time>
      </trkpt>
      <trkpt lat="43.6689" lon="3.20832">
        <ele>429</ele>
        <time>2023-12-15T12:55:45+01:00</time>
      </trkpt>
      <trkpt lat="43.669" lon="3.20823">
        <ele>433</ele>
        <time>2023-12-15T12:56:09+01:00</time>
      </trkpt>
      <trkpt lat="43.669" lon="3.20809">
        <ele>435</ele>
        <time>2023-12-15T12:56:27+01:00</time>
      </trkpt>
      <trkpt lat="43.66897" lon="3.20797">
        <ele>437</ele>
        <time>2023-12-15T12:56:46+01:00</time>
      </trkpt>
      <trkpt lat="43.66899" lon="3.20781">
        <ele>441</ele>
        <time>2023-12-15T12:57:05+01:00</time>
      </trkpt>
      <trkpt lat="43.66902" lon="3.20769">
        <ele>444</ele>
        <time>2023-12-15T12:57:14+01:00</time>
      </trkpt>
      <trkpt lat="43.6691" lon="3.20763">
        <ele>446</ele>
        <time>2023-12-15T12:57:28+01:00</time>
      </trkpt>
      <trkpt lat="43.6692" lon="3.20762">
        <ele>448</ele>
        <time>2023-12-15T12:57:42+01:00</time>
      </trkpt>
      <trkpt lat="43.66923" lon="3.20748">
        <ele>452</ele>
        <time>2023-12-15T12:57:56+01:00</time>
      </trkpt>
      <trkpt lat="43.66927" lon="3.2073">
        <ele>457</ele>
        <time>2023-12-15T12:58:20+01:00</time>
      </trkpt>
      <trkpt lat="43.66938" lon="3.20723">
        <ele>461</ele>
        <time>2023-12-15T12:58:39+01:00</time>
      </trkpt>
      <trkpt lat="43.66949" lon="3.20721">
        <ele>465</ele>
        <time>2023-12-15T12:58:59+01:00</time>
      </trkpt>
      <trkpt lat="43.66954" lon="3.20707">
        <ele>470</ele>
        <time>2023-12-15T12:59:38+01:00</time>
      </trkpt>
      <trkpt lat="43.66955" lon="3.20692">
        <ele>473</ele>
        <time>2023-12-15T12:59:57+01:00</time>
      </trkpt>
      <trkpt lat="43.66956" lon="3.20678">
        <ele>476</ele>
        <time>2023-12-15T13:00:11+01:00</time>
      </trkpt>
      <trkpt lat="43.6696" lon="3.20666">
        <ele>479</ele>
        <time>2023-12-15T13:00:44+01:00</time>
      </trkpt>
      <trkpt lat="43.66968" lon="3.20653">
        <ele>483</ele>
        <time>2023-12-15T13:00:59+01:00</time>
      </trkpt>
      <trkpt lat="43.66975" lon="3.20642">
        <ele>487</ele>
        <time>2023-12-15T13:01:13+01:00</time>
      </trkpt>
      <trkpt lat="43.66982" lon="3.20633">
        <ele>490</ele>
        <time>2023-12-15T13:01:32+01:00</time>
      </trkpt>
      <trkpt lat="43.66993" lon="3.20633">
        <ele>494</ele>
        <time>2023-12-15T13:01:50+01:00</time>
      </trkpt>
      <trkpt lat="43.67004" lon="3.20638">
        <ele>496</ele>
        <time>2023-12-15T13:02:24+01:00</time>
      </trkpt>
      <trkpt lat="43.67015" lon="3.20641">
        <ele>500</ele>
        <time>2023-12-15T13:02:51+01:00</time>
      </trkpt>
      <trkpt lat="43.67024" lon="3.20645">
        <ele>502</ele>
        <time>2023-12-15T13:03:51+01:00</time>
      </trkpt>
      <trkpt lat="43.67033" lon="3.20652">
        <ele>503</ele>
        <time>2023-12-15T13:04:00+01:00</time>
      </trkpt>
      <trkpt lat="43.67043" lon="3.20657">
        <ele>506</ele>
        <time>2023-12-15T13:04:14+01:00</time>
      </trkpt>
      <trkpt lat="43.67052" lon="3.20665">
        <ele>507</ele>
        <time>2023-12-15T13:04:28+01:00</time>
      </trkpt>
      <trkpt lat="43.67062" lon="3.2067">
        <ele>510</ele>
        <time>2023-12-15T13:04:42+01:00</time>
      </trkpt>
      <trkpt lat="43.67071" lon="3.20672">
        <ele>513</ele>
        <time>2023-12-15T13:05:06+01:00</time>
      </trkpt>
      <trkpt lat="43.67081" lon="3.20677">
        <ele>515</ele>
        <time>2023-12-15T13:05:34+01:00</time>
      </trkpt>
      <trkpt lat="43.6709" lon="3.20679">
        <ele>520</ele>
        <time>2023-12-15T13:05:48+01:00</time>
      </trkpt>
      <trkpt lat="43.67099" lon="3.2068">
        <ele>526</ele>
        <time>2023-12-15T13:06:27+01:00</time>
      </trkpt>
      <trkpt lat="43.6711" lon="3.20682">
        <ele>531</ele>
        <time>2023-12-15T13:06:36+01:00</time>
      </trkpt>
      <trkpt lat="43.67114" lon="3.20693">
        <ele>530</ele>
        <time>2023-12-15T13:06:54+01:00</time>
      </trkpt>
      <trkpt lat="43.67124" lon="3.20703">
        <ele>531</ele>
        <time>2023-12-15T13:08:07+01:00</time>
      </trkpt>
      <trkpt lat="43.67131" lon="3.20695">
        <ele>539</ele>
        <time>2023-12-15T13:08:44+01:00</time>
      </trkpt>
      <trkpt lat="43.67141" lon="3.20695">
        <ele>543</ele>
        <time>2023-12-15T13:09:04+01:00</time>
      </trkpt>
      <trkpt lat="43.6715" lon="3.20699">
        <ele>543</ele>
        <time>2023-12-15T13:09:23+01:00</time>
      </trkpt>
      <trkpt lat="43.67145" lon="3.20686">
        <ele>548</ele>
        <time>2023-12-15T13:10:35+01:00</time>
      </trkpt>
      <trkpt lat="43.67153" lon="3.20675">
        <ele>554</ele>
        <time>2023-12-15T13:12:05+01:00</time>
      </trkpt>
      <trkpt lat="43.67163" lon="3.20668">
        <ele>559</ele>
        <time>2023-12-15T13:13:49+01:00</time>
      </trkpt>
      <trkpt lat="43.67171" lon="3.20653">
        <ele>563</ele>
        <time>2023-12-15T13:14:03+01:00</time>
      </trkpt>
      <trkpt lat="43.67178" lon="3.20642">
        <ele>565</ele>
        <time>2023-12-15T13:14:17+01:00</time>
      </trkpt>
      <trkpt lat="43.67184" lon="3.20631">
        <ele>566</ele>
        <time>2023-12-15T13:14:36+01:00</time>
      </trkpt>
      <trkpt lat="43.67178" lon="3.2062">
        <ele>569</ele>
        <time>2023-12-15T13:14:59+01:00</time>
      </trkpt>
      <trkpt lat="43.67167" lon="3.20618">
        <ele>570</ele>
        <time>2023-12-15T13:15:13+01:00</time>
      </trkpt>
      <trkpt lat="43.67157" lon="3.20613">
        <ele>571</ele>
        <time>2023-12-15T13:15:33+01:00</time>
      </trkpt>
      <trkpt lat="43.67153" lon="3.20599">
        <ele>572</ele>
        <time>2023-12-15T13:15:52+01:00</time>
      </trkpt>
      <trkpt lat="43.67144" lon="3.20589">
        <ele>573</ele>
        <time>2023-12-15T13:16:07+01:00</time>
      </trkpt>
      <trkpt lat="43.67136" lon="3.20576">
        <ele>575</ele>
        <time>2023-12-15T13:16:26+01:00</time>
      </trkpt>
      <trkpt lat="43.67124" lon="3.20576">
        <ele>572</ele>
        <time>2023-12-15T13:16:39+01:00</time>
      </trkpt>
      <trkpt lat="43.67127" lon="3.20563">
        <ele>575</ele>
        <time>2023-12-15T13:19:19+01:00</time>
      </trkpt>
      <trkpt lat="43.67131" lon="3.2055">
        <ele>578</ele>
        <time>2023-12-15T13:22:26+01:00</time>
      </trkpt>
      <trkpt lat="43.67132" lon="3.20536">
        <ele>579</ele>
        <time>2023-12-15T13:22:36+01:00</time>
      </trkpt>
      <trkpt lat="43.67138" lon="3.20522">
        <ele>580</ele>
        <time>2023-12-15T13:22:45+01:00</time>
      </trkpt>
      <trkpt lat="43.67131" lon="3.20537">
        <ele>579</ele>
        <time>2023-12-15T13:23:13+01:00</time>
      </trkpt>
      <trkpt lat="43.67124" lon="3.20528">
        <ele>579</ele>
        <time>2023-12-15T13:23:23+01:00</time>
      </trkpt>
      <trkpt lat="43.67122" lon="3.20516">
        <ele>579</ele>
        <time>2023-12-15T13:23:41+01:00</time>
      </trkpt>
      <trkpt lat="43.67126" lon="3.205">
        <ele>580</ele>
        <time>2023-12-15T13:23:55+01:00</time>
      </trkpt>
      <trkpt lat="43.67129" lon="3.20486">
        <ele>577</ele>
        <time>2023-12-15T13:24:14+01:00</time>
      </trkpt>
      <trkpt lat="43.67125" lon="3.20469">
        <ele>572</ele>
        <time>2023-12-15T13:24:46+01:00</time>
      </trkpt>
      <trkpt lat="43.67119" lon="3.20454">
        <ele>565</ele>
        <time>2023-12-15T13:25:00+01:00</time>
      </trkpt>
      <trkpt lat="43.67125" lon="3.20444">
        <ele>560</ele>
        <time>2023-12-15T13:25:09+01:00</time>
      </trkpt>
      <trkpt lat="43.67137" lon="3.20441">
        <ele>558</ele>
        <time>2023-12-15T13:25:23+01:00</time>
      </trkpt>
      <trkpt lat="43.67146" lon="3.20428">
        <ele>554</ele>
        <time>2023-12-15T13:25:37+01:00</time>
      </trkpt>
      <trkpt lat="43.67158" lon="3.20422">
        <ele>553</ele>
        <time>2023-12-15T13:25:51+01:00</time>
      </trkpt>
      <trkpt lat="43.67164" lon="3.20412">
        <ele>550</ele>
        <time>2023-12-15T13:26:00+01:00</time>
      </trkpt>
      <trkpt lat="43.67172" lon="3.20402">
        <ele>548</ele>
        <time>2023-12-15T13:26:14+01:00</time>
      </trkpt>
      <trkpt lat="43.67181" lon="3.20395">
        <ele>547</ele>
        <time>2023-12-15T13:26:28+01:00</time>
      </trkpt>
      <trkpt lat="43.67192" lon="3.20388">
        <ele>547</ele>
        <time>2023-12-15T13:26:42+01:00</time>
      </trkpt>
      <trkpt lat="43.67201" lon="3.20388">
        <ele>550</ele>
        <time>2023-12-15T13:26:51+01:00</time>
      </trkpt>
      <trkpt lat="43.67209" lon="3.20376">
        <ele>548</ele>
        <time>2023-12-15T13:27:05+01:00</time>
      </trkpt>
      <trkpt lat="43.67218" lon="3.2037">
        <ele>550</ele>
        <time>2023-12-15T13:27:15+01:00</time>
      </trkpt>
      <trkpt lat="43.67222" lon="3.20355">
        <ele>547</ele>
        <time>2023-12-15T13:27:29+01:00</time>
      </trkpt>
      <trkpt lat="43.67229" lon="3.20344">
        <ele>545</ele>
        <time>2023-12-15T13:27:37+01:00</time>
      </trkpt>
      <trkpt lat="43.67235" lon="3.20334">
        <ele>545</ele>
        <time>2023-12-15T13:27:47+01:00</time>
      </trkpt>
      <trkpt lat="43.67243" lon="3.20327">
        <ele>548</ele>
        <time>2023-12-15T13:27:56+01:00</time>
      </trkpt>
      <trkpt lat="43.67244" lon="3.20314">
        <ele>548</ele>
        <time>2023-12-15T13:31:11+01:00</time>
      </trkpt>
      <trkpt lat="43.67233" lon="3.20303">
        <ele>545</ele>
        <time>2023-12-15T13:31:24+01:00</time>
      </trkpt>
      <trkpt lat="43.67221" lon="3.20303">
        <ele>542</ele>
        <time>2023-12-15T13:31:44+01:00</time>
      </trkpt>
      <trkpt lat="43.67208" lon="3.20295">
        <ele>539</ele>
        <time>2023-12-15T13:31:54+01:00</time>
      </trkpt>
      <trkpt lat="43.67208" lon="3.20282">
        <ele>545</ele>
        <time>2023-12-15T13:32:32+01:00</time>
      </trkpt>
      <trkpt lat="43.67203" lon="3.20267">
        <ele>548</ele>
        <time>2023-12-15T13:32:42+01:00</time>
      </trkpt>
      <trkpt lat="43.67197" lon="3.20252">
        <ele>550</ele>
        <time>2023-12-15T13:33:00+01:00</time>
      </trkpt>
      <trkpt lat="43.67194" lon="3.20234">
        <ele>553</ele>
        <time>2023-12-15T13:33:14+01:00</time>
      </trkpt>
      <trkpt lat="43.67196" lon="3.20219">
        <ele>556</ele>
        <time>2023-12-15T13:33:28+01:00</time>
      </trkpt>
      <trkpt lat="43.67197" lon="3.20205">
        <ele>557</ele>
        <time>2023-12-15T13:33:37+01:00</time>
      </trkpt>
      <trkpt lat="43.67196" lon="3.20192">
        <ele>556</ele>
        <time>2023-12-15T13:33:46+01:00</time>
      </trkpt>
      <trkpt lat="43.67196" lon="3.20178">
        <ele>555</ele>
        <time>2023-12-15T13:33:56+01:00</time>
      </trkpt>
      <trkpt lat="43.672" lon="3.20167">
        <ele>557</ele>
        <time>2023-12-15T13:34:05+01:00</time>
      </trkpt>
      <trkpt lat="43.67201" lon="3.2015">
        <ele>557</ele>
        <time>2023-12-15T13:34:24+01:00</time>
      </trkpt>
      <trkpt lat="43.67202" lon="3.20136">
        <ele>557</ele>
        <time>2023-12-15T13:34:34+01:00</time>
      </trkpt>
      <trkpt lat="43.67208" lon="3.20123">
        <ele>559</ele>
        <time>2023-12-15T13:39:00+01:00</time>
      </trkpt>
      <trkpt lat="43.67211" lon="3.2011">
        <ele>559</ele>
        <time>2023-12-15T13:39:10+01:00</time>
      </trkpt>
      <trkpt lat="43.67214" lon="3.20092">
        <ele>559</ele>
        <time>2023-12-15T13:39:28+01:00</time>
      </trkpt>
      <trkpt lat="43.67215" lon="3.20078">
        <ele>558</ele>
        <time>2023-12-15T13:39:38+01:00</time>
      </trkpt>
      <trkpt lat="43.67217" lon="3.20063">
        <ele>557</ele>
        <time>2023-12-15T13:39:47+01:00</time>
      </trkpt>
      <trkpt lat="43.67221" lon="3.20046">
        <ele>557</ele>
        <time>2023-12-15T13:40:01+01:00</time>
      </trkpt>
      <trkpt lat="43.67222" lon="3.2003">
        <ele>556</ele>
        <time>2023-12-15T13:40:10+01:00</time>
      </trkpt>
      <trkpt lat="43.67226" lon="3.20014">
        <ele>557</ele>
        <time>2023-12-15T13:40:24+01:00</time>
      </trkpt>
      <trkpt lat="43.67221" lon="3.20001">
        <ele>551</ele>
        <time>2023-12-15T13:40:38+01:00</time>
      </trkpt>
      <trkpt lat="43.67228" lon="3.19991">
        <ele>556</ele>
        <time>2023-12-15T13:40:47+01:00</time>
      </trkpt>
      <trkpt lat="43.67227" lon="3.19974">
        <ele>553</ele>
        <time>2023-12-15T13:41:01+01:00</time>
      </trkpt>
      <trkpt lat="43.67229" lon="3.19961">
        <ele>554</ele>
        <time>2023-12-15T13:41:10+01:00</time>
      </trkpt>
      <trkpt lat="43.67226" lon="3.19944">
        <ele>552</ele>
        <time>2023-12-15T13:41:24+01:00</time>
      </trkpt>
      <trkpt lat="43.67231" lon="3.19934">
        <ele>555</ele>
        <time>2023-12-15T13:41:33+01:00</time>
      </trkpt>
      <trkpt lat="43.67237" lon="3.19924">
        <ele>558</ele>
        <time>2023-12-15T13:41:53+01:00</time>
      </trkpt>
      <trkpt lat="43.67237" lon="3.19907">
        <ele>557</ele>
        <time>2023-12-15T13:42:42+01:00</time>
      </trkpt>
      <trkpt lat="43.67235" lon="3.19892">
        <ele>554</ele>
        <time>2023-12-15T13:42:51+01:00</time>
      </trkpt>
      <trkpt lat="43.67234" lon="3.19875">
        <ele>553</ele>
        <time>2023-12-15T13:43:05+01:00</time>
      </trkpt>
      <trkpt lat="43.67233" lon="3.19862">
        <ele>551</ele>
        <time>2023-12-15T13:43:14+01:00</time>
      </trkpt>
      <trkpt lat="43.67235" lon="3.19849">
        <ele>554</ele>
        <time>2023-12-15T13:43:28+01:00</time>
      </trkpt>
      <trkpt lat="43.67236" lon="3.19835">
        <ele>555</ele>
        <time>2023-12-15T13:43:38+01:00</time>
      </trkpt>
      <trkpt lat="43.67238" lon="3.1982">
        <ele>557</ele>
        <time>2023-12-15T13:43:52+01:00</time>
      </trkpt>
      <trkpt lat="43.67237" lon="3.198">
        <ele>556</ele>
        <time>2023-12-15T13:44:06+01:00</time>
      </trkpt>
      <trkpt lat="43.67236" lon="3.19783">
        <ele>555</ele>
        <time>2023-12-15T13:44:21+01:00</time>
      </trkpt>
      <trkpt lat="43.67239" lon="3.19768">
        <ele>557</ele>
        <time>2023-12-15T13:44:46+01:00</time>
      </trkpt>
      <trkpt lat="43.67241" lon="3.19753">
        <ele>557</ele>
        <time>2023-12-15T13:44:55+01:00</time>
      </trkpt>
      <trkpt lat="43.67249" lon="3.19739">
        <ele>561</ele>
        <time>2023-12-15T13:45:09+01:00</time>
      </trkpt>
      <trkpt lat="43.67252" lon="3.19723">
        <ele>561</ele>
        <time>2023-12-15T13:45:18+01:00</time>
      </trkpt>
      <trkpt lat="43.67249" lon="3.19708">
        <ele>561</ele>
        <time>2023-12-15T13:45:37+01:00</time>
      </trkpt>
      <trkpt lat="43.67246" lon="3.19694">
        <ele>560</ele>
        <time>2023-12-15T13:46:26+01:00</time>
      </trkpt>
      <trkpt lat="43.67238" lon="3.19678">
        <ele>557</ele>
        <time>2023-12-15T13:49:28+01:00</time>
      </trkpt>
      <trkpt lat="43.6723" lon="3.19669">
        <ele>553</ele>
        <time>2023-12-15T13:49:43+01:00</time>
      </trkpt>
      <trkpt lat="43.67234" lon="3.19657">
        <ele>557</ele>
        <time>2023-12-15T13:50:41+01:00</time>
      </trkpt>
      <trkpt lat="43.67229" lon="3.19639">
        <ele>556</ele>
        <time>2023-12-15T13:50:55+01:00</time>
      </trkpt>
      <trkpt lat="43.67223" lon="3.19629">
        <ele>555</ele>
        <time>2023-12-15T13:51:06+01:00</time>
      </trkpt>
      <trkpt lat="43.67229" lon="3.19619">
        <ele>559</ele>
        <time>2023-12-15T13:52:49+01:00</time>
      </trkpt>
      <trkpt lat="43.67228" lon="3.19603">
        <ele>561</ele>
        <time>2023-12-15T13:53:03+01:00</time>
      </trkpt>
      <trkpt lat="43.67231" lon="3.19591">
        <ele>564</ele>
        <time>2023-12-15T13:53:17+01:00</time>
      </trkpt>
      <trkpt lat="43.67231" lon="3.19578">
        <ele>565</ele>
        <time>2023-12-15T13:53:41+01:00</time>
      </trkpt>
      <trkpt lat="43.6723" lon="3.19565">
        <ele>566</ele>
        <time>2023-12-15T13:53:55+01:00</time>
      </trkpt>
      <trkpt lat="43.67232" lon="3.19547">
        <ele>567</ele>
        <time>2023-12-15T13:57:21+01:00</time>
      </trkpt>
      <trkpt lat="43.67232" lon="3.19534">
        <ele>567</ele>
        <time>2023-12-15T13:57:30+01:00</time>
      </trkpt>
      <trkpt lat="43.67232" lon="3.19519">
        <ele>567</ele>
        <time>2023-12-15T13:57:44+01:00</time>
      </trkpt>
      <trkpt lat="43.67229" lon="3.19502">
        <ele>566</ele>
        <time>2023-12-15T13:57:58+01:00</time>
      </trkpt>
      <trkpt lat="43.67232" lon="3.19488">
        <ele>566</ele>
        <time>2023-12-15T13:58:12+01:00</time>
      </trkpt>
      <trkpt lat="43.67239" lon="3.1948">
        <ele>567</ele>
        <time>2023-12-15T13:58:55+01:00</time>
      </trkpt>
      <trkpt lat="43.67242" lon="3.19493">
        <ele>568</ele>
        <time>2023-12-15T14:00:26+01:00</time>
      </trkpt>
      <trkpt lat="43.67248" lon="3.19504">
        <ele>570</ele>
        <time>2023-12-15T14:00:36+01:00</time>
      </trkpt>
      <trkpt lat="43.67249" lon="3.19517">
        <ele>570</ele>
        <time>2023-12-15T14:00:45+01:00</time>
      </trkpt>
      <trkpt lat="43.67255" lon="3.19528">
        <ele>570</ele>
        <time>2023-12-15T14:00:54+01:00</time>
      </trkpt>
      <trkpt lat="43.67265" lon="3.19543">
        <ele>570</ele>
        <time>2023-12-15T14:01:09+01:00</time>
      </trkpt>
      <trkpt lat="43.67273" lon="3.19556">
        <ele>571</ele>
        <time>2023-12-15T14:01:22+01:00</time>
      </trkpt>
      <trkpt lat="43.67279" lon="3.19568">
        <ele>572</ele>
        <time>2023-12-15T14:01:32+01:00</time>
      </trkpt>
      <trkpt lat="43.67288" lon="3.19574">
        <ele>573</ele>
        <time>2023-12-15T14:01:41+01:00</time>
      </trkpt>
      <trkpt lat="43.67295" lon="3.19585">
        <ele>575</ele>
        <time>2023-12-15T14:01:50+01:00</time>
      </trkpt>
      <trkpt lat="43.67308" lon="3.19602">
        <ele>579</ele>
        <time>2023-12-15T14:02:04+01:00</time>
      </trkpt>
      <trkpt lat="43.67315" lon="3.19613">
        <ele>580</ele>
        <time>2023-12-15T14:02:13+01:00</time>
      </trkpt>
      <trkpt lat="43.67322" lon="3.19623">
        <ele>581</ele>
        <time>2023-12-15T14:02:23+01:00</time>
      </trkpt>
      <trkpt lat="43.67328" lon="3.1964">
        <ele>583</ele>
        <time>2023-12-15T14:02:33+01:00</time>
      </trkpt>
      <trkpt lat="43.67336" lon="3.19652">
        <ele>585</ele>
        <time>2023-12-15T14:02:42+01:00</time>
      </trkpt>
      <trkpt lat="43.67345" lon="3.19666">
        <ele>587</ele>
        <time>2023-12-15T14:02:56+01:00</time>
      </trkpt>
      <trkpt lat="43.67353" lon="3.19677">
        <ele>588</ele>
        <time>2023-12-15T14:03:07+01:00</time>
      </trkpt>
      <trkpt lat="43.6736" lon="3.19689">
        <ele>590</ele>
        <time>2023-12-15T14:03:16+01:00</time>
      </trkpt>
      <trkpt lat="43.67364" lon="3.19701">
        <ele>590</ele>
        <time>2023-12-15T14:03:25+01:00</time>
      </trkpt>
      <trkpt lat="43.6737" lon="3.19712">
        <ele>591</ele>
        <time>2023-12-15T14:03:35+01:00</time>
      </trkpt>
      <trkpt lat="43.67375" lon="3.19723">
        <ele>592</ele>
        <time>2023-12-15T14:03:44+01:00</time>
      </trkpt>
      <trkpt lat="43.67383" lon="3.19735">
        <ele>593</ele>
        <time>2023-12-15T14:03:58+01:00</time>
      </trkpt>
      <trkpt lat="43.67392" lon="3.19742">
        <ele>594</ele>
        <time>2023-12-15T14:04:07+01:00</time>
      </trkpt>
      <trkpt lat="43.674" lon="3.19751">
        <ele>594</ele>
        <time>2023-12-15T14:04:17+01:00</time>
      </trkpt>
      <trkpt lat="43.67411" lon="3.19754">
        <ele>595</ele>
        <time>2023-12-15T14:04:26+01:00</time>
      </trkpt>
      <trkpt lat="43.67422" lon="3.19753">
        <ele>595</ele>
        <time>2023-12-15T14:04:36+01:00</time>
      </trkpt>
      <trkpt lat="43.67433" lon="3.19754">
        <ele>595</ele>
        <time>2023-12-15T14:04:45+01:00</time>
      </trkpt>
      <trkpt lat="43.67444" lon="3.19757">
        <ele>595</ele>
        <time>2023-12-15T14:04:54+01:00</time>
      </trkpt>
      <trkpt lat="43.67453" lon="3.19762">
        <ele>594</ele>
        <time>2023-12-15T14:05:03+01:00</time>
      </trkpt>
      <trkpt lat="43.67465" lon="3.19765">
        <ele>594</ele>
        <time>2023-12-15T14:05:13+01:00</time>
      </trkpt>
      <trkpt lat="43.67476" lon="3.19767">
        <ele>593</ele>
        <time>2023-12-15T14:05:22+01:00</time>
      </trkpt>
      <trkpt lat="43.67487" lon="3.19768">
        <ele>592</ele>
        <time>2023-12-15T14:05:31+01:00</time>
      </trkpt>
      <trkpt lat="43.67497" lon="3.19773">
        <ele>592</ele>
        <time>2023-12-15T14:05:40+01:00</time>
      </trkpt>
      <trkpt lat="43.67509" lon="3.19773">
        <ele>591</ele>
        <time>2023-12-15T14:05:49+01:00</time>
      </trkpt>
      <trkpt lat="43.6752" lon="3.19775">
        <ele>591</ele>
        <time>2023-12-15T14:05:59+01:00</time>
      </trkpt>
      <trkpt lat="43.6753" lon="3.1978">
        <ele>590</ele>
        <time>2023-12-15T14:06:09+01:00</time>
      </trkpt>
      <trkpt lat="43.67539" lon="3.19785">
        <ele>590</ele>
        <time>2023-12-15T14:06:18+01:00</time>
      </trkpt>
      <trkpt lat="43.6755" lon="3.19783">
        <ele>590</ele>
        <time>2023-12-15T14:06:27+01:00</time>
      </trkpt>
      <trkpt lat="43.67564" lon="3.19788">
        <ele>590</ele>
        <time>2023-12-15T14:06:41+01:00</time>
      </trkpt>
      <trkpt lat="43.67575" lon="3.19787">
        <ele>590</ele>
        <time>2023-12-15T14:06:50+01:00</time>
      </trkpt>
      <trkpt lat="43.67585" lon="3.19793">
        <ele>590</ele>
        <time>2023-12-15T14:07:00+01:00</time>
      </trkpt>
      <trkpt lat="43.67594" lon="3.19798">
        <ele>591</ele>
        <time>2023-12-15T14:08:13+01:00</time>
      </trkpt>
      <trkpt lat="43.67609" lon="3.19797">
        <ele>592</ele>
        <time>2023-12-15T14:08:23+01:00</time>
      </trkpt>
      <trkpt lat="43.67621" lon="3.19801">
        <ele>594</ele>
        <time>2023-12-15T14:08:32+01:00</time>
      </trkpt>
      <trkpt lat="43.67632" lon="3.19804">
        <ele>594</ele>
        <time>2023-12-15T14:08:41+01:00</time>
      </trkpt>
      <trkpt lat="43.67645" lon="3.19805">
        <ele>595</ele>
        <time>2023-12-15T14:08:50+01:00</time>
      </trkpt>
      <trkpt lat="43.67656" lon="3.19806">
        <ele>595</ele>
        <time>2023-12-15T14:09:00+01:00</time>
      </trkpt>
      <trkpt lat="43.67669" lon="3.19809">
        <ele>595</ele>
        <time>2023-12-15T14:09:09+01:00</time>
      </trkpt>
      <trkpt lat="43.67682" lon="3.19811">
        <ele>595</ele>
        <time>2023-12-15T14:09:18+01:00</time>
      </trkpt>
      <trkpt lat="43.67694" lon="3.1981">
        <ele>595</ele>
        <time>2023-12-15T14:09:27+01:00</time>
      </trkpt>
      <trkpt lat="43.67707" lon="3.19812">
        <ele>595</ele>
        <time>2023-12-15T14:09:37+01:00</time>
      </trkpt>
      <trkpt lat="43.6772" lon="3.19813">
        <ele>595</ele>
        <time>2023-12-15T14:09:46+01:00</time>
      </trkpt>
      <trkpt lat="43.67734" lon="3.19817">
        <ele>595</ele>
        <time>2023-12-15T14:09:55+01:00</time>
      </trkpt>
      <trkpt lat="43.67746" lon="3.19818">
        <ele>595</ele>
        <time>2023-12-15T14:10:04+01:00</time>
      </trkpt>
      <trkpt lat="43.67757" lon="3.1982">
        <ele>595</ele>
        <time>2023-12-15T14:10:14+01:00</time>
      </trkpt>
      <trkpt lat="43.6777" lon="3.19825">
        <ele>595</ele>
        <time>2023-12-15T14:10:23+01:00</time>
      </trkpt>
      <trkpt lat="43.67782" lon="3.19833">
        <ele>595</ele>
        <time>2023-12-15T14:10:32+01:00</time>
      </trkpt>
      <trkpt lat="43.67793" lon="3.19842">
        <ele>594</ele>
        <time>2023-12-15T14:10:42+01:00</time>
      </trkpt>
      <trkpt lat="43.67804" lon="3.19851">
        <ele>594</ele>
        <time>2023-12-15T14:10:51+01:00</time>
      </trkpt>
      <trkpt lat="43.67813" lon="3.19859">
        <ele>593</ele>
        <time>2023-12-15T14:11:00+01:00</time>
      </trkpt>
      <trkpt lat="43.67824" lon="3.19867">
        <ele>593</ele>
        <time>2023-12-15T14:11:10+01:00</time>
      </trkpt>
      <trkpt lat="43.67835" lon="3.19871">
        <ele>592</ele>
        <time>2023-12-15T14:11:19+01:00</time>
      </trkpt>
      <trkpt lat="43.67846" lon="3.19883">
        <ele>592</ele>
        <time>2023-12-15T14:11:28+01:00</time>
      </trkpt>
      <trkpt lat="43.67855" lon="3.19895">
        <ele>592</ele>
        <time>2023-12-15T14:11:37+01:00</time>
      </trkpt>
      <trkpt lat="43.67865" lon="3.19904">
        <ele>591</ele>
        <time>2023-12-15T14:11:46+01:00</time>
      </trkpt>
      <trkpt lat="43.67877" lon="3.19914">
        <ele>591</ele>
        <time>2023-12-15T14:11:56+01:00</time>
      </trkpt>
      <trkpt lat="43.67888" lon="3.19923">
        <ele>590</ele>
        <time>2023-12-15T14:12:06+01:00</time>
      </trkpt>
      <trkpt lat="43.679" lon="3.19932">
        <ele>590</ele>
        <time>2023-12-15T14:12:15+01:00</time>
      </trkpt>
      <trkpt lat="43.6791" lon="3.19941">
        <ele>589</ele>
        <time>2023-12-15T14:12:24+01:00</time>
      </trkpt>
      <trkpt lat="43.67919" lon="3.19951">
        <ele>589</ele>
        <time>2023-12-15T14:12:34+01:00</time>
      </trkpt>
      <trkpt lat="43.6793" lon="3.1996">
        <ele>589</ele>
        <time>2023-12-15T14:12:43+01:00</time>
      </trkpt>
      <trkpt lat="43.67941" lon="3.19966">
        <ele>588</ele>
        <time>2023-12-15T14:12:52+01:00</time>
      </trkpt>
      <trkpt lat="43.6795" lon="3.19977">
        <ele>588</ele>
        <time>2023-12-15T14:13:01+01:00</time>
      </trkpt>
      <trkpt lat="43.67959" lon="3.19985">
        <ele>588</ele>
        <time>2023-12-15T14:13:11+01:00</time>
      </trkpt>
      <trkpt lat="43.67969" lon="3.19992">
        <ele>588</ele>
        <time>2023-12-15T14:13:20+01:00</time>
      </trkpt>
      <trkpt lat="43.67981" lon="3.2">
        <ele>588</ele>
        <time>2023-12-15T14:13:29+01:00</time>
      </trkpt>
      <trkpt lat="43.6799" lon="3.2001">
        <ele>588</ele>
        <time>2023-12-15T14:13:38+01:00</time>
      </trkpt>
      <trkpt lat="43.68" lon="3.20016">
        <ele>588</ele>
        <time>2023-12-15T14:13:47+01:00</time>
      </trkpt>
      <trkpt lat="43.68012" lon="3.20022">
        <ele>588</ele>
        <time>2023-12-15T14:13:57+01:00</time>
      </trkpt>
      <trkpt lat="43.68022" lon="3.20032">
        <ele>588</ele>
        <time>2023-12-15T14:14:06+01:00</time>
      </trkpt>
      <trkpt lat="43.68033" lon="3.20042">
        <ele>588</ele>
        <time>2023-12-15T14:14:15+01:00</time>
      </trkpt>
      <trkpt lat="43.68041" lon="3.20049">
        <ele>588</ele>
        <time>2023-12-15T14:14:34+01:00</time>
      </trkpt>
      <trkpt lat="43.68056" lon="3.2006">
        <ele>588</ele>
        <time>2023-12-15T14:14:43+01:00</time>
      </trkpt>
      <trkpt lat="43.68066" lon="3.20068">
        <ele>588</ele>
        <time>2023-12-15T14:14:52+01:00</time>
      </trkpt>
      <trkpt lat="43.68075" lon="3.20074">
        <ele>587</ele>
        <time>2023-12-15T14:15:01+01:00</time>
      </trkpt>
      <trkpt lat="43.68087" lon="3.20084">
        <ele>587</ele>
        <time>2023-12-15T14:15:11+01:00</time>
      </trkpt>
      <trkpt lat="43.68097" lon="3.20091">
        <ele>587</ele>
        <time>2023-12-15T14:15:20+01:00</time>
      </trkpt>
      <trkpt lat="43.68106" lon="3.201">
        <ele>587</ele>
        <time>2023-12-15T14:15:30+01:00</time>
      </trkpt>
      <trkpt lat="43.68117" lon="3.20108">
        <ele>587</ele>
        <time>2023-12-15T14:15:39+01:00</time>
      </trkpt>
      <trkpt lat="43.68127" lon="3.20118">
        <ele>587</ele>
        <time>2023-12-15T14:15:48+01:00</time>
      </trkpt>
      <trkpt lat="43.68136" lon="3.20126">
        <ele>587</ele>
        <time>2023-12-15T14:15:58+01:00</time>
      </trkpt>
      <trkpt lat="43.68145" lon="3.20132">
        <ele>587</ele>
        <time>2023-12-15T14:16:07+01:00</time>
      </trkpt>
      <trkpt lat="43.68157" lon="3.20146">
        <ele>587</ele>
        <time>2023-12-15T14:16:16+01:00</time>
      </trkpt>
      <trkpt lat="43.68167" lon="3.2014">
        <ele>586</ele>
        <time>2023-12-15T14:16:40+01:00</time>
      </trkpt>
      <trkpt lat="43.68176" lon="3.20126">
        <ele>584</ele>
        <time>2023-12-15T14:17:20+01:00</time>
      </trkpt>
      <trkpt lat="43.68181" lon="3.20115">
        <ele>583</ele>
        <time>2023-12-15T14:17:34+01:00</time>
      </trkpt>
      <trkpt lat="43.68191" lon="3.20107">
        <ele>580</ele>
        <time>2023-12-15T14:17:49+01:00</time>
      </trkpt>
      <trkpt lat="43.68201" lon="3.20107">
        <ele>579</ele>
        <time>2023-12-15T14:18:07+01:00</time>
      </trkpt>
      <trkpt lat="43.6821" lon="3.20114">
        <ele>580</ele>
        <time>2023-12-15T14:18:21+01:00</time>
      </trkpt>
      <trkpt lat="43.68199" lon="3.20108">
        <ele>580</ele>
        <time>2023-12-15T14:19:40+01:00</time>
      </trkpt>
      <trkpt lat="43.68204" lon="3.20096">
        <ele>576</ele>
        <time>2023-12-15T14:20:03+01:00</time>
      </trkpt>
      <trkpt lat="43.68202" lon="3.20083">
        <ele>573</ele>
        <time>2023-12-15T14:20:22+01:00</time>
      </trkpt>
      <trkpt lat="43.68202" lon="3.2007">
        <ele>568</ele>
        <time>2023-12-15T14:21:48+01:00</time>
      </trkpt>
      <trkpt lat="43.68198" lon="3.20058">
        <ele>564</ele>
        <time>2023-12-15T14:22:18+01:00</time>
      </trkpt>
      <trkpt lat="43.682" lon="3.20045">
        <ele>559</ele>
        <time>2023-12-15T14:22:45+01:00</time>
      </trkpt>
      <trkpt lat="43.68203" lon="3.2003">
        <ele>553</ele>
        <time>2023-12-15T14:23:38+01:00</time>
      </trkpt>
      <trkpt lat="43.68205" lon="3.20016">
        <ele>548</ele>
        <time>2023-12-15T14:23:57+01:00</time>
      </trkpt>
      <trkpt lat="43.68216" lon="3.20012">
        <ele>547</ele>
        <time>2023-12-15T14:24:45+01:00</time>
      </trkpt>
      <trkpt lat="43.6822" lon="3.20001">
        <ele>543</ele>
        <time>2023-12-15T14:24:59+01:00</time>
      </trkpt>
      <trkpt lat="43.68224" lon="3.19987">
        <ele>541</ele>
        <time>2023-12-15T14:25:22+01:00</time>
      </trkpt>
      <trkpt lat="43.68232" lon="3.19975">
        <ele>540</ele>
        <time>2023-12-15T14:25:41+01:00</time>
      </trkpt>
      <trkpt lat="43.6824" lon="3.1997">
        <ele>539</ele>
        <time>2023-12-15T14:27:04+01:00</time>
      </trkpt>
      <trkpt lat="43.6825" lon="3.19961">
        <ele>536</ele>
        <time>2023-12-15T14:27:58+01:00</time>
      </trkpt>
      <trkpt lat="43.68264" lon="3.19954">
        <ele>535</ele>
        <time>2023-12-15T14:29:23+01:00</time>
      </trkpt>
      <trkpt lat="43.68274" lon="3.19943">
        <ele>532</ele>
        <time>2023-12-15T14:29:38+01:00</time>
      </trkpt>
      <trkpt lat="43.68285" lon="3.19943">
        <ele>534</ele>
        <time>2023-12-15T14:30:38+01:00</time>
      </trkpt>
      <trkpt lat="43.68293" lon="3.19938">
        <ele>534</ele>
        <time>2023-12-15T14:30:47+01:00</time>
      </trkpt>
      <trkpt lat="43.68285" lon="3.19941">
        <ele>533</ele>
        <time>2023-12-15T14:31:50+01:00</time>
      </trkpt>
      <trkpt lat="43.68296" lon="3.19932">
        <ele>532</ele>
        <time>2023-12-15T14:32:49+01:00</time>
      </trkpt>
      <trkpt lat="43.68306" lon="3.19923">
        <ele>530</ele>
        <time>2023-12-15T14:33:03+01:00</time>
      </trkpt>
      <trkpt lat="43.68317" lon="3.19921">
        <ele>533</ele>
        <time>2023-12-15T14:33:17+01:00</time>
      </trkpt>
      <trkpt lat="43.68329" lon="3.19913">
        <ele>534</ele>
        <time>2023-12-15T14:33:47+01:00</time>
      </trkpt>
      <trkpt lat="43.6834" lon="3.19906">
        <ele>536</ele>
        <time>2023-12-15T14:35:26+01:00</time>
      </trkpt>
      <trkpt lat="43.68349" lon="3.19897">
        <ele>536</ele>
        <time>2023-12-15T14:37:32+01:00</time>
      </trkpt>
      <trkpt lat="43.68355" lon="3.19888">
        <ele>535</ele>
        <time>2023-12-15T14:37:47+01:00</time>
      </trkpt>
      <trkpt lat="43.68363" lon="3.19879">
        <ele>535</ele>
        <time>2023-12-15T14:38:11+01:00</time>
      </trkpt>
      <trkpt lat="43.68359" lon="3.19866">
        <ele>529</ele>
        <time>2023-12-15T14:38:44+01:00</time>
      </trkpt>
      <trkpt lat="43.68366" lon="3.19858">
        <ele>529</ele>
        <time>2023-12-15T14:39:03+01:00</time>
      </trkpt>
      <trkpt lat="43.68371" lon="3.19844">
        <ele>526</ele>
        <time>2023-12-15T14:39:23+01:00</time>
      </trkpt>
      <trkpt lat="43.68372" lon="3.1983">
        <ele>521</ele>
        <time>2023-12-15T14:39:41+01:00</time>
      </trkpt>
      <trkpt lat="43.6838" lon="3.19822">
        <ele>520</ele>
        <time>2023-12-15T14:39:55+01:00</time>
      </trkpt>
      <trkpt lat="43.68385" lon="3.1981">
        <ele>517</ele>
        <time>2023-12-15T14:40:14+01:00</time>
      </trkpt>
      <trkpt lat="43.68386" lon="3.19797">
        <ele>513</ele>
        <time>2023-12-15T14:42:13+01:00</time>
      </trkpt>
      <trkpt lat="43.68395" lon="3.19783">
        <ele>512</ele>
        <time>2023-12-15T14:42:33+01:00</time>
      </trkpt>
      <trkpt lat="43.68401" lon="3.19772">
        <ele>511</ele>
        <time>2023-12-15T14:42:56+01:00</time>
      </trkpt>
      <trkpt lat="43.68408" lon="3.19759">
        <ele>510</ele>
        <time>2023-12-15T14:43:44+01:00</time>
      </trkpt>
      <trkpt lat="43.6841" lon="3.19746">
        <ele>506</ele>
        <time>2023-12-15T14:44:02+01:00</time>
      </trkpt>
      <trkpt lat="43.68411" lon="3.19733">
        <ele>502</ele>
        <time>2023-12-15T14:44:45+01:00</time>
      </trkpt>
      <trkpt lat="43.68402" lon="3.19739">
        <ele>501</ele>
        <time>2023-12-15T14:45:47+01:00</time>
      </trkpt>
      <trkpt lat="43.68413" lon="3.19733">
        <ele>503</ele>
        <time>2023-12-15T14:46:35+01:00</time>
      </trkpt>
      <trkpt lat="43.68421" lon="3.19723">
        <ele>503</ele>
        <time>2023-12-15T14:46:55+01:00</time>
      </trkpt>
      <trkpt lat="43.68425" lon="3.1971">
        <ele>501</ele>
        <time>2023-12-15T14:47:42+01:00</time>
      </trkpt>
      <trkpt lat="43.68424" lon="3.19697">
        <ele>497</ele>
        <time>2023-12-15T14:48:20+01:00</time>
      </trkpt>
      <trkpt lat="43.68433" lon="3.19689">
        <ele>499</ele>
        <time>2023-12-15T14:48:53+01:00</time>
      </trkpt>
      <trkpt lat="43.68436" lon="3.19676">
        <ele>496</ele>
        <time>2023-12-15T14:49:30+01:00</time>
      </trkpt>
      <trkpt lat="43.6844" lon="3.19665">
        <ele>495</ele>
        <time>2023-12-15T14:50:12+01:00</time>
      </trkpt>
      <trkpt lat="43.68436" lon="3.19653">
        <ele>490</ele>
        <time>2023-12-15T14:51:32+01:00</time>
      </trkpt>
      <trkpt lat="43.68439" lon="3.19641">
        <ele>488</ele>
        <time>2023-12-15T14:51:47+01:00</time>
      </trkpt>
      <trkpt lat="43.68447" lon="3.19634">
        <ele>490</ele>
        <time>2023-12-15T14:52:12+01:00</time>
      </trkpt>
      <trkpt lat="43.68454" lon="3.19624">
        <ele>491</ele>
        <time>2023-12-15T14:53:23+01:00</time>
      </trkpt>
      <trkpt lat="43.6846" lon="3.19609">
        <ele>491</ele>
        <time>2023-12-15T14:54:15+01:00</time>
      </trkpt>
      <trkpt lat="43.68464" lon="3.19596">
        <ele>492</ele>
        <time>2023-12-15T14:56:58+01:00</time>
      </trkpt>
      <trkpt lat="43.6847" lon="3.19582">
        <ele>493</ele>
        <time>2023-12-15T14:58:17+01:00</time>
      </trkpt>
      <trkpt lat="43.68472" lon="3.19566">
        <ele>492</ele>
        <time>2023-12-15T14:58:33+01:00</time>
      </trkpt>
      <trkpt lat="43.68472" lon="3.19579">
        <ele>493</ele>
        <time>2023-12-15T15:00:19+01:00</time>
      </trkpt>
      <trkpt lat="43.68463" lon="3.19574">
        <ele>487</ele>
        <time>2023-12-15T15:01:27+01:00</time>
      </trkpt>
      <trkpt lat="43.68453" lon="3.19566">
        <ele>480</ele>
        <time>2023-12-15T15:03:10+01:00</time>
      </trkpt>
      <trkpt lat="43.68443" lon="3.19563">
        <ele>474</ele>
        <time>2023-12-15T15:03:53+01:00</time>
      </trkpt>
      <trkpt lat="43.68434" lon="3.19557">
        <ele>465</ele>
        <time>2023-12-15T15:05:35+01:00</time>
      </trkpt>
      <trkpt lat="43.68425" lon="3.19554">
        <ele>458</ele>
        <time>2023-12-15T15:06:08+01:00</time>
      </trkpt>
      <trkpt lat="43.68424" lon="3.19571">
        <ele>462</ele>
        <time>2023-12-15T15:08:50+01:00</time>
      </trkpt>
      <trkpt lat="43.68421" lon="3.19582">
        <ele>463</ele>
        <time>2023-12-15T15:09:04+01:00</time>
      </trkpt>
      <trkpt lat="43.68412" lon="3.19591">
        <ele>461</ele>
        <time>2023-12-15T15:09:18+01:00</time>
      </trkpt>
      <trkpt lat="43.68404" lon="3.19596">
        <ele>457</ele>
        <time>2023-12-15T15:09:32+01:00</time>
      </trkpt>
      <trkpt lat="43.68396" lon="3.19602">
        <ele>454</ele>
        <time>2023-12-15T15:09:51+01:00</time>
      </trkpt>
      <trkpt lat="43.68386" lon="3.19597">
        <ele>449</ele>
        <time>2023-12-15T15:11:19+01:00</time>
      </trkpt>
      <trkpt lat="43.68386" lon="3.19579">
        <ele>444</ele>
        <time>2023-12-15T15:12:53+01:00</time>
      </trkpt>
      <trkpt lat="43.68379" lon="3.19568">
        <ele>444</ele>
        <time>2023-12-15T15:13:03+01:00</time>
      </trkpt>
      <trkpt lat="43.6838" lon="3.19554">
        <ele>440</ele>
        <time>2023-12-15T15:13:17+01:00</time>
      </trkpt>
      <trkpt lat="43.68374" lon="3.19544">
        <ele>440</ele>
        <time>2023-12-15T15:13:27+01:00</time>
      </trkpt>
      <trkpt lat="43.68366" lon="3.19537">
        <ele>443</ele>
        <time>2023-12-15T15:13:41+01:00</time>
      </trkpt>
      <trkpt lat="43.68368" lon="3.19522">
        <ele>439</ele>
        <time>2023-12-15T15:15:05+01:00</time>
      </trkpt>
      <trkpt lat="43.68364" lon="3.1951">
        <ele>437</ele>
        <time>2023-12-15T15:15:23+01:00</time>
      </trkpt>
      <trkpt lat="43.68356" lon="3.19496">
        <ele>437</ele>
        <time>2023-12-15T15:15:57+01:00</time>
      </trkpt>
      <trkpt lat="43.68351" lon="3.19482">
        <ele>435</ele>
        <time>2023-12-15T15:16:11+01:00</time>
      </trkpt>
      <trkpt lat="43.68346" lon="3.19469">
        <ele>433</ele>
        <time>2023-12-15T15:16:29+01:00</time>
      </trkpt>
      <trkpt lat="43.68345" lon="3.19457">
        <ele>430</ele>
        <time>2023-12-15T15:16:39+01:00</time>
      </trkpt>
      <trkpt lat="43.68337" lon="3.19451">
        <ele>430</ele>
        <time>2023-12-15T15:17:03+01:00</time>
      </trkpt>
      <trkpt lat="43.68327" lon="3.19446">
        <ele>430</ele>
        <time>2023-12-15T15:17:13+01:00</time>
      </trkpt>
      <trkpt lat="43.68317" lon="3.19435">
        <ele>428</ele>
        <time>2023-12-15T15:17:27+01:00</time>
      </trkpt>
      <trkpt lat="43.68307" lon="3.19431">
        <ele>427</ele>
        <time>2023-12-15T15:17:41+01:00</time>
      </trkpt>
      <trkpt lat="43.683" lon="3.19421">
        <ele>424</ele>
        <time>2023-12-15T15:17:50+01:00</time>
      </trkpt>
      <trkpt lat="43.68292" lon="3.19411">
        <ele>421</ele>
        <time>2023-12-15T15:18:00+01:00</time>
      </trkpt>
      <trkpt lat="43.68282" lon="3.19404">
        <ele>419</ele>
        <time>2023-12-15T15:18:14+01:00</time>
      </trkpt>
      <trkpt lat="43.68275" lon="3.19387">
        <ele>414</ele>
        <time>2023-12-15T15:18:38+01:00</time>
      </trkpt>
      <trkpt lat="43.68267" lon="3.19375">
        <ele>411</ele>
        <time>2023-12-15T15:18:47+01:00</time>
      </trkpt>
      <trkpt lat="43.68263" lon="3.19363">
        <ele>408</ele>
        <time>2023-12-15T15:19:06+01:00</time>
      </trkpt>
      <trkpt lat="43.68257" lon="3.19351">
        <ele>405</ele>
        <time>2023-12-15T15:19:16+01:00</time>
      </trkpt>
      <trkpt lat="43.6825" lon="3.19342">
        <ele>404</ele>
        <time>2023-12-15T15:19:26+01:00</time>
      </trkpt>
      <trkpt lat="43.68247" lon="3.19327">
        <ele>402</ele>
        <time>2023-12-15T15:19:40+01:00</time>
      </trkpt>
      <trkpt lat="43.68251" lon="3.19312">
        <ele>399</ele>
        <time>2023-12-15T15:19:49+01:00</time>
      </trkpt>
      <trkpt lat="43.68256" lon="3.193">
        <ele>397</ele>
        <time>2023-12-15T15:20:04+01:00</time>
      </trkpt>
      <trkpt lat="43.68257" lon="3.19286">
        <ele>396</ele>
        <time>2023-12-15T15:22:32+01:00</time>
      </trkpt>
      <trkpt lat="43.68243" lon="3.19282">
        <ele>397</ele>
        <time>2023-12-15T15:23:11+01:00</time>
      </trkpt>
      <trkpt lat="43.68238" lon="3.19265">
        <ele>397</ele>
        <time>2023-12-15T15:23:34+01:00</time>
      </trkpt>
      <trkpt lat="43.68247" lon="3.19282">
        <ele>396</ele>
        <time>2023-12-15T15:23:48+01:00</time>
      </trkpt>
      <trkpt lat="43.68252" lon="3.19297">
        <ele>397</ele>
        <time>2023-12-15T15:23:58+01:00</time>
      </trkpt>
      <trkpt lat="43.68258" lon="3.19316">
        <ele>399</ele>
        <time>2023-12-15T15:24:13+01:00</time>
      </trkpt>
      <trkpt lat="43.68268" lon="3.19327">
        <ele>399</ele>
        <time>2023-12-15T15:24:22+01:00</time>
      </trkpt>
      <trkpt lat="43.68274" lon="3.19338">
        <ele>400</ele>
        <time>2023-12-15T15:24:31+01:00</time>
      </trkpt>
      <trkpt lat="43.68288" lon="3.19345">
        <ele>401</ele>
        <time>2023-12-15T15:24:46+01:00</time>
      </trkpt>
      <trkpt lat="43.68298" lon="3.19353">
        <ele>400</ele>
        <time>2023-12-15T15:24:55+01:00</time>
      </trkpt>
      <trkpt lat="43.68307" lon="3.19362">
        <ele>400</ele>
        <time>2023-12-15T15:25:04+01:00</time>
      </trkpt>
      <trkpt lat="43.68315" lon="3.1937">
        <ele>404</ele>
        <time>2023-12-15T15:25:14+01:00</time>
      </trkpt>
      <trkpt lat="43.68324" lon="3.19369">
        <ele>404</ele>
        <time>2023-12-15T15:25:23+01:00</time>
      </trkpt>
      <trkpt lat="43.6833" lon="3.19349">
        <ele>400</ele>
        <time>2023-12-15T15:25:42+01:00</time>
      </trkpt>
      <trkpt lat="43.68341" lon="3.19341">
        <ele>399</ele>
        <time>2023-12-15T15:25:46+01:00</time>
      </trkpt>
      <trkpt lat="43.68349" lon="3.19327">
        <ele>398</ele>
        <time>2023-12-15T15:26:01+01:00</time>
      </trkpt>
      <trkpt lat="43.68356" lon="3.19312">
        <ele>396</ele>
        <time>2023-12-15T15:26:10+01:00</time>
      </trkpt>
      <trkpt lat="43.68366" lon="3.19308">
        <ele>395</ele>
        <time>2023-12-15T15:26:20+01:00</time>
      </trkpt>
      <trkpt lat="43.68373" lon="3.19323">
        <ele>393</ele>
        <time>2023-12-15T15:26:48+01:00</time>
      </trkpt>
      <trkpt lat="43.6838" lon="3.19335">
        <ele>391</ele>
        <time>2023-12-15T15:26:57+01:00</time>
      </trkpt>
      <trkpt lat="43.68386" lon="3.19351">
        <ele>391</ele>
        <time>2023-12-15T15:27:12+01:00</time>
      </trkpt>
      <trkpt lat="43.68398" lon="3.19355">
        <ele>395</ele>
        <time>2023-12-15T15:27:21+01:00</time>
      </trkpt>
      <trkpt lat="43.68411" lon="3.19353">
        <ele>402</ele>
        <time>2023-12-15T15:27:31+01:00</time>
      </trkpt>
      <trkpt lat="43.68418" lon="3.19341">
        <ele>402</ele>
        <time>2023-12-15T15:27:40+01:00</time>
      </trkpt>
      <trkpt lat="43.68424" lon="3.19323">
        <ele>401</ele>
        <time>2023-12-15T15:27:54+01:00</time>
      </trkpt>
      <trkpt lat="43.68433" lon="3.19309">
        <ele>403</ele>
        <time>2023-12-15T15:28:04+01:00</time>
      </trkpt>
      <trkpt lat="43.68442" lon="3.19298">
        <ele>404</ele>
        <time>2023-12-15T15:28:13+01:00</time>
      </trkpt>
      <trkpt lat="43.68447" lon="3.19287">
        <ele>404</ele>
        <time>2023-12-15T15:28:23+01:00</time>
      </trkpt>
      <trkpt lat="43.68453" lon="3.19276">
        <ele>403</ele>
        <time>2023-12-15T15:28:32+01:00</time>
      </trkpt>
      <trkpt lat="43.68457" lon="3.19257">
        <ele>401</ele>
        <time>2023-12-15T15:28:46+01:00</time>
      </trkpt>
      <trkpt lat="43.68458" lon="3.19244">
        <ele>400</ele>
        <time>2023-12-15T15:28:55+01:00</time>
      </trkpt>
      <trkpt lat="43.68467" lon="3.19232">
        <ele>399</ele>
        <time>2023-12-15T15:29:05+01:00</time>
      </trkpt>
      <trkpt lat="43.68475" lon="3.19218">
        <ele>399</ele>
        <time>2023-12-15T15:29:15+01:00</time>
      </trkpt>
      <trkpt lat="43.68483" lon="3.19206">
        <ele>399</ele>
        <time>2023-12-15T15:29:24+01:00</time>
      </trkpt>
      <trkpt lat="43.68488" lon="3.19196">
        <ele>400</ele>
        <time>2023-12-15T15:29:33+01:00</time>
      </trkpt>
      <trkpt lat="43.68497" lon="3.19189">
        <ele>401</ele>
        <time>2023-12-15T15:29:43+01:00</time>
      </trkpt>
      <trkpt lat="43.68509" lon="3.19174">
        <ele>402</ele>
        <time>2023-12-15T15:29:52+01:00</time>
      </trkpt>
      <trkpt lat="43.6852" lon="3.1917">
        <ele>403</ele>
        <time>2023-12-15T15:30:02+01:00</time>
      </trkpt>
      <trkpt lat="43.68528" lon="3.19162">
        <ele>403</ele>
        <time>2023-12-15T15:30:11+01:00</time>
      </trkpt>
      <trkpt lat="43.68534" lon="3.1915">
        <ele>403</ele>
        <time>2023-12-15T15:30:20+01:00</time>
      </trkpt>
      <trkpt lat="43.68538" lon="3.19137">
        <ele>402</ele>
        <time>2023-12-15T15:30:30+01:00</time>
      </trkpt>
      <trkpt lat="43.68538" lon="3.1912">
        <ele>401</ele>
        <time>2023-12-15T15:31:43+01:00</time>
      </trkpt>
      <trkpt lat="43.68542" lon="3.19105">
        <ele>400</ele>
        <time>2023-12-15T15:31:53+01:00</time>
      </trkpt>
      <trkpt lat="43.68549" lon="3.19095">
        <ele>400</ele>
        <time>2023-12-15T15:32:02+01:00</time>
      </trkpt>
      <trkpt lat="43.6855" lon="3.1908">
        <ele>399</ele>
        <time>2023-12-15T15:32:11+01:00</time>
      </trkpt>
      <trkpt lat="43.68558" lon="3.19068">
        <ele>398</ele>
        <time>2023-12-15T15:32:25+01:00</time>
      </trkpt>
      <trkpt lat="43.68564" lon="3.19056">
        <ele>397</ele>
        <time>2023-12-15T15:32:30+01:00</time>
      </trkpt>
      <trkpt lat="43.68571" lon="3.19046">
        <ele>397</ele>
        <time>2023-12-15T15:32:39+01:00</time>
      </trkpt>
      <trkpt lat="43.68578" lon="3.19031">
        <ele>396</ele>
        <time>2023-12-15T15:32:54+01:00</time>
      </trkpt>
      <trkpt lat="43.68592" lon="3.19017">
        <ele>399</ele>
        <time>2023-12-15T15:33:03+01:00</time>
      </trkpt>
      <trkpt lat="43.686" lon="3.19005">
        <ele>400</ele>
        <time>2023-12-15T15:33:12+01:00</time>
      </trkpt>
      <trkpt lat="43.68602" lon="3.18992">
        <ele>400</ele>
        <time>2023-12-15T15:33:21+01:00</time>
      </trkpt>
      <trkpt lat="43.68594" lon="3.18983">
        <ele>397</ele>
        <time>2023-12-15T15:33:31+01:00</time>
      </trkpt>
      <trkpt lat="43.68585" lon="3.18974">
        <ele>394</ele>
        <time>2023-12-15T15:33:41+01:00</time>
      </trkpt>
      <trkpt lat="43.68578" lon="3.18966">
        <ele>392</ele>
        <time>2023-12-15T15:33:50+01:00</time>
      </trkpt>
      <trkpt lat="43.68569" lon="3.18952">
        <ele>390</ele>
        <time>2023-12-15T15:34:00+01:00</time>
      </trkpt>
      <trkpt lat="43.6856" lon="3.18935">
        <ele>389</ele>
        <time>2023-12-15T15:34:28+01:00</time>
      </trkpt>
      <trkpt lat="43.68558" lon="3.18917">
        <ele>389</ele>
        <time>2023-12-15T15:34:38+01:00</time>
      </trkpt>
      <trkpt lat="43.68563" lon="3.18903">
        <ele>389</ele>
        <time>2023-12-15T15:34:47+01:00</time>
      </trkpt>
      <trkpt lat="43.68568" lon="3.18888">
        <ele>389</ele>
        <time>2023-12-15T15:34:56+01:00</time>
      </trkpt>
      <trkpt lat="43.68576" lon="3.18869">
        <ele>389</ele>
        <time>2023-12-15T15:35:06+01:00</time>
      </trkpt>
      <trkpt lat="43.68584" lon="3.18873">
        <ele>389</ele>
        <time>2023-12-15T15:35:15+01:00</time>
      </trkpt>
      <trkpt lat="43.68586" lon="3.18887">
        <ele>390</ele>
        <time>2023-12-15T15:35:24+01:00</time>
      </trkpt>
      <trkpt lat="43.68596" lon="3.18903">
        <ele>391</ele>
        <time>2023-12-15T15:35:34+01:00</time>
      </trkpt>
      <trkpt lat="43.68599" lon="3.18917">
        <ele>393</ele>
        <time>2023-12-15T15:35:43+01:00</time>
      </trkpt>
      <trkpt lat="43.68609" lon="3.1893">
        <ele>396</ele>
        <time>2023-12-15T15:35:57+01:00</time>
      </trkpt>
      <trkpt lat="43.68622" lon="3.18933">
        <ele>399</ele>
        <time>2023-12-15T15:36:06+01:00</time>
      </trkpt>
      <trkpt lat="43.68635" lon="3.18938">
        <ele>401</ele>
        <time>2023-12-15T15:36:16+01:00</time>
      </trkpt>
      <trkpt lat="43.68644" lon="3.18941">
        <ele>403</ele>
        <time>2023-12-15T15:36:25+01:00</time>
      </trkpt>
      <trkpt lat="43.68657" lon="3.18945">
        <ele>404</ele>
        <time>2023-12-15T15:36:39+01:00</time>
      </trkpt>
      <trkpt lat="43.68667" lon="3.18948">
        <ele>406</ele>
        <time>2023-12-15T15:36:48+01:00</time>
      </trkpt>
      <trkpt lat="43.68677" lon="3.18959">
        <ele>409</ele>
        <time>2023-12-15T15:37:02+01:00</time>
      </trkpt>
      <trkpt lat="43.68683" lon="3.18968">
        <ele>412</ele>
        <time>2023-12-15T15:37:12+01:00</time>
      </trkpt>
      <trkpt lat="43.68697" lon="3.1897">
        <ele>413</ele>
        <time>2023-12-15T15:37:26+01:00</time>
      </trkpt>
      <trkpt lat="43.68712" lon="3.1897">
        <ele>413</ele>
        <time>2023-12-15T15:37:36+01:00</time>
      </trkpt>
      <trkpt lat="43.68722" lon="3.1897">
        <ele>413</ele>
        <time>2023-12-15T15:37:45+01:00</time>
      </trkpt>
      <trkpt lat="43.68734" lon="3.18977">
        <ele>416</ele>
        <time>2023-12-15T15:37:59+01:00</time>
      </trkpt>
      <trkpt lat="43.68743" lon="3.18981">
        <ele>417</ele>
        <time>2023-12-15T15:38:09+01:00</time>
      </trkpt>
      <trkpt lat="43.68756" lon="3.18988">
        <ele>419</ele>
        <time>2023-12-15T15:38:23+01:00</time>
      </trkpt>
      <trkpt lat="43.68765" lon="3.18993">
        <ele>420</ele>
        <time>2023-12-15T15:38:32+01:00</time>
      </trkpt>
      <trkpt lat="43.68779" lon="3.18998">
        <ele>421</ele>
        <time>2023-12-15T15:38:47+01:00</time>
      </trkpt>
      <trkpt lat="43.68787" lon="3.19003">
        <ele>421</ele>
        <time>2023-12-15T15:38:56+01:00</time>
      </trkpt>
      <trkpt lat="43.68792" lon="3.19016">
        <ele>423</ele>
        <time>2023-12-15T15:39:05+01:00</time>
      </trkpt>
      <trkpt lat="43.68798" lon="3.19027">
        <ele>425</ele>
        <time>2023-12-15T15:39:14+01:00</time>
      </trkpt>
      <trkpt lat="43.68806" lon="3.19038">
        <ele>427</ele>
        <time>2023-12-15T15:39:29+01:00</time>
      </trkpt>
      <trkpt lat="43.68818" lon="3.19041">
        <ele>428</ele>
        <time>2023-12-15T15:39:57+01:00</time>
      </trkpt>
      <trkpt lat="43.68831" lon="3.19036">
        <ele>427</ele>
        <time>2023-12-15T15:40:07+01:00</time>
      </trkpt>
      <trkpt lat="43.68843" lon="3.19037">
        <ele>428</ele>
        <time>2023-12-15T15:40:16+01:00</time>
      </trkpt>
      <trkpt lat="43.68855" lon="3.19038">
        <ele>430</ele>
        <time>2023-12-15T15:40:25+01:00</time>
      </trkpt>
      <trkpt lat="43.68863" lon="3.19042">
        <ele>432</ele>
        <time>2023-12-15T15:40:35+01:00</time>
      </trkpt>
      <trkpt lat="43.68874" lon="3.19043">
        <ele>435</ele>
        <time>2023-12-15T15:40:49+01:00</time>
      </trkpt>
      <trkpt lat="43.68887" lon="3.19038">
        <ele>438</ele>
        <time>2023-12-15T15:41:02+01:00</time>
      </trkpt>
      <trkpt lat="43.68893" lon="3.19022">
        <ele>440</ele>
        <time>2023-12-15T15:41:16+01:00</time>
      </trkpt>
      <trkpt lat="43.68892" lon="3.19003">
        <ele>440</ele>
        <time>2023-12-15T15:41:31+01:00</time>
      </trkpt>
      <trkpt lat="43.6889" lon="3.18987">
        <ele>440</ele>
        <time>2023-12-15T15:41:40+01:00</time>
      </trkpt>
      <trkpt lat="43.68889" lon="3.18972">
        <ele>441</ele>
        <time>2023-12-15T15:41:49+01:00</time>
      </trkpt>
      <trkpt lat="43.68889" lon="3.18958">
        <ele>442</ele>
        <time>2023-12-15T15:41:58+01:00</time>
      </trkpt>
      <trkpt lat="43.68892" lon="3.18944">
        <ele>444</ele>
        <time>2023-12-15T15:42:07+01:00</time>
      </trkpt>
      <trkpt lat="43.68894" lon="3.18931">
        <ele>445</ele>
        <time>2023-12-15T15:42:17+01:00</time>
      </trkpt>
      <trkpt lat="43.68894" lon="3.18915">
        <ele>445</ele>
        <time>2023-12-15T15:42:26+01:00</time>
      </trkpt>
      <trkpt lat="43.68896" lon="3.18899">
        <ele>446</ele>
        <time>2023-12-15T15:42:35+01:00</time>
      </trkpt>
      <trkpt lat="43.68903" lon="3.18884">
        <ele>447</ele>
        <time>2023-12-15T15:42:45+01:00</time>
      </trkpt>
      <trkpt lat="43.68902" lon="3.18866">
        <ele>445</ele>
        <time>2023-12-15T15:42:59+01:00</time>
      </trkpt>
      <trkpt lat="43.68901" lon="3.18848">
        <ele>442</ele>
        <time>2023-12-15T15:43:13+01:00</time>
      </trkpt>
      <trkpt lat="43.68914" lon="3.18831">
        <ele>441</ele>
        <time>2023-12-15T15:43:22+01:00</time>
      </trkpt>
      <trkpt lat="43.68924" lon="3.1882">
        <ele>441</ele>
        <time>2023-12-15T15:43:32+01:00</time>
      </trkpt>
      <trkpt lat="43.68931" lon="3.1881">
        <ele>441</ele>
        <time>2023-12-15T15:43:41+01:00</time>
      </trkpt>
      <trkpt lat="43.68938" lon="3.188">
        <ele>440</ele>
        <time>2023-12-15T15:43:50+01:00</time>
      </trkpt>
      <trkpt lat="43.68947" lon="3.18794">
        <ele>440</ele>
        <time>2023-12-15T15:44:01+01:00</time>
      </trkpt>
      <trkpt lat="43.68962" lon="3.18789">
        <ele>441</ele>
        <time>2023-12-15T15:44:10+01:00</time>
      </trkpt>
      <trkpt lat="43.68972" lon="3.1879">
        <ele>443</ele>
        <time>2023-12-15T15:44:20+01:00</time>
      </trkpt>
      <trkpt lat="43.68984" lon="3.18788">
        <ele>446</ele>
        <time>2023-12-15T15:44:29+01:00</time>
      </trkpt>
      <trkpt lat="43.68994" lon="3.18779">
        <ele>446</ele>
        <time>2023-12-15T15:44:43+01:00</time>
      </trkpt>
      <trkpt lat="43.69001" lon="3.18771">
        <ele>445</ele>
        <time>2023-12-15T15:44:48+01:00</time>
      </trkpt>
      <trkpt lat="43.69012" lon="3.18757">
        <ele>444</ele>
        <time>2023-12-15T15:44:57+01:00</time>
      </trkpt>
      <trkpt lat="43.69024" lon="3.1875">
        <ele>446</ele>
        <time>2023-12-15T15:45:06+01:00</time>
      </trkpt>
      <trkpt lat="43.6903" lon="3.18737">
        <ele>444</ele>
        <time>2023-12-15T15:45:16+01:00</time>
      </trkpt>
      <trkpt lat="43.69036" lon="3.18723">
        <ele>441</ele>
        <time>2023-12-15T15:45:25+01:00</time>
      </trkpt>
      <trkpt lat="43.69044" lon="3.18713">
        <ele>440</ele>
        <time>2023-12-15T15:45:34+01:00</time>
      </trkpt>
      <trkpt lat="43.69055" lon="3.18706">
        <ele>439</ele>
        <time>2023-12-15T15:45:44+01:00</time>
      </trkpt>
      <trkpt lat="43.69066" lon="3.18697">
        <ele>438</ele>
        <time>2023-12-15T15:45:53+01:00</time>
      </trkpt>
      <trkpt lat="43.69077" lon="3.1869">
        <ele>438</ele>
        <time>2023-12-15T15:46:02+01:00</time>
      </trkpt>
      <trkpt lat="43.6909" lon="3.1868">
        <ele>436</ele>
        <time>2023-12-15T15:46:16+01:00</time>
      </trkpt>
      <trkpt lat="43.69105" lon="3.18673">
        <ele>434</ele>
        <time>2023-12-15T15:46:25+01:00</time>
      </trkpt>
      <trkpt lat="43.69117" lon="3.18668">
        <ele>433</ele>
        <time>2023-12-15T15:46:35+01:00</time>
      </trkpt>
      <trkpt lat="43.69127" lon="3.18667">
        <ele>433</ele>
        <time>2023-12-15T15:46:44+01:00</time>
      </trkpt>
      <trkpt lat="43.69138" lon="3.18668">
        <ele>433</ele>
        <time>2023-12-15T15:46:53+01:00</time>
      </trkpt>
      <trkpt lat="43.69147" lon="3.18672">
        <ele>434</ele>
        <time>2023-12-15T15:47:03+01:00</time>
      </trkpt>
      <trkpt lat="43.69157" lon="3.18673">
        <ele>434</ele>
        <time>2023-12-15T15:47:12+01:00</time>
      </trkpt>
      <trkpt lat="43.69168" lon="3.18672">
        <ele>433</ele>
        <time>2023-12-15T15:47:21+01:00</time>
      </trkpt>
      <trkpt lat="43.69178" lon="3.18665">
        <ele>430</ele>
        <time>2023-12-15T15:47:30+01:00</time>
      </trkpt>
      <trkpt lat="43.69192" lon="3.18665">
        <ele>428</ele>
        <time>2023-12-15T15:47:40+01:00</time>
      </trkpt>
      <trkpt lat="43.69207" lon="3.18667">
        <ele>428</ele>
        <time>2023-12-15T15:47:49+01:00</time>
      </trkpt>
      <trkpt lat="43.69218" lon="3.18667">
        <ele>428</ele>
        <time>2023-12-15T15:47:58+01:00</time>
      </trkpt>
      <trkpt lat="43.69228" lon="3.18667">
        <ele>428</ele>
        <time>2023-12-15T15:48:07+01:00</time>
      </trkpt>
      <trkpt lat="43.6924" lon="3.18669">
        <ele>428</ele>
        <time>2023-12-15T15:48:17+01:00</time>
      </trkpt>
      <trkpt lat="43.69251" lon="3.18671">
        <ele>429</ele>
        <time>2023-12-15T15:48:26+01:00</time>
      </trkpt>
      <trkpt lat="43.69264" lon="3.18674">
        <ele>429</ele>
        <time>2023-12-15T15:48:35+01:00</time>
      </trkpt>
      <trkpt lat="43.69275" lon="3.18674">
        <ele>430</ele>
        <time>2023-12-15T15:48:45+01:00</time>
      </trkpt>
      <trkpt lat="43.69287" lon="3.18672">
        <ele>429</ele>
        <time>2023-12-15T15:48:54+01:00</time>
      </trkpt>
      <trkpt lat="43.69299" lon="3.18667">
        <ele>428</ele>
        <time>2023-12-15T15:49:03+01:00</time>
      </trkpt>
      <trkpt lat="43.69308" lon="3.18663">
        <ele>427</ele>
        <time>2023-12-15T15:49:13+01:00</time>
      </trkpt>
      <trkpt lat="43.6932" lon="3.18661">
        <ele>428</ele>
        <time>2023-12-15T15:49:21+01:00</time>
      </trkpt>
      <trkpt lat="43.69331" lon="3.18654">
        <ele>427</ele>
        <time>2023-12-15T15:49:31+01:00</time>
      </trkpt>
      <trkpt lat="43.69338" lon="3.18646">
        <ele>426</ele>
        <time>2023-12-15T15:49:40+01:00</time>
      </trkpt>
      <trkpt lat="43.69342" lon="3.18633">
        <ele>424</ele>
        <time>2023-12-15T15:49:49+01:00</time>
      </trkpt>
      <trkpt lat="43.69347" lon="3.18622">
        <ele>423</ele>
        <time>2023-12-15T15:49:59+01:00</time>
      </trkpt>
      <trkpt lat="43.69356" lon="3.18613">
        <ele>422</ele>
        <time>2023-12-15T15:50:08+01:00</time>
      </trkpt>
      <trkpt lat="43.69368" lon="3.1861">
        <ele>422</ele>
        <time>2023-12-15T15:50:17+01:00</time>
      </trkpt>
      <trkpt lat="43.69379" lon="3.18618">
        <ele>423</ele>
        <time>2023-12-15T15:50:27+01:00</time>
      </trkpt>
      <trkpt lat="43.69389" lon="3.18626">
        <ele>424</ele>
        <time>2023-12-15T15:50:36+01:00</time>
      </trkpt>
      <trkpt lat="43.69398" lon="3.18634">
        <ele>423</ele>
        <time>2023-12-15T15:50:45+01:00</time>
      </trkpt>
      <trkpt lat="43.69411" lon="3.18641">
        <ele>423</ele>
        <time>2023-12-15T15:50:54+01:00</time>
      </trkpt>
      <trkpt lat="43.69421" lon="3.18648">
        <ele>423</ele>
        <time>2023-12-15T15:51:03+01:00</time>
      </trkpt>
      <trkpt lat="43.69431" lon="3.18657">
        <ele>422</ele>
        <time>2023-12-15T15:51:13+01:00</time>
      </trkpt>
      <trkpt lat="43.69441" lon="3.18664">
        <ele>422</ele>
        <time>2023-12-15T15:51:22+01:00</time>
      </trkpt>
      <trkpt lat="43.69453" lon="3.18669">
        <ele>421</ele>
        <time>2023-12-15T15:51:31+01:00</time>
      </trkpt>
      <trkpt lat="43.69461" lon="3.18674">
        <ele>420</ele>
        <time>2023-12-15T15:51:41+01:00</time>
      </trkpt>
      <trkpt lat="43.69471" lon="3.18683">
        <ele>420</ele>
        <time>2023-12-15T15:51:50+01:00</time>
      </trkpt>
      <trkpt lat="43.69481" lon="3.1869">
        <ele>419</ele>
        <time>2023-12-15T15:51:59+01:00</time>
      </trkpt>
      <trkpt lat="43.69491" lon="3.18699">
        <ele>419</ele>
        <time>2023-12-15T15:52:09+01:00</time>
      </trkpt>
      <trkpt lat="43.695" lon="3.18706">
        <ele>418</ele>
        <time>2023-12-15T15:52:18+01:00</time>
      </trkpt>
      <trkpt lat="43.69508" lon="3.18716">
        <ele>418</ele>
        <time>2023-12-15T15:52:27+01:00</time>
      </trkpt>
      <trkpt lat="43.69519" lon="3.18722">
        <ele>417</ele>
        <time>2023-12-15T15:52:36+01:00</time>
      </trkpt>
      <trkpt lat="43.69529" lon="3.18724">
        <ele>416</ele>
        <time>2023-12-15T15:52:46+01:00</time>
      </trkpt>
      <trkpt lat="43.69538" lon="3.1873">
        <ele>415</ele>
        <time>2023-12-15T15:52:55+01:00</time>
      </trkpt>
      <trkpt lat="43.69549" lon="3.18737">
        <ele>414</ele>
        <time>2023-12-15T15:53:05+01:00</time>
      </trkpt>
      <trkpt lat="43.6956" lon="3.18747">
        <ele>414</ele>
        <time>2023-12-15T15:53:14+01:00</time>
      </trkpt>
      <trkpt lat="43.6957" lon="3.18753">
        <ele>413</ele>
        <time>2023-12-15T15:53:23+01:00</time>
      </trkpt>
      <trkpt lat="43.6958" lon="3.18755">
        <ele>411</ele>
        <time>2023-12-15T15:57:28+01:00</time>
      </trkpt>
      <trkpt lat="43.69589" lon="3.18762">
        <ele>410</ele>
        <time>2023-12-15T15:57:38+01:00</time>
      </trkpt>
      <trkpt lat="43.69599" lon="3.18774">
        <ele>409</ele>
        <time>2023-12-15T15:57:52+01:00</time>
      </trkpt>
      <trkpt lat="43.69605" lon="3.18784">
        <ele>408</ele>
        <time>2023-12-15T15:58:02+01:00</time>
      </trkpt>
      <trkpt lat="43.69608" lon="3.18797">
        <ele>409</ele>
        <time>2023-12-15T15:58:11+01:00</time>
      </trkpt>
      <trkpt lat="43.69613" lon="3.18814">
        <ele>409</ele>
        <time>2023-12-15T15:58:26+01:00</time>
      </trkpt>
      <trkpt lat="43.69618" lon="3.18824">
        <ele>408</ele>
        <time>2023-12-15T15:58:48+01:00</time>
      </trkpt>
      <trkpt lat="43.69623" lon="3.18838">
        <ele>407</ele>
        <time>2023-12-15T15:59:03+01:00</time>
      </trkpt>
      <trkpt lat="43.69625" lon="3.18817">
        <ele>404</ele>
        <time>2023-12-15T16:00:36+01:00</time>
      </trkpt>
      <trkpt lat="43.69627" lon="3.18802">
        <ele>402</ele>
        <time>2023-12-15T16:00:46+01:00</time>
      </trkpt>
      <trkpt lat="43.69622" lon="3.18783">
        <ele>402</ele>
        <time>2023-12-15T16:01:19+01:00</time>
      </trkpt>
      <trkpt lat="43.69618" lon="3.18766">
        <ele>401</ele>
        <time>2023-12-15T16:01:28+01:00</time>
      </trkpt>
      <trkpt lat="43.69629" lon="3.1876">
        <ele>395</ele>
        <time>2023-12-15T16:01:47+01:00</time>
      </trkpt>
      <trkpt lat="43.6964" lon="3.18774">
        <ele>393</ele>
        <time>2023-12-15T16:01:56+01:00</time>
      </trkpt>
      <trkpt lat="43.69645" lon="3.18785">
        <ele>392</ele>
        <time>2023-12-15T16:02:05+01:00</time>
      </trkpt>
      <trkpt lat="43.69654" lon="3.18798">
        <ele>390</ele>
        <time>2023-12-15T16:02:19+01:00</time>
      </trkpt>
      <trkpt lat="43.69662" lon="3.1881">
        <ele>388</ele>
        <time>2023-12-15T16:02:28+01:00</time>
      </trkpt>
      <trkpt lat="43.69666" lon="3.18824">
        <ele>388</ele>
        <time>2023-12-15T16:02:38+01:00</time>
      </trkpt>
      <trkpt lat="43.69672" lon="3.18837">
        <ele>388</ele>
        <time>2023-12-15T16:02:47+01:00</time>
      </trkpt>
      <trkpt lat="43.69681" lon="3.18853">
        <ele>387</ele>
        <time>2023-12-15T16:02:57+01:00</time>
      </trkpt>
      <trkpt lat="43.69693" lon="3.18863">
        <ele>385</ele>
        <time>2023-12-15T16:03:06+01:00</time>
      </trkpt>
      <trkpt lat="43.69701" lon="3.18871">
        <ele>384</ele>
        <time>2023-12-15T16:03:20+01:00</time>
      </trkpt>
      <trkpt lat="43.69714" lon="3.18874">
        <ele>382</ele>
        <time>2023-12-15T16:03:29+01:00</time>
      </trkpt>
      <trkpt lat="43.69724" lon="3.18873">
        <ele>380</ele>
        <time>2023-12-15T16:03:39+01:00</time>
      </trkpt>
      <trkpt lat="43.69734" lon="3.18869">
        <ele>378</ele>
        <time>2023-12-15T16:03:48+01:00</time>
      </trkpt>
      <trkpt lat="43.69745" lon="3.18865">
        <ele>376</ele>
        <time>2023-12-15T16:04:02+01:00</time>
      </trkpt>
      <trkpt lat="43.69759" lon="3.18863">
        <ele>376</ele>
        <time>2023-12-15T16:04:11+01:00</time>
      </trkpt>
      <trkpt lat="43.69771" lon="3.18856">
        <ele>375</ele>
        <time>2023-12-15T16:04:25+01:00</time>
      </trkpt>
      <trkpt lat="43.69786" lon="3.18857">
        <ele>376</ele>
        <time>2023-12-15T16:04:35+01:00</time>
      </trkpt>
      <trkpt lat="43.69796" lon="3.18858">
        <ele>377</ele>
        <time>2023-12-15T16:04:45+01:00</time>
      </trkpt>
      <trkpt lat="43.69806" lon="3.18851">
        <ele>377</ele>
        <time>2023-12-15T16:04:54+01:00</time>
      </trkpt>
      <trkpt lat="43.69817" lon="3.1885">
        <ele>377</ele>
        <time>2023-12-15T16:05:03+01:00</time>
      </trkpt>
      <trkpt lat="43.69831" lon="3.18851">
        <ele>378</ele>
        <time>2023-12-15T16:05:13+01:00</time>
      </trkpt>
      <trkpt lat="43.69843" lon="3.18855">
        <ele>379</ele>
        <time>2023-12-15T16:05:22+01:00</time>
      </trkpt>
      <trkpt lat="43.69859" lon="3.18853">
        <ele>380</ele>
        <time>2023-12-15T16:05:36+01:00</time>
      </trkpt>
      <trkpt lat="43.69869" lon="3.18858">
        <ele>381</ele>
        <time>2023-12-15T16:05:45+01:00</time>
      </trkpt>
      <trkpt lat="43.69881" lon="3.18864">
        <ele>381</ele>
        <time>2023-12-15T16:05:56+01:00</time>
      </trkpt>
      <trkpt lat="43.69897" lon="3.18863">
        <ele>380</ele>
        <time>2023-12-15T16:06:09+01:00</time>
      </trkpt>
      <trkpt lat="43.69906" lon="3.18859">
        <ele>379</ele>
        <time>2023-12-15T16:06:19+01:00</time>
      </trkpt>
      <trkpt lat="43.69916" lon="3.18861">
        <ele>379</ele>
        <time>2023-12-15T16:06:28+01:00</time>
      </trkpt>
      <trkpt lat="43.69927" lon="3.18862">
        <ele>379</ele>
        <time>2023-12-15T16:06:37+01:00</time>
      </trkpt>
      <trkpt lat="43.69937" lon="3.18859">
        <ele>378</ele>
        <time>2023-12-15T16:06:46+01:00</time>
      </trkpt>
      <trkpt lat="43.69945" lon="3.18843">
        <ele>375</ele>
        <time>2023-12-15T16:07:05+01:00</time>
      </trkpt>
      <trkpt lat="43.69948" lon="3.18824">
        <ele>372</ele>
        <time>2023-12-15T16:07:14+01:00</time>
      </trkpt>
      <trkpt lat="43.69951" lon="3.18806">
        <ele>370</ele>
        <time>2023-12-15T16:07:33+01:00</time>
      </trkpt>
      <trkpt lat="43.69958" lon="3.18797">
        <ele>370</ele>
        <time>2023-12-15T16:07:38+01:00</time>
      </trkpt>
      <trkpt lat="43.69967" lon="3.1878">
        <ele>369</ele>
        <time>2023-12-15T16:07:47+01:00</time>
      </trkpt>
      <trkpt lat="43.69975" lon="3.18765">
        <ele>369</ele>
        <time>2023-12-15T16:07:57+01:00</time>
      </trkpt>
      <trkpt lat="43.69983" lon="3.18753">
        <ele>369</ele>
        <time>2023-12-15T16:08:11+01:00</time>
      </trkpt>
      <trkpt lat="43.69976" lon="3.18771">
        <ele>369</ele>
        <time>2023-12-15T16:08:30+01:00</time>
      </trkpt>
      <trkpt lat="43.69971" lon="3.18783">
        <ele>369</ele>
        <time>2023-12-15T16:08:39+01:00</time>
      </trkpt>
      <trkpt lat="43.69965" lon="3.18793">
        <ele>370</ele>
        <time>2023-12-15T16:08:48+01:00</time>
      </trkpt>
      <trkpt lat="43.69977" lon="3.18798">
        <ele>371</ele>
        <time>2023-12-15T16:09:02+01:00</time>
      </trkpt>
      <trkpt lat="43.69986" lon="3.18802">
        <ele>372</ele>
        <time>2023-12-15T16:09:11+01:00</time>
      </trkpt>
      <trkpt lat="43.69996" lon="3.18807">
        <ele>372</ele>
        <time>2023-12-15T16:09:20+01:00</time>
      </trkpt>
      <trkpt lat="43.70006" lon="3.18809">
        <ele>372</ele>
        <time>2023-12-15T16:09:30+01:00</time>
      </trkpt>
      <trkpt lat="43.70017" lon="3.18816">
        <ele>371</ele>
        <time>2023-12-15T16:09:44+01:00</time>
      </trkpt>
      <trkpt lat="43.70022" lon="3.18826">
        <ele>371</ele>
        <time>2023-12-15T16:09:58+01:00</time>
      </trkpt>
      <trkpt lat="43.70024" lon="3.18839">
        <ele>370</ele>
        <time>2023-12-15T16:10:07+01:00</time>
      </trkpt>
      <trkpt lat="43.70028" lon="3.18854">
        <ele>369</ele>
        <time>2023-12-15T16:10:21+01:00</time>
      </trkpt>
      <trkpt lat="43.70032" lon="3.18869">
        <ele>368</ele>
        <time>2023-12-15T16:10:31+01:00</time>
      </trkpt>
      <trkpt lat="43.70037" lon="3.1888">
        <ele>368</ele>
        <time>2023-12-15T16:10:40+01:00</time>
      </trkpt>
      <trkpt lat="43.70047" lon="3.18893">
        <ele>366</ele>
        <time>2023-12-15T16:10:53+01:00</time>
      </trkpt>
      <trkpt lat="43.70052" lon="3.18908">
        <ele>367</ele>
        <time>2023-12-15T16:11:03+01:00</time>
      </trkpt>
      <trkpt lat="43.70058" lon="3.18924">
        <ele>367</ele>
        <time>2023-12-15T16:11:18+01:00</time>
      </trkpt>
      <trkpt lat="43.70066" lon="3.18933">
        <ele>366</ele>
        <time>2023-12-15T16:11:27+01:00</time>
      </trkpt>
      <trkpt lat="43.70076" lon="3.18941">
        <ele>365</ele>
        <time>2023-12-15T16:11:36+01:00</time>
      </trkpt>
      <trkpt lat="43.70086" lon="3.18945">
        <ele>363</ele>
        <time>2023-12-15T16:11:46+01:00</time>
      </trkpt>
      <trkpt lat="43.70097" lon="3.18953">
        <ele>359</ele>
        <time>2023-12-15T16:11:55+01:00</time>
      </trkpt>
      <trkpt lat="43.70109" lon="3.18966">
        <ele>358</ele>
        <time>2023-12-15T16:12:14+01:00</time>
      </trkpt>
      <trkpt lat="43.70119" lon="3.18971">
        <ele>356</ele>
        <time>2023-12-15T16:12:23+01:00</time>
      </trkpt>
      <trkpt lat="43.70127" lon="3.18977">
        <ele>354</ele>
        <time>2023-12-15T16:12:33+01:00</time>
      </trkpt>
      <trkpt lat="43.70136" lon="3.18986">
        <ele>354</ele>
        <time>2023-12-15T16:12:42+01:00</time>
      </trkpt>
      <trkpt lat="43.70144" lon="3.18995">
        <ele>354</ele>
        <time>2023-12-15T16:12:56+01:00</time>
      </trkpt>
      <trkpt lat="43.70153" lon="3.19002">
        <ele>353</ele>
        <time>2023-12-15T16:13:10+01:00</time>
      </trkpt>
      <trkpt lat="43.70165" lon="3.19011">
        <ele>351</ele>
        <time>2023-12-15T16:13:24+01:00</time>
      </trkpt>
      <trkpt lat="43.70175" lon="3.19019">
        <ele>351</ele>
        <time>2023-12-15T16:13:33+01:00</time>
      </trkpt>
      <trkpt lat="43.70182" lon="3.19028">
        <ele>351</ele>
        <time>2023-12-15T16:13:43+01:00</time>
      </trkpt>
      <trkpt lat="43.70191" lon="3.19038">
        <ele>350</ele>
        <time>2023-12-15T16:13:53+01:00</time>
      </trkpt>
      <trkpt lat="43.70202" lon="3.19048">
        <ele>349</ele>
        <time>2023-12-15T16:14:21+01:00</time>
      </trkpt>
      <trkpt lat="43.70212" lon="3.19053">
        <ele>346</ele>
        <time>2023-12-15T16:14:30+01:00</time>
      </trkpt>
      <trkpt lat="43.70222" lon="3.19059">
        <ele>344</ele>
        <time>2023-12-15T16:14:41+01:00</time>
      </trkpt>
      <trkpt lat="43.70229" lon="3.1907">
        <ele>343</ele>
        <time>2023-12-15T16:14:50+01:00</time>
      </trkpt>
      <trkpt lat="43.70236" lon="3.1908">
        <ele>342</ele>
        <time>2023-12-15T16:15:04+01:00</time>
      </trkpt>
      <trkpt lat="43.70243" lon="3.19088">
        <ele>340</ele>
        <time>2023-12-15T16:15:14+01:00</time>
      </trkpt>
      <trkpt lat="43.70256" lon="3.19101">
        <ele>339</ele>
        <time>2023-12-15T16:15:28+01:00</time>
      </trkpt>
      <trkpt lat="43.70265" lon="3.19108">
        <ele>338</ele>
        <time>2023-12-15T16:15:37+01:00</time>
      </trkpt>
      <trkpt lat="43.70272" lon="3.19118">
        <ele>338</ele>
        <time>2023-12-15T16:15:51+01:00</time>
      </trkpt>
      <trkpt lat="43.70281" lon="3.19122">
        <ele>337</ele>
        <time>2023-12-15T16:16:29+01:00</time>
      </trkpt>
      <trkpt lat="43.7029" lon="3.19123">
        <ele>336</ele>
        <time>2023-12-15T16:17:28+01:00</time>
      </trkpt>
      <trkpt lat="43.70301" lon="3.19122">
        <ele>334</ele>
        <time>2023-12-15T16:18:12+01:00</time>
      </trkpt>
      <trkpt lat="43.70311" lon="3.19128">
        <ele>334</ele>
        <time>2023-12-15T16:18:26+01:00</time>
      </trkpt>
      <trkpt lat="43.7032" lon="3.19133">
        <ele>334</ele>
        <time>2023-12-15T16:18:56+01:00</time>
      </trkpt>
      <trkpt lat="43.70333" lon="3.19137">
        <ele>333</ele>
        <time>2023-12-15T16:19:15+01:00</time>
      </trkpt>
      <trkpt lat="43.70345" lon="3.1914">
        <ele>332</ele>
        <time>2023-12-15T16:19:24+01:00</time>
      </trkpt>
      <trkpt lat="43.70357" lon="3.1914">
        <ele>330</ele>
        <time>2023-12-15T16:19:34+01:00</time>
      </trkpt>
      <trkpt lat="43.70366" lon="3.19145">
        <ele>329</ele>
        <time>2023-12-15T16:19:43+01:00</time>
      </trkpt>
      <trkpt lat="43.70377" lon="3.19151">
        <ele>328</ele>
        <time>2023-12-15T16:19:52+01:00</time>
      </trkpt>
      <trkpt lat="43.70389" lon="3.19155">
        <ele>326</ele>
        <time>2023-12-15T16:20:02+01:00</time>
      </trkpt>
      <trkpt lat="43.70402" lon="3.19156">
        <ele>323</ele>
        <time>2023-12-15T16:20:11+01:00</time>
      </trkpt>
      <trkpt lat="43.70416" lon="3.19161">
        <ele>322</ele>
        <time>2023-12-15T16:20:20+01:00</time>
      </trkpt>
      <trkpt lat="43.70426" lon="3.1917">
        <ele>321</ele>
        <time>2023-12-15T16:20:30+01:00</time>
      </trkpt>
      <trkpt lat="43.70436" lon="3.19178">
        <ele>321</ele>
        <time>2023-12-15T16:20:39+01:00</time>
      </trkpt>
      <trkpt lat="43.70448" lon="3.19187">
        <ele>320</ele>
        <time>2023-12-15T16:20:49+01:00</time>
      </trkpt>
      <trkpt lat="43.70457" lon="3.19195">
        <ele>321</ele>
        <time>2023-12-15T16:20:58+01:00</time>
      </trkpt>
      <trkpt lat="43.7047" lon="3.19202">
        <ele>320</ele>
        <time>2023-12-15T16:21:07+01:00</time>
      </trkpt>
      <trkpt lat="43.70484" lon="3.19205">
        <ele>317</ele>
        <time>2023-12-15T16:21:17+01:00</time>
      </trkpt>
      <trkpt lat="43.70494" lon="3.1921">
        <ele>315</ele>
        <time>2023-12-15T16:21:27+01:00</time>
      </trkpt>
      <trkpt lat="43.70507" lon="3.19216">
        <ele>314</ele>
        <time>2023-12-15T16:21:36+01:00</time>
      </trkpt>
      <trkpt lat="43.70521" lon="3.19221">
        <ele>312</ele>
        <time>2023-12-15T16:21:45+01:00</time>
      </trkpt>
      <trkpt lat="43.70531" lon="3.19231">
        <ele>311</ele>
        <time>2023-12-15T16:21:55+01:00</time>
      </trkpt>
      <trkpt lat="43.70541" lon="3.19244">
        <ele>310</ele>
        <time>2023-12-15T16:22:05+01:00</time>
      </trkpt>
      <trkpt lat="43.70549" lon="3.19257">
        <ele>310</ele>
        <time>2023-12-15T16:22:15+01:00</time>
      </trkpt>
      <trkpt lat="43.70554" lon="3.1927">
        <ele>310</ele>
        <time>2023-12-15T16:22:24+01:00</time>
      </trkpt>
      <trkpt lat="43.70562" lon="3.19281">
        <ele>309</ele>
        <time>2023-12-15T16:22:33+01:00</time>
      </trkpt>
      <trkpt lat="43.70567" lon="3.19294">
        <ele>308</ele>
        <time>2023-12-15T16:22:43+01:00</time>
      </trkpt>
      <trkpt lat="43.70571" lon="3.19312">
        <ele>309</ele>
        <time>2023-12-15T16:22:52+01:00</time>
      </trkpt>
      <trkpt lat="43.70577" lon="3.19326">
        <ele>309</ele>
        <time>2023-12-15T16:23:02+01:00</time>
      </trkpt>
      <trkpt lat="43.70585" lon="3.19339">
        <ele>308</ele>
        <time>2023-12-15T16:23:11+01:00</time>
      </trkpt>
      <trkpt lat="43.70598" lon="3.19352">
        <ele>304</ele>
        <time>2023-12-15T16:23:21+01:00</time>
      </trkpt>
      <trkpt lat="43.70609" lon="3.19362">
        <ele>300</ele>
        <time>2023-12-15T16:23:31+01:00</time>
      </trkpt>
      <trkpt lat="43.70613" lon="3.1935">
        <ele>297</ele>
        <time>2023-12-15T16:23:59+01:00</time>
      </trkpt>
      <trkpt lat="43.70623" lon="3.19359">
        <ele>295</ele>
        <time>2023-12-15T16:24:13+01:00</time>
      </trkpt>
      <trkpt lat="43.70629" lon="3.19374">
        <ele>294</ele>
        <time>2023-12-15T16:24:32+01:00</time>
      </trkpt>
      <trkpt lat="43.70634" lon="3.19385">
        <ele>293</ele>
        <time>2023-12-15T16:24:46+01:00</time>
      </trkpt>
      <trkpt lat="43.70636" lon="3.19398">
        <ele>293</ele>
        <time>2023-12-15T16:25:00+01:00</time>
      </trkpt>
      <trkpt lat="43.70639" lon="3.19411">
        <ele>292</ele>
        <time>2023-12-15T16:25:10+01:00</time>
      </trkpt>
      <trkpt lat="43.70649" lon="3.19418">
        <ele>288</ele>
        <time>2023-12-15T16:25:23+01:00</time>
      </trkpt>
      <trkpt lat="43.70655" lon="3.19428">
        <ele>286</ele>
        <time>2023-12-15T16:25:39+01:00</time>
      </trkpt>
      <trkpt lat="43.70664" lon="3.19439">
        <ele>283</ele>
        <time>2023-12-15T16:26:07+01:00</time>
      </trkpt>
      <trkpt lat="43.70666" lon="3.19423">
        <ele>281</ele>
        <time>2023-12-15T16:26:31+01:00</time>
      </trkpt>
      <trkpt lat="43.7068" lon="3.19419">
        <ele>279</ele>
        <time>2023-12-15T16:26:46+01:00</time>
      </trkpt>
      <trkpt lat="43.70687" lon="3.19409">
        <ele>277</ele>
        <time>2023-12-15T16:26:55+01:00</time>
      </trkpt>
      <trkpt lat="43.70702" lon="3.194">
        <ele>275</ele>
        <time>2023-12-15T16:27:28+01:00</time>
      </trkpt>
      <trkpt lat="43.70708" lon="3.19389">
        <ele>274</ele>
        <time>2023-12-15T16:28:02+01:00</time>
      </trkpt>
      <trkpt lat="43.70704" lon="3.19366">
        <ele>274</ele>
        <time>2023-12-15T16:28:45+01:00</time>
      </trkpt>
      <trkpt lat="43.70698" lon="3.19346">
        <ele>274</ele>
        <time>2023-12-15T16:28:54+01:00</time>
      </trkpt>
      <trkpt lat="43.7069" lon="3.19333">
        <ele>273</ele>
        <time>2023-12-15T16:29:03+01:00</time>
      </trkpt>
      <trkpt lat="43.70689" lon="3.19315">
        <ele>273</ele>
        <time>2023-12-15T16:29:14+01:00</time>
      </trkpt>
      <trkpt lat="43.70685" lon="3.19303">
        <ele>273</ele>
        <time>2023-12-15T16:29:27+01:00</time>
      </trkpt>
      <trkpt lat="43.70682" lon="3.19285">
        <ele>273</ele>
        <time>2023-12-15T16:29:46+01:00</time>
      </trkpt>
      <trkpt lat="43.70677" lon="3.19267">
        <ele>273</ele>
        <time>2023-12-15T16:29:55+01:00</time>
      </trkpt>
      <trkpt lat="43.70672" lon="3.1925">
        <ele>273</ele>
        <time>2023-12-15T16:30:05+01:00</time>
      </trkpt>
      <trkpt lat="43.70668" lon="3.19237">
        <ele>272</ele>
        <time>2023-12-15T16:30:14+01:00</time>
      </trkpt>
      <trkpt lat="43.70663" lon="3.19222">
        <ele>273</ele>
        <time>2023-12-15T16:30:28+01:00</time>
      </trkpt>
      <trkpt lat="43.70656" lon="3.19206">
        <ele>273</ele>
        <time>2023-12-15T16:30:37+01:00</time>
      </trkpt>
      <trkpt lat="43.7065" lon="3.19195">
        <ele>273</ele>
        <time>2023-12-15T16:30:42+01:00</time>
      </trkpt>
      <trkpt lat="43.70645" lon="3.19184">
        <ele>273</ele>
        <time>2023-12-15T16:30:51+01:00</time>
      </trkpt>
      <trkpt lat="43.7064" lon="3.19172">
        <ele>272</ele>
        <time>2023-12-15T16:31:00+01:00</time>
      </trkpt>
      <trkpt lat="43.70629" lon="3.19172">
        <ele>274</ele>
        <time>2023-12-15T16:31:10+01:00</time>
      </trkpt>
    </trkseg>
  </trk>
</gpx>